BWA727 TFFF-OOMS
Flight info
| Callsign | BWA727 |
|---|---|
| Flight time | 13h 38m |
| Altitude | 31000 |
| Route | SESPO2R SESPO DCT MEBUK UN669 ELJEZ/M083F310 DCT 20N052W 23N046W 26N041W/M083F330 28N036W 30N030W 32N024W DCT IRKID/N0481F340 DCT IRKID DCT PECKY DCT ASGAM DCT BAROK DCT ORTOP T100 TAVSI/N0478F350 T100 AMPIR/N0476F340 T100 GOLFO/N0476F350 M744 CARBO UM744 MOS UA411 DAHRA UZ444 BNA UA31 BABOR UZ888 DIMAO UL874 OMENI DCT GZO DCT EVIRA DCT ABNAT DCT DEMAG UM978 SIT UM1 GUDIS/N0471F370 UM1 KAVOS DCT BIRES N134 TULEP N318 NEVOL Q255 LUDEP P559 ALPOT M691 SILBA H979 DASVA N318 VELAM P708 VUTAN N318 OVONA/N0464F350 N318 KAPUM N685 RURAL B415 SIXIV N318 LAKLU |
| Aircraft | B77W/H-SDE1E2E3FGHIJ2J3J4J5M1RWXY/LB1D1 |
Departure
| Time | 2026-04-22 21:29 |
|---|---|
| Airport | Martinique Aimé Césaire International Airport (TFFF) |
Arrival
| Time | 2026-04-23 11:07 |
|---|---|
| Airport | Muscat International Airport (OOMS) |
| Time | Latitude | Longitude | Altitude | Speed | Heading |
|---|---|---|---|---|---|
| 2026-04-22 19:25 | 14.59514 | -61.00160 | 23 ft | 0 kts | 48° |
| 2026-04-22 21:17 | 14.59506 | -61.00170 | 27 ft | 4 kts | 48° |
| 2026-04-22 21:17 | 14.59488 | -61.00191 | 26 ft | 3 kts | 48° |
| 2026-04-22 21:17 | 14.59474 | -61.00209 | 27 ft | 4 kts | 70° |
| 2026-04-22 21:17 | 14.59471 | -61.00228 | 27 ft | 4 kts | 109° |
| 2026-04-22 21:18 | 14.59482 | -61.00248 | 27 ft | 4 kts | 138° |
| 2026-04-22 21:18 | 14.59503 | -61.00265 | 25 ft | 4 kts | 143° |
| 2026-04-22 21:18 | 14.59509 | -61.00269 | 26 ft | 2 kts | 142° |
| 2026-04-22 21:21 | 14.59508 | -61.00269 | 26 ft | 1 kts | 142° |
| 2026-04-22 21:21 | 14.59486 | -61.00251 | 27 ft | 6 kts | 140° |
| 2026-04-22 21:21 | 14.59455 | -61.00220 | 28 ft | 7 kts | 133° |
| 2026-04-22 21:21 | 14.59412 | -61.00163 | 26 ft | 11 kts | 122° |
| 2026-04-22 21:22 | 14.59379 | -61.00094 | 25 ft | 11 kts | 111° |
| 2026-04-22 21:22 | 14.59332 | -61.00047 | 26 ft | 9 kts | 161° |
| 2026-04-22 21:22 | 14.59290 | -61.00039 | 26 ft | 0 kts | 171° |
| 2026-04-22 21:23 | 14.59259 | -61.00034 | 26 ft | 7 kts | 171° |
| 2026-04-22 21:23 | 14.59208 | -61.00025 | 27 ft | 7 kts | 171° |
| 2026-04-22 21:23 | 14.59156 | -61.00056 | 27 ft | 13 kts | 245° |
| 2026-04-22 21:24 | 14.59130 | -61.00180 | 23 ft | 21 kts | 260° |
| 2026-04-22 21:24 | 14.59105 | -61.00325 | 24 ft | 21 kts | 260° |
| 2026-04-22 21:24 | 14.59078 | -61.00486 | 24 ft | 27 kts | 260° |
| 2026-04-22 21:24 | 14.59045 | -61.00680 | 26 ft | 27 kts | 260° |
| 2026-04-22 21:25 | 14.59012 | -61.00873 | 26 ft | 27 kts | 260° |
| 2026-04-22 21:25 | 14.58979 | -61.01067 | 27 ft | 27 kts | 260° |
| 2026-04-22 21:25 | 14.58946 | -61.01261 | 31 ft | 27 kts | 260° |
| 2026-04-22 21:25 | 14.58913 | -61.01454 | 25 ft | 27 kts | 259° |
| 2026-04-22 21:26 | 14.58883 | -61.01621 | 25 ft | 18 kts | 260° |
| 2026-04-22 21:26 | 14.58870 | -61.01716 | 25 ft | 10 kts | 270° |
| 2026-04-22 21:26 | 14.58895 | -61.01780 | 27 ft | 10 kts | 302° |
| 2026-04-22 21:26 | 14.58893 | -61.01814 | 24 ft | 4 kts | 224° |
| 2026-04-22 21:27 | 14.58861 | -61.01817 | 25 ft | 2 kts | 160° |
| 2026-04-22 21:27 | 14.58854 | -61.01796 | 26 ft | 3 kts | 90° |
| 2026-04-22 21:27 | 14.58857 | -61.01782 | 25 ft | 0 kts | 78° |
| 2026-04-22 21:28 | 14.58868 | -61.01718 | 25 ft | 27 kts | 80° |
| 2026-04-22 21:28 | 14.58945 | -61.01263 | 31 ft | 101 kts | 80° |
| 2026-04-22 21:28 | 14.59106 | -61.00312 | 23 ft | 166 kts | 80° |
| 2026-04-22 21:29 | 14.59323 | -60.99032 | 424 ft | 182 kts | 79° |
| 2026-04-22 21:29 | 14.59549 | -60.97727 | 1132 ft | 187 kts | 78° |
| 2026-04-22 21:29 | 14.59791 | -60.96390 | 1769 ft | 189 kts | 78° |
| 2026-04-22 21:29 | 14.60031 | -60.95051 | 2220 ft | 191 kts | 79° |
| 2026-04-22 21:30 | 14.60258 | -60.93692 | 2656 ft | 194 kts | 79° |
| 2026-04-22 21:30 | 14.60492 | -60.92303 | 3043 ft | 196 kts | 79° |
| 2026-04-22 21:30 | 14.60731 | -60.90884 | 3287 ft | 209 kts | 79° |
| 2026-04-22 21:30 | 14.61250 | -60.89461 | 3378 ft | 220 kts | 48° |
| 2026-04-22 21:31 | 14.62018 | -60.88763 | 3513 ft | 226 kts | 36° |
| 2026-04-22 21:31 | 14.63346 | -60.87770 | 3722 ft | 244 kts | 36° |
| 2026-04-22 21:31 | 14.64741 | -60.86721 | 4184 ft | 252 kts | 36° |
| 2026-04-22 21:31 | 14.66200 | -60.85623 | 4545 ft | 266 kts | 36° |
| 2026-04-22 21:32 | 14.67718 | -60.84477 | 5063 ft | 274 kts | 36° |
| 2026-04-22 21:32 | 14.69271 | -60.83302 | 5622 ft | 279 kts | 36° |
| 2026-04-22 21:32 | 14.70847 | -60.82107 | 6238 ft | 283 kts | 36° |
| 2026-04-22 21:32 | 14.72443 | -60.80894 | 6833 ft | 286 kts | 36° |
| 2026-04-22 21:33 | 14.74052 | -60.79670 | 7428 ft | 289 kts | 36° |
| 2026-04-22 21:33 | 14.75680 | -60.78431 | 8032 ft | 292 kts | 36° |
| 2026-04-22 21:33 | 14.77019 | -60.77411 | 8517 ft | 295 kts | 36° |
| 2026-04-22 21:33 | 14.78679 | -60.76145 | 9128 ft | 298 kts | 35° |
| 2026-04-22 21:34 | 14.80353 | -60.74868 | 9703 ft | 301 kts | 36° |
| 2026-04-22 21:34 | 14.82047 | -60.73575 | 10232 ft | 306 kts | 35° |
| 2026-04-22 21:34 | 14.83804 | -60.72234 | 10416 ft | 324 kts | 36° |
| 2026-04-22 21:34 | 14.85673 | -60.70808 | 10576 ft | 343 kts | 36° |
| 2026-04-22 21:35 | 14.87645 | -60.69303 | 10737 ft | 362 kts | 36° |
| 2026-04-22 21:35 | 14.89722 | -60.67716 | 10920 ft | 379 kts | 36° |
| 2026-04-22 21:35 | 14.91862 | -60.66079 | 11421 ft | 386 kts | 36° |
| 2026-04-22 21:35 | 14.94030 | -60.64420 | 11973 ft | 391 kts | 36° |
| 2026-04-22 21:36 | 14.96228 | -60.62738 | 12513 ft | 396 kts | 36° |
| 2026-04-22 21:36 | 14.98455 | -60.61035 | 13086 ft | 400 kts | 36° |
| 2026-04-22 21:36 | 15.00701 | -60.59315 | 13684 ft | 403 kts | 36° |
| 2026-04-22 21:36 | 15.02959 | -60.57588 | 14224 ft | 406 kts | 36° |
| 2026-04-22 21:37 | 15.05240 | -60.55842 | 14715 ft | 409 kts | 36° |
| 2026-04-22 21:37 | 15.07542 | -60.54078 | 15209 ft | 413 kts | 36° |
| 2026-04-22 21:37 | 15.09858 | -60.52303 | 15701 ft | 417 kts | 35° |
| 2026-04-22 21:37 | 15.12198 | -60.50509 | 16190 ft | 420 kts | 35° |
| 2026-04-22 21:38 | 15.14556 | -60.48701 | 16668 ft | 424 kts | 35° |
| 2026-04-22 21:38 | 15.16936 | -60.46876 | 17142 ft | 427 kts | 35° |
| 2026-04-22 21:38 | 15.19334 | -60.45036 | 17618 ft | 431 kts | 35° |
| 2026-04-22 21:38 | 15.21754 | -60.43180 | 18066 ft | 435 kts | 35° |
| 2026-04-22 21:39 | 15.24190 | -60.41310 | 18472 ft | 438 kts | 35° |
| 2026-04-22 21:39 | 15.26650 | -60.39421 | 18879 ft | 441 kts | 35° |
| 2026-04-22 21:39 | 15.29123 | -60.37523 | 19284 ft | 444 kts | 34° |
| 2026-04-22 21:39 | 15.31614 | -60.35609 | 19673 ft | 447 kts | 34° |
| 2026-04-22 21:40 | 15.34124 | -60.33680 | 20076 ft | 450 kts | 34° |
| 2026-04-22 21:40 | 15.36646 | -60.31741 | 20470 ft | 453 kts | 34° |
| 2026-04-22 21:40 | 15.39189 | -60.29786 | 20856 ft | 456 kts | 34° |
| 2026-04-22 21:40 | 15.41745 | -60.27821 | 21246 ft | 459 kts | 34° |
| 2026-04-22 21:41 | 15.44322 | -60.25838 | 21619 ft | 462 kts | 34° |
| 2026-04-22 21:41 | 15.46915 | -60.23842 | 22005 ft | 466 kts | 34° |
| 2026-04-22 21:41 | 15.49184 | -60.22095 | 22330 ft | 468 kts | 34° |
| 2026-04-22 21:41 | 15.51809 | -60.20074 | 22679 ft | 471 kts | 34° |
| 2026-04-22 21:42 | 15.54447 | -60.18041 | 23047 ft | 474 kts | 34° |
| 2026-04-22 21:42 | 15.57107 | -60.15990 | 23412 ft | 477 kts | 33° |
| 2026-04-22 21:42 | 15.59778 | -60.13930 | 23716 ft | 480 kts | 33° |
| 2026-04-22 21:42 | 15.62468 | -60.11856 | 24020 ft | 483 kts | 33° |
| 2026-04-22 21:43 | 15.65147 | -60.09742 | 24315 ft | 486 kts | 38° |
| 2026-04-22 21:43 | 15.67540 | -60.07235 | 24564 ft | 492 kts | 47° |
| 2026-04-22 21:43 | 15.69707 | -60.04481 | 24847 ft | 495 kts | 49° |
| 2026-04-22 21:43 | 15.71828 | -60.01653 | 25132 ft | 498 kts | 50° |
| 2026-04-22 21:44 | 15.73955 | -59.98810 | 25429 ft | 499 kts | 50° |
| 2026-04-22 21:44 | 15.76111 | -59.95974 | 25705 ft | 501 kts | 49° |
| 2026-04-22 21:44 | 15.78300 | -59.93149 | 25980 ft | 504 kts | 49° |
| 2026-04-22 21:44 | 15.80521 | -59.90324 | 26269 ft | 506 kts | 48° |
| 2026-04-22 21:45 | 15.82762 | -59.87496 | 26542 ft | 508 kts | 48° |
| 2026-04-22 21:45 | 15.85018 | -59.84657 | 26801 ft | 510 kts | 48° |
| 2026-04-22 21:45 | 15.87279 | -59.81811 | 27068 ft | 513 kts | 48° |
| 2026-04-22 21:45 | 15.89552 | -59.78947 | 27325 ft | 515 kts | 48° |
| 2026-04-22 21:46 | 15.91839 | -59.76060 | 27583 ft | 517 kts | 48° |
| 2026-04-22 21:46 | 15.94126 | -59.73169 | 27847 ft | 519 kts | 48° |
| 2026-04-22 21:46 | 15.96421 | -59.70265 | 28092 ft | 521 kts | 48° |
| 2026-04-22 21:46 | 15.98725 | -59.67349 | 28332 ft | 523 kts | 48° |
| 2026-04-22 21:47 | 16.01038 | -59.64420 | 28557 ft | 525 kts | 48° |
| 2026-04-22 21:47 | 16.03360 | -59.61478 | 28776 ft | 527 kts | 48° |
| 2026-04-22 21:47 | 16.05688 | -59.58528 | 28997 ft | 529 kts | 48° |
| 2026-04-22 21:47 | 16.08021 | -59.55571 | 29266 ft | 529 kts | 48° |
| 2026-04-22 21:48 | 16.10357 | -59.52607 | 29577 ft | 529 kts | 48° |
| 2026-04-22 21:48 | 16.12687 | -59.49650 | 29911 ft | 528 kts | 48° |
| 2026-04-22 21:48 | 16.15011 | -59.46701 | 30186 ft | 528 kts | 48° |
| 2026-04-22 21:48 | 16.17338 | -59.43745 | 30423 ft | 528 kts | 49° |
| 2026-04-22 21:49 | 16.19647 | -59.40767 | 30643 ft | 529 kts | 49° |
| 2026-04-22 21:49 | 16.21937 | -59.37767 | 30860 ft | 530 kts | 49° |
| 2026-04-22 21:49 | 16.26520 | -59.31715 | 30965 ft | 532 kts | 49° |
| 2026-04-22 21:50 | 16.31091 | -59.25680 | 30960 ft | 530 kts | 49° |
| 2026-04-22 21:50 | 16.35687 | -59.19629 | 30973 ft | 528 kts | 49° |
| 2026-04-22 21:51 | 16.40241 | -59.13637 | 30973 ft | 528 kts | 49° |
| 2026-04-22 21:52 | 16.47085 | -59.04624 | 30968 ft | 529 kts | 49° |
| 2026-04-22 21:52 | 16.51652 | -58.98600 | 30971 ft | 531 kts | 49° |
| 2026-04-22 21:53 | 16.56233 | -58.92552 | 30970 ft | 532 kts | 49° |
| 2026-04-22 21:53 | 16.60820 | -58.86492 | 30964 ft | 533 kts | 49° |
| 2026-04-22 21:54 | 16.65410 | -58.80421 | 30962 ft | 534 kts | 49° |
| 2026-04-22 21:54 | 16.70005 | -58.74340 | 30972 ft | 534 kts | 49° |
| 2026-04-22 21:55 | 16.74600 | -58.68253 | 30978 ft | 534 kts | 49° |
| 2026-04-22 21:55 | 16.79193 | -58.62163 | 30963 ft | 534 kts | 49° |
| 2026-04-22 21:56 | 16.83785 | -58.56070 | 30962 ft | 534 kts | 49° |
| 2026-04-22 21:56 | 16.88377 | -58.49972 | 30966 ft | 534 kts | 49° |
| 2026-04-22 21:57 | 16.92967 | -58.43869 | 30973 ft | 534 kts | 49° |
| 2026-04-22 21:57 | 16.97555 | -58.37766 | 30988 ft | 534 kts | 49° |
| 2026-04-22 21:58 | 17.02140 | -58.31660 | 30966 ft | 534 kts | 49° |
| 2026-04-22 21:58 | 17.06725 | -58.25549 | 30974 ft | 534 kts | 49° |
| 2026-04-22 21:59 | 17.11311 | -58.19430 | 30977 ft | 535 kts | 49° |
| 2026-04-22 21:59 | 17.15897 | -58.13307 | 30977 ft | 535 kts | 49° |
| 2026-04-22 22:00 | 17.20486 | -58.07174 | 30976 ft | 536 kts | 49° |
| 2026-04-22 22:00 | 17.25079 | -58.01030 | 30976 ft | 536 kts | 49° |
| 2026-04-22 22:01 | 17.29672 | -57.94880 | 30977 ft | 536 kts | 49° |
| 2026-04-22 22:01 | 17.34261 | -57.88731 | 30977 ft | 536 kts | 49° |
| 2026-04-22 22:02 | 17.38853 | -57.82572 | 30979 ft | 537 kts | 49° |
| 2026-04-22 22:02 | 17.43450 | -57.76400 | 30980 ft | 537 kts | 49° |
| 2026-04-22 22:03 | 17.48039 | -57.70232 | 30977 ft | 537 kts | 49° |
| 2026-04-22 22:03 | 17.52636 | -57.64050 | 30979 ft | 538 kts | 49° |
| 2026-04-22 22:04 | 17.57230 | -57.57864 | 30979 ft | 538 kts | 49° |
| 2026-04-22 22:04 | 17.61824 | -57.51672 | 30981 ft | 538 kts | 49° |
| 2026-04-22 22:05 | 17.66423 | -57.45471 | 30985 ft | 539 kts | 49° |
| 2026-04-22 22:05 | 17.71033 | -57.39250 | 30987 ft | 540 kts | 49° |
| 2026-04-22 22:06 | 17.75641 | -57.33023 | 30979 ft | 540 kts | 49° |
| 2026-04-22 22:06 | 17.80243 | -57.26797 | 30980 ft | 540 kts | 49° |
| 2026-04-22 22:07 | 17.84844 | -57.20567 | 30980 ft | 539 kts | 49° |
| 2026-04-22 22:07 | 17.88665 | -57.15389 | 30979 ft | 539 kts | 49° |
| 2026-04-22 22:08 | 17.93250 | -57.09168 | 30984 ft | 539 kts | 49° |
| 2026-04-22 22:08 | 17.97820 | -57.02937 | 30987 ft | 539 kts | 51° |
| 2026-04-22 22:09 | 18.01721 | -56.96185 | 30984 ft | 543 kts | 63° |
| 2026-04-22 22:09 | 18.04743 | -56.88905 | 30993 ft | 544 kts | 65° |
| 2026-04-22 22:10 | 18.07715 | -56.81586 | 30988 ft | 544 kts | 65° |
| 2026-04-22 22:10 | 18.10721 | -56.74286 | 30991 ft | 545 kts | 64° |
| 2026-04-22 22:11 | 18.13757 | -56.66987 | 30994 ft | 545 kts | 64° |
| 2026-04-22 22:11 | 18.16796 | -56.59688 | 30989 ft | 545 kts | 64° |
| 2026-04-22 22:12 | 18.19834 | -56.52374 | 30992 ft | 545 kts | 64° |
| 2026-04-22 22:12 | 18.22863 | -56.45066 | 30993 ft | 545 kts | 64° |
| 2026-04-22 22:13 | 18.25911 | -56.37702 | 30990 ft | 545 kts | 64° |
| 2026-04-22 22:13 | 18.28934 | -56.30388 | 30992 ft | 545 kts | 64° |
| 2026-04-22 22:14 | 18.31954 | -56.23075 | 30993 ft | 545 kts | 64° |
| 2026-04-22 22:14 | 18.34970 | -56.15760 | 30993 ft | 545 kts | 64° |
| 2026-04-22 22:15 | 18.37985 | -56.08438 | 30993 ft | 545 kts | 64° |
| 2026-04-22 22:15 | 18.40994 | -56.01123 | 30993 ft | 544 kts | 64° |
| 2026-04-22 22:16 | 18.43999 | -55.93806 | 30994 ft | 544 kts | 64° |
| 2026-04-22 22:16 | 18.47002 | -55.86488 | 30997 ft | 544 kts | 64° |
| 2026-04-22 22:17 | 18.50003 | -55.79162 | 30996 ft | 545 kts | 64° |
| 2026-04-22 22:17 | 18.53001 | -55.71836 | 30997 ft | 545 kts | 64° |
| 2026-04-22 22:18 | 18.55996 | -55.64506 | 31000 ft | 545 kts | 65° |
| 2026-04-22 22:18 | 18.58990 | -55.57172 | 31001 ft | 544 kts | 64° |
| 2026-04-22 22:19 | 18.61978 | -55.49841 | 31000 ft | 544 kts | 64° |
| 2026-04-22 22:19 | 18.64965 | -55.42503 | 31000 ft | 544 kts | 65° |
| 2026-04-22 22:20 | 18.67949 | -55.35162 | 31000 ft | 544 kts | 65° |
| 2026-04-22 22:20 | 18.70929 | -55.27823 | 31006 ft | 544 kts | 65° |
| 2026-04-22 22:21 | 18.73907 | -55.20477 | 31004 ft | 544 kts | 65° |
| 2026-04-22 22:21 | 18.76880 | -55.13137 | 31002 ft | 544 kts | 65° |
| 2026-04-22 22:22 | 18.79848 | -55.05797 | 31004 ft | 544 kts | 65° |
| 2026-04-22 22:22 | 18.82816 | -54.98449 | 31002 ft | 544 kts | 65° |
| 2026-04-22 22:23 | 18.85781 | -54.91098 | 31005 ft | 544 kts | 65° |
| 2026-04-22 22:23 | 18.88741 | -54.83748 | 31008 ft | 544 kts | 65° |
| 2026-04-22 22:24 | 18.91697 | -54.76400 | 31010 ft | 544 kts | 65° |
| 2026-04-22 22:24 | 18.94651 | -54.69048 | 31014 ft | 544 kts | 65° |
| 2026-04-22 22:25 | 18.97605 | -54.61685 | 31012 ft | 544 kts | 65° |
| 2026-04-22 22:25 | 19.00551 | -54.54330 | 31012 ft | 544 kts | 65° |
| 2026-04-22 22:26 | 19.03501 | -54.46959 | 31010 ft | 544 kts | 65° |
| 2026-04-22 22:26 | 19.06444 | -54.39594 | 31013 ft | 544 kts | 65° |
| 2026-04-22 22:27 | 19.09387 | -54.32218 | 31013 ft | 544 kts | 65° |
| 2026-04-22 22:27 | 19.12321 | -54.24856 | 31011 ft | 544 kts | 65° |
| 2026-04-22 22:28 | 19.15256 | -54.17481 | 31013 ft | 544 kts | 65° |
| 2026-04-22 22:28 | 19.18184 | -54.10113 | 31014 ft | 544 kts | 65° |
| 2026-04-22 22:29 | 19.21093 | -54.02785 | 31017 ft | 543 kts | 65° |
| 2026-04-22 22:29 | 19.24013 | -53.95415 | 31019 ft | 543 kts | 65° |
| 2026-04-22 22:30 | 19.26933 | -53.88038 | 31022 ft | 543 kts | 65° |
| 2026-04-22 22:30 | 19.29846 | -53.80670 | 31016 ft | 543 kts | 65° |
| 2026-04-22 22:31 | 19.32755 | -53.73297 | 30998 ft | 544 kts | 65° |
| 2026-04-22 22:31 | 19.35697 | -53.65843 | 31010 ft | 552 kts | 65° |
| 2026-04-22 22:32 | 19.38666 | -53.58322 | 31029 ft | 555 kts | 65° |
| 2026-04-22 22:32 | 19.41633 | -53.50759 | 31026 ft | 556 kts | 65° |
| 2026-04-22 22:33 | 19.44600 | -53.43188 | 31018 ft | 556 kts | 65° |
| 2026-04-22 22:33 | 19.47558 | -53.35636 | 31022 ft | 554 kts | 65° |
| 2026-04-22 22:34 | 19.50511 | -53.28093 | 31016 ft | 553 kts | 65° |
| 2026-04-22 22:34 | 19.53433 | -53.20617 | 31018 ft | 552 kts | 65° |
| 2026-04-22 22:35 | 19.56370 | -53.13094 | 31020 ft | 552 kts | 65° |
| 2026-04-22 22:35 | 19.59299 | -53.05577 | 31026 ft | 552 kts | 65° |
| 2026-04-22 22:36 | 19.62230 | -52.98048 | 31025 ft | 552 kts | 65° |
| 2026-04-22 22:36 | 19.65157 | -52.90515 | 31023 ft | 553 kts | 65° |
| 2026-04-22 22:37 | 19.68087 | -52.82965 | 31025 ft | 553 kts | 65° |
| 2026-04-22 22:37 | 19.71015 | -52.75409 | 31025 ft | 554 kts | 65° |
| 2026-04-22 22:38 | 19.73945 | -52.67837 | 31027 ft | 555 kts | 65° |
| 2026-04-22 22:38 | 19.76873 | -52.60257 | 31025 ft | 555 kts | 65° |
| 2026-04-22 22:39 | 19.79797 | -52.52677 | 31028 ft | 555 kts | 65° |
| 2026-04-22 22:39 | 19.82240 | -52.46338 | 31029 ft | 555 kts | 65° |
| 2026-04-22 22:40 | 19.85162 | -52.38744 | 31029 ft | 555 kts | 65° |
| 2026-04-22 22:40 | 19.88079 | -52.31152 | 31030 ft | 555 kts | 65° |
| 2026-04-22 22:41 | 19.90992 | -52.23557 | 31030 ft | 555 kts | 65° |
| 2026-04-22 22:41 | 19.93885 | -52.16005 | 31029 ft | 555 kts | 65° |
| 2026-04-22 22:42 | 19.96793 | -52.08402 | 31035 ft | 555 kts | 65° |
| 2026-04-22 22:42 | 19.99715 | -52.00803 | 31035 ft | 555 kts | 64° |
| 2026-04-22 22:43 | 20.03255 | -51.93565 | 31038 ft | 551 kts | 57° |
| 2026-04-22 22:43 | 20.07065 | -51.86484 | 31035 ft | 552 kts | 57° |
| 2026-04-22 22:44 | 20.10865 | -51.79386 | 31034 ft | 552 kts | 57° |
| 2026-04-22 22:44 | 20.14634 | -51.72248 | 31039 ft | 553 kts | 57° |
| 2026-04-22 22:45 | 20.18376 | -51.65110 | 31037 ft | 553 kts | 57° |
| 2026-04-22 22:45 | 20.22126 | -51.57948 | 31035 ft | 553 kts | 57° |
| 2026-04-22 22:46 | 20.25867 | -51.50802 | 31039 ft | 553 kts | 57° |
| 2026-04-22 22:46 | 20.29612 | -51.43645 | 31036 ft | 553 kts | 57° |
| 2026-04-22 22:47 | 20.33354 | -51.36483 | 31036 ft | 553 kts | 57° |
| 2026-04-22 22:47 | 20.37093 | -51.29319 | 31037 ft | 553 kts | 57° |
| 2026-04-22 22:48 | 20.40829 | -51.22150 | 31035 ft | 553 kts | 57° |
| 2026-04-22 22:48 | 20.43930 | -51.16192 | 31039 ft | 553 kts | 57° |
| 2026-04-22 22:49 | 20.47662 | -51.09014 | 31036 ft | 553 kts | 57° |
| 2026-04-22 22:49 | 20.51393 | -51.01829 | 31041 ft | 554 kts | 57° |
| 2026-04-22 22:50 | 20.55121 | -50.94640 | 31043 ft | 554 kts | 57° |
| 2026-04-22 22:50 | 20.58851 | -50.87440 | 31044 ft | 554 kts | 57° |
| 2026-04-22 22:51 | 20.62576 | -50.80238 | 31047 ft | 554 kts | 57° |
| 2026-04-22 22:51 | 20.66299 | -50.73031 | 31036 ft | 554 kts | 57° |
| 2026-04-22 22:52 | 20.70016 | -50.65826 | 31052 ft | 554 kts | 57° |
| 2026-04-22 22:52 | 20.73715 | -50.58647 | 31040 ft | 555 kts | 57° |
| 2026-04-22 22:53 | 20.77431 | -50.51427 | 31039 ft | 555 kts | 57° |
| 2026-04-22 22:53 | 20.81171 | -50.44148 | 31040 ft | 555 kts | 58° |
| 2026-04-22 22:54 | 20.84856 | -50.36969 | 31048 ft | 555 kts | 58° |
| 2026-04-22 22:54 | 20.88568 | -50.29727 | 31046 ft | 555 kts | 58° |
| 2026-04-22 22:55 | 20.92274 | -50.22488 | 31046 ft | 555 kts | 58° |
| 2026-04-22 22:55 | 20.97835 | -50.11607 | 31050 ft | 556 kts | 58° |
| 2026-04-22 22:56 | 21.01543 | -50.04340 | 31047 ft | 556 kts | 58° |
| 2026-04-22 22:56 | 21.05241 | -49.97083 | 31050 ft | 556 kts | 58° |
| 2026-04-22 22:57 | 21.08944 | -49.89806 | 31051 ft | 556 kts | 58° |
| 2026-04-22 22:57 | 21.12637 | -49.82538 | 31049 ft | 556 kts | 58° |
| 2026-04-22 22:58 | 21.16333 | -49.75256 | 31047 ft | 556 kts | 58° |
| 2026-04-22 22:58 | 21.20025 | -49.67971 | 31046 ft | 556 kts | 58° |
| 2026-04-22 22:59 | 21.23690 | -49.60730 | 31049 ft | 556 kts | 58° |
| 2026-04-22 22:59 | 21.27382 | -49.53426 | 31049 ft | 556 kts | 58° |
| 2026-04-22 23:00 | 21.31068 | -49.46124 | 31053 ft | 557 kts | 58° |
| 2026-04-22 23:00 | 21.34751 | -49.38818 | 31052 ft | 557 kts | 58° |
| 2026-04-22 23:01 | 21.38430 | -49.31510 | 31050 ft | 557 kts | 58° |
| 2026-04-22 23:01 | 21.42106 | -49.24198 | 31052 ft | 557 kts | 58° |
| 2026-04-22 23:02 | 21.45783 | -49.16872 | 31056 ft | 557 kts | 58° |
| 2026-04-22 23:02 | 21.49453 | -49.09553 | 31057 ft | 557 kts | 58° |
| 2026-04-22 23:03 | 21.53129 | -49.02211 | 31061 ft | 557 kts | 58° |
| 2026-04-22 23:03 | 21.56794 | -48.94880 | 31060 ft | 557 kts | 58° |
| 2026-04-22 23:04 | 21.60459 | -48.87539 | 31057 ft | 557 kts | 58° |
| 2026-04-22 23:04 | 21.64122 | -48.80191 | 31065 ft | 558 kts | 58° |
| 2026-04-22 23:05 | 21.67783 | -48.72839 | 31067 ft | 558 kts | 58° |
| 2026-04-22 23:05 | 21.71444 | -48.65477 | 31063 ft | 558 kts | 58° |
| 2026-04-22 23:06 | 21.75100 | -48.58112 | 31059 ft | 558 kts | 58° |
| 2026-04-22 23:06 | 21.78750 | -48.50752 | 31061 ft | 558 kts | 58° |
| 2026-04-22 23:07 | 21.82404 | -48.43371 | 31065 ft | 558 kts | 58° |
| 2026-04-22 23:07 | 21.86049 | -48.35998 | 31065 ft | 558 kts | 58° |
| 2026-04-22 23:08 | 21.89693 | -48.28617 | 31063 ft | 558 kts | 58° |
| 2026-04-22 23:08 | 21.93336 | -48.21228 | 31063 ft | 558 kts | 58° |
| 2026-04-22 23:09 | 21.96974 | -48.13840 | 31064 ft | 559 kts | 58° |
| 2026-04-22 23:09 | 22.00588 | -48.06488 | 31061 ft | 559 kts | 58° |
| 2026-04-22 23:10 | 22.04225 | -47.99080 | 31069 ft | 559 kts | 58° |
| 2026-04-22 23:10 | 22.07856 | -47.91673 | 31066 ft | 559 kts | 58° |
| 2026-04-22 23:11 | 22.11489 | -47.84252 | 31063 ft | 559 kts | 58° |
| 2026-04-22 23:11 | 22.15116 | -47.76832 | 31067 ft | 560 kts | 58° |
| 2026-04-22 23:12 | 22.18742 | -47.69403 | 31068 ft | 560 kts | 58° |
| 2026-04-22 23:12 | 22.22370 | -47.61960 | 31068 ft | 560 kts | 58° |
| 2026-04-22 23:13 | 22.25990 | -47.54520 | 31067 ft | 560 kts | 58° |
| 2026-04-22 23:13 | 22.29607 | -47.47079 | 31069 ft | 560 kts | 58° |
| 2026-04-22 23:14 | 22.33220 | -47.39635 | 31065 ft | 559 kts | 58° |
| 2026-04-22 23:14 | 22.36829 | -47.32185 | 31070 ft | 559 kts | 58° |
| 2026-04-22 23:15 | 22.40430 | -47.24745 | 31071 ft | 559 kts | 58° |
| 2026-04-22 23:15 | 22.44026 | -47.17302 | 31068 ft | 558 kts | 58° |
| 2026-04-22 23:16 | 22.47617 | -47.09857 | 31069 ft | 558 kts | 58° |
| 2026-04-22 23:16 | 22.51178 | -47.02465 | 31073 ft | 558 kts | 58° |
| 2026-04-22 23:17 | 22.54779 | -46.94980 | 31075 ft | 557 kts | 58° |
| 2026-04-22 23:17 | 22.58353 | -46.87539 | 31062 ft | 557 kts | 58° |
| 2026-04-22 23:18 | 22.61922 | -46.80099 | 31071 ft | 557 kts | 58° |
| 2026-04-22 23:18 | 22.65462 | -46.72707 | 31062 ft | 557 kts | 58° |
| 2026-04-22 23:19 | 22.69045 | -46.65214 | 31065 ft | 556 kts | 58° |
| 2026-04-22 23:19 | 22.72577 | -46.57817 | 31068 ft | 556 kts | 58° |
| 2026-04-22 23:20 | 22.76148 | -46.50326 | 31083 ft | 556 kts | 58° |
| 2026-04-22 23:20 | 22.79695 | -46.42876 | 31071 ft | 556 kts | 58° |
| 2026-04-22 23:21 | 22.83213 | -46.35475 | 31075 ft | 556 kts | 58° |
| 2026-04-22 23:21 | 22.86750 | -46.28023 | 31079 ft | 555 kts | 59° |
| 2026-04-22 23:22 | 22.90280 | -46.20573 | 31078 ft | 555 kts | 59° |
| 2026-04-22 23:22 | 22.93806 | -46.13121 | 31076 ft | 555 kts | 59° |
| 2026-04-22 23:23 | 22.97322 | -46.05679 | 31075 ft | 554 kts | 59° |
| 2026-04-22 23:23 | 23.00963 | -45.98323 | 31075 ft | 550 kts | 53° |
| 2026-04-22 23:24 | 23.05239 | -45.91481 | 31081 ft | 547 kts | 50° |
| 2026-04-22 23:24 | 23.09595 | -45.84703 | 31082 ft | 547 kts | 50° |
| 2026-04-22 23:25 | 23.13919 | -45.77902 | 31077 ft | 547 kts | 51° |
| 2026-04-22 23:25 | 23.18213 | -45.71069 | 31082 ft | 547 kts | 51° |
| 2026-04-22 23:26 | 23.22483 | -45.64245 | 31080 ft | 546 kts | 51° |
| 2026-04-22 23:26 | 23.26754 | -45.57414 | 31082 ft | 546 kts | 51° |
| 2026-04-22 23:27 | 23.31022 | -45.50585 | 31080 ft | 545 kts | 51° |
| 2026-04-22 23:27 | 23.35285 | -45.43757 | 31080 ft | 545 kts | 51° |
| 2026-04-22 23:28 | 23.39536 | -45.36938 | 31082 ft | 545 kts | 51° |
| 2026-04-22 23:28 | 23.43785 | -45.30114 | 31083 ft | 544 kts | 51° |
| 2026-04-22 23:29 | 23.48042 | -45.23270 | 31187 ft | 549 kts | 51° |
| 2026-04-22 23:29 | 23.50182 | -45.19825 | 31454 ft | 549 kts | 51° |
| 2026-04-22 23:29 | 23.52320 | -45.16381 | 31756 ft | 549 kts | 51° |
| 2026-04-22 23:30 | 23.54458 | -45.12933 | 31991 ft | 550 kts | 51° |
| 2026-04-22 23:30 | 23.56571 | -45.09523 | 32205 ft | 551 kts | 51° |
| 2026-04-22 23:30 | 23.58718 | -45.06058 | 32433 ft | 552 kts | 51° |
| 2026-04-22 23:30 | 23.60866 | -45.02587 | 32664 ft | 552 kts | 51° |
| 2026-04-22 23:31 | 23.63017 | -44.99111 | 32893 ft | 553 kts | 51° |
| 2026-04-22 23:31 | 23.65169 | -44.95630 | 33002 ft | 554 kts | 51° |
| 2026-04-22 23:31 | 23.69485 | -44.88641 | 33086 ft | 556 kts | 51° |
| 2026-04-22 23:32 | 23.73789 | -44.81657 | 33080 ft | 553 kts | 51° |
| 2026-04-22 23:32 | 23.78069 | -44.74703 | 33087 ft | 551 kts | 51° |
| 2026-04-22 23:33 | 23.82333 | -44.67770 | 33081 ft | 550 kts | 51° |
| 2026-04-22 23:33 | 23.86594 | -44.60833 | 33086 ft | 550 kts | 51° |
| 2026-04-22 23:34 | 23.90137 | -44.55059 | 33084 ft | 550 kts | 51° |
| 2026-04-22 23:34 | 23.94397 | -44.48104 | 33086 ft | 551 kts | 51° |
| 2026-04-22 23:35 | 23.99348 | -44.40010 | 33086 ft | 551 kts | 51° |
| 2026-04-22 23:35 | 24.03607 | -44.33035 | 33085 ft | 551 kts | 51° |
| 2026-04-22 23:36 | 24.07173 | -44.27190 | 33082 ft | 551 kts | 51° |
| 2026-04-22 23:36 | 24.11428 | -44.20203 | 33083 ft | 551 kts | 51° |
| 2026-04-22 23:37 | 24.15673 | -44.13224 | 33085 ft | 551 kts | 51° |
| 2026-04-22 23:37 | 24.19886 | -44.06287 | 33086 ft | 550 kts | 51° |
| 2026-04-22 23:38 | 24.24119 | -43.99309 | 33083 ft | 549 kts | 51° |
| 2026-04-22 23:38 | 24.28339 | -43.92342 | 33084 ft | 549 kts | 51° |
| 2026-04-22 23:39 | 24.32555 | -43.85371 | 33087 ft | 548 kts | 51° |
| 2026-04-22 23:39 | 24.36763 | -43.78405 | 33089 ft | 547 kts | 51° |
| 2026-04-22 23:40 | 24.40957 | -43.71450 | 33076 ft | 547 kts | 51° |
| 2026-04-22 23:40 | 24.45149 | -43.64491 | 33096 ft | 546 kts | 51° |
| 2026-04-22 23:41 | 24.49329 | -43.57540 | 33100 ft | 546 kts | 51° |
| 2026-04-22 23:41 | 24.53507 | -43.50584 | 33085 ft | 545 kts | 51° |
| 2026-04-22 23:42 | 24.57679 | -43.43627 | 33094 ft | 545 kts | 51° |
| 2026-04-22 23:42 | 24.61844 | -43.36672 | 33084 ft | 544 kts | 52° |
| 2026-04-22 23:43 | 24.65974 | -43.29765 | 33083 ft | 544 kts | 52° |
| 2026-04-22 23:43 | 24.70124 | -43.22814 | 33085 ft | 543 kts | 52° |
| 2026-04-22 23:44 | 24.74263 | -43.15872 | 33085 ft | 542 kts | 52° |
| 2026-04-22 23:44 | 24.78391 | -43.08939 | 33087 ft | 541 kts | 52° |
| 2026-04-22 23:45 | 24.82504 | -43.02021 | 33087 ft | 540 kts | 52° |
| 2026-04-22 23:45 | 24.86610 | -42.95105 | 33082 ft | 539 kts | 52° |
| 2026-04-22 23:46 | 24.90679 | -42.88241 | 33085 ft | 538 kts | 52° |
| 2026-04-22 23:46 | 24.94763 | -42.81342 | 33084 ft | 537 kts | 52° |
| 2026-04-22 23:47 | 24.98861 | -42.74411 | 33087 ft | 536 kts | 53° |
| 2026-04-22 23:47 | 25.02927 | -42.67522 | 33090 ft | 535 kts | 53° |
| 2026-04-22 23:48 | 25.06958 | -42.60684 | 33095 ft | 535 kts | 53° |
| 2026-04-22 23:48 | 25.11006 | -42.53806 | 33088 ft | 534 kts | 53° |
| 2026-04-22 23:49 | 25.15041 | -42.46941 | 33089 ft | 533 kts | 53° |
| 2026-04-22 23:49 | 25.19072 | -42.40072 | 33088 ft | 532 kts | 53° |
| 2026-04-22 23:50 | 25.23094 | -42.33209 | 33089 ft | 532 kts | 53° |
| 2026-04-22 23:50 | 25.27107 | -42.26351 | 33088 ft | 531 kts | 53° |
| 2026-04-22 23:51 | 25.31114 | -42.19495 | 33091 ft | 531 kts | 53° |
| 2026-04-22 23:51 | 25.35113 | -42.12641 | 33092 ft | 530 kts | 54° |
| 2026-04-22 23:52 | 25.39107 | -42.05786 | 33093 ft | 530 kts | 54° |
| 2026-04-22 23:52 | 25.43091 | -41.98939 | 33092 ft | 529 kts | 54° |
| 2026-04-22 23:53 | 25.47071 | -41.92086 | 33094 ft | 529 kts | 54° |
| 2026-04-22 23:53 | 25.51044 | -41.85238 | 33090 ft | 528 kts | 54° |
| 2026-04-22 23:54 | 25.55010 | -41.78391 | 33096 ft | 528 kts | 54° |
| 2026-04-22 23:54 | 25.58969 | -41.71546 | 33098 ft | 527 kts | 54° |
| 2026-04-22 23:55 | 25.62919 | -41.64708 | 33092 ft | 527 kts | 54° |
| 2026-04-22 23:55 | 25.66865 | -41.57865 | 33095 ft | 526 kts | 54° |
| 2026-04-22 23:56 | 25.70783 | -41.51062 | 33083 ft | 526 kts | 54° |
| 2026-04-22 23:56 | 25.74711 | -41.44229 | 33103 ft | 526 kts | 54° |
| 2026-04-22 23:57 | 25.78639 | -41.37389 | 33105 ft | 525 kts | 54° |
| 2026-04-22 23:57 | 25.82560 | -41.30550 | 33090 ft | 525 kts | 54° |
| 2026-04-22 23:58 | 25.86474 | -41.23712 | 33092 ft | 525 kts | 54° |
| 2026-04-22 23:58 | 25.90386 | -41.16867 | 33116 ft | 525 kts | 54° |
| 2026-04-22 23:59 | 25.94293 | -41.10021 | 33098 ft | 525 kts | 54° |
| 2026-04-22 23:59 | 25.98196 | -41.03173 | 33101 ft | 524 kts | 54° |
| 2026-04-23 00:00 | 26.03344 | -40.92412 | 33105 ft | 527 kts | 62° |
| 2026-04-23 00:01 | 26.06410 | -40.85012 | 33102 ft | 527 kts | 63° |
| 2026-04-23 00:01 | 26.09491 | -40.77612 | 33099 ft | 527 kts | 62° |
| 2026-04-23 00:02 | 26.12600 | -40.70225 | 33106 ft | 527 kts | 62° |
| 2026-04-23 00:02 | 26.15697 | -40.62886 | 33101 ft | 527 kts | 62° |
| 2026-04-23 00:03 | 26.18805 | -40.55509 | 33102 ft | 527 kts | 62° |
| 2026-04-23 00:03 | 26.21912 | -40.48115 | 33101 ft | 526 kts | 62° |
| 2026-04-23 00:04 | 26.25007 | -40.40733 | 33105 ft | 526 kts | 62° |
| 2026-04-23 00:04 | 26.28102 | -40.33339 | 33101 ft | 526 kts | 62° |
| 2026-04-23 00:05 | 26.31190 | -40.25948 | 33105 ft | 526 kts | 62° |
| 2026-04-23 00:05 | 26.34275 | -40.18550 | 33113 ft | 526 kts | 62° |
| 2026-04-23 00:06 | 26.37338 | -40.11194 | 33107 ft | 526 kts | 62° |
| 2026-04-23 00:06 | 26.40417 | -40.03786 | 33104 ft | 526 kts | 62° |
| 2026-04-23 00:07 | 26.43486 | -39.96387 | 33104 ft | 526 kts | 62° |
| 2026-04-23 00:07 | 26.46555 | -39.88976 | 33104 ft | 526 kts | 62° |
| 2026-04-23 00:08 | 26.49618 | -39.81568 | 33106 ft | 525 kts | 62° |
| 2026-04-23 00:08 | 26.52675 | -39.74161 | 33104 ft | 525 kts | 62° |
| 2026-04-23 00:09 | 26.55723 | -39.66762 | 33099 ft | 524 kts | 62° |
| 2026-04-23 00:09 | 26.58766 | -39.59361 | 33102 ft | 524 kts | 62° |
| 2026-04-23 00:10 | 26.61805 | -39.51956 | 33109 ft | 523 kts | 62° |
| 2026-04-23 00:10 | 26.64814 | -39.44612 | 33110 ft | 523 kts | 62° |
| 2026-04-23 00:11 | 26.67822 | -39.37257 | 33112 ft | 523 kts | 62° |
| 2026-04-23 00:11 | 26.70841 | -39.29865 | 33110 ft | 522 kts | 62° |
| 2026-04-23 00:12 | 26.73853 | -39.22473 | 33110 ft | 522 kts | 63° |
| 2026-04-23 00:12 | 26.76855 | -39.15092 | 33111 ft | 521 kts | 63° |
| 2026-04-23 00:13 | 26.79854 | -39.07709 | 33109 ft | 521 kts | 63° |
| 2026-04-23 00:13 | 26.82845 | -39.00329 | 33111 ft | 520 kts | 63° |
| 2026-04-23 00:14 | 26.85827 | -38.92959 | 33113 ft | 519 kts | 63° |
| 2026-04-23 00:14 | 26.88801 | -38.85594 | 33108 ft | 518 kts | 63° |
| 2026-04-23 00:15 | 26.91768 | -38.78234 | 33109 ft | 518 kts | 63° |
| 2026-04-23 00:15 | 26.94727 | -38.70882 | 33111 ft | 518 kts | 63° |
| 2026-04-23 00:16 | 26.97670 | -38.63555 | 33113 ft | 519 kts | 63° |
| 2026-04-23 00:16 | 27.00649 | -38.56128 | 33113 ft | 520 kts | 63° |
| 2026-04-23 00:17 | 27.03592 | -38.48775 | 33115 ft | 521 kts | 63° |
| 2026-04-23 00:17 | 27.06556 | -38.41354 | 33116 ft | 522 kts | 63° |
| 2026-04-23 00:18 | 27.09522 | -38.33917 | 33115 ft | 522 kts | 63° |
| 2026-04-23 00:18 | 27.12483 | -38.26475 | 33118 ft | 523 kts | 63° |
| 2026-04-23 00:19 | 27.15445 | -38.19021 | 33119 ft | 522 kts | 63° |
| 2026-04-23 00:19 | 27.18398 | -38.11572 | 33111 ft | 522 kts | 63° |
| 2026-04-23 00:20 | 27.21343 | -38.04132 | 33116 ft | 521 kts | 63° |
| 2026-04-23 00:20 | 27.24277 | -37.96704 | 33118 ft | 520 kts | 63° |
| 2026-04-23 00:21 | 27.27199 | -37.89293 | 33115 ft | 519 kts | 63° |
| 2026-04-23 00:21 | 27.30115 | -37.81885 | 33120 ft | 518 kts | 63° |
| 2026-04-23 00:22 | 27.33023 | -37.74483 | 33119 ft | 517 kts | 63° |
| 2026-04-23 00:22 | 27.35926 | -37.67083 | 33118 ft | 517 kts | 63° |
| 2026-04-23 00:23 | 27.38819 | -37.59691 | 33116 ft | 516 kts | 63° |
| 2026-04-23 00:23 | 27.41692 | -37.52336 | 33118 ft | 516 kts | 63° |
| 2026-04-23 00:24 | 27.44578 | -37.44935 | 33116 ft | 516 kts | 63° |
| 2026-04-23 00:24 | 27.47459 | -37.37534 | 33112 ft | 516 kts | 63° |
| 2026-04-23 00:25 | 27.50353 | -37.30084 | 33117 ft | 516 kts | 64° |
| 2026-04-23 00:25 | 27.53207 | -37.22723 | 33116 ft | 516 kts | 64° |
| 2026-04-23 00:26 | 27.56076 | -37.15310 | 33120 ft | 516 kts | 64° |
| 2026-04-23 00:26 | 27.58474 | -37.09101 | 33112 ft | 516 kts | 64° |
| 2026-04-23 00:27 | 27.61320 | -37.01724 | 33113 ft | 516 kts | 64° |
| 2026-04-23 00:27 | 27.64192 | -36.94261 | 33109 ft | 516 kts | 64° |
| 2026-04-23 00:28 | 27.67025 | -36.86887 | 33120 ft | 516 kts | 64° |
| 2026-04-23 00:28 | 27.69874 | -36.79459 | 33120 ft | 516 kts | 64° |
| 2026-04-23 00:29 | 27.72714 | -36.72037 | 33106 ft | 516 kts | 64° |
| 2026-04-23 00:29 | 27.75555 | -36.64601 | 33109 ft | 516 kts | 64° |
| 2026-04-23 00:30 | 27.78394 | -36.57154 | 33127 ft | 515 kts | 64° |
| 2026-04-23 00:30 | 27.81207 | -36.49762 | 33111 ft | 516 kts | 64° |
| 2026-04-23 00:31 | 27.84050 | -36.42275 | 33112 ft | 516 kts | 64° |
| 2026-04-23 00:31 | 27.86874 | -36.34825 | 33110 ft | 516 kts | 64° |
| 2026-04-23 00:32 | 27.89676 | -36.27420 | 33110 ft | 516 kts | 64° |
| 2026-04-23 00:32 | 27.92494 | -36.19956 | 33116 ft | 515 kts | 64° |
| 2026-04-23 00:33 | 27.95301 | -36.12507 | 33112 ft | 515 kts | 64° |
| 2026-04-23 00:33 | 27.98106 | -36.05047 | 33109 ft | 515 kts | 64° |
| 2026-04-23 00:34 | 28.00901 | -35.97581 | 33111 ft | 515 kts | 64° |
| 2026-04-23 00:34 | 28.03620 | -35.90085 | 33108 ft | 515 kts | 65° |
| 2026-04-23 00:35 | 28.06313 | -35.82567 | 33108 ft | 515 kts | 65° |
| 2026-04-23 00:35 | 28.09008 | -35.75052 | 33106 ft | 515 kts | 65° |
| 2026-04-23 00:36 | 28.11687 | -35.67590 | 33109 ft | 515 kts | 65° |
| 2026-04-23 00:36 | 28.14400 | -35.60027 | 33105 ft | 514 kts | 65° |
| 2026-04-23 00:37 | 28.17070 | -35.52572 | 33102 ft | 514 kts | 65° |
| 2026-04-23 00:37 | 28.19754 | -35.45056 | 33108 ft | 514 kts | 65° |
| 2026-04-23 00:38 | 28.22430 | -35.37549 | 33108 ft | 514 kts | 65° |
| 2026-04-23 00:38 | 28.25105 | -35.30030 | 33104 ft | 514 kts | 65° |
| 2026-04-23 00:39 | 28.27777 | -35.22502 | 33104 ft | 514 kts | 65° |
| 2026-04-23 00:39 | 28.30445 | -35.14972 | 33105 ft | 514 kts | 65° |
| 2026-04-23 00:40 | 28.33106 | -35.07446 | 33106 ft | 514 kts | 65° |
| 2026-04-23 00:40 | 28.35752 | -34.99947 | 33102 ft | 515 kts | 65° |
| 2026-04-23 00:41 | 28.38410 | -34.92399 | 33100 ft | 515 kts | 65° |
| 2026-04-23 00:41 | 28.41067 | -34.84836 | 33099 ft | 515 kts | 65° |
| 2026-04-23 00:42 | 28.43719 | -34.77272 | 33099 ft | 515 kts | 64° |
| 2026-04-23 00:42 | 28.46367 | -34.69705 | 33100 ft | 515 kts | 65° |
| 2026-04-23 00:43 | 28.49012 | -34.62129 | 33101 ft | 515 kts | 65° |
| 2026-04-23 00:43 | 28.51653 | -34.54551 | 33100 ft | 516 kts | 65° |
| 2026-04-23 00:44 | 28.54291 | -34.46965 | 33101 ft | 516 kts | 65° |
| 2026-04-23 00:44 | 28.56907 | -34.39425 | 33098 ft | 516 kts | 65° |
| 2026-04-23 00:45 | 28.59537 | -34.31830 | 33097 ft | 516 kts | 65° |
| 2026-04-23 00:45 | 28.62164 | -34.24229 | 33096 ft | 516 kts | 65° |
| 2026-04-23 00:46 | 28.64784 | -34.16631 | 33098 ft | 516 kts | 65° |
| 2026-04-23 00:46 | 28.67402 | -34.09023 | 33091 ft | 516 kts | 64° |
| 2026-04-23 00:47 | 28.70015 | -34.01410 | 33094 ft | 516 kts | 65° |
| 2026-04-23 00:47 | 28.72623 | -33.93798 | 33101 ft | 516 kts | 65° |
| 2026-04-23 00:48 | 28.75230 | -33.86174 | 33083 ft | 516 kts | 65° |
| 2026-04-23 00:48 | 28.77830 | -33.78552 | 33093 ft | 516 kts | 65° |
| 2026-04-23 00:49 | 28.80427 | -33.70924 | 33089 ft | 516 kts | 65° |
| 2026-04-23 00:49 | 28.83018 | -33.63298 | 33086 ft | 516 kts | 64° |
| 2026-04-23 00:50 | 28.85609 | -33.55652 | 33090 ft | 516 kts | 65° |
| 2026-04-23 00:50 | 28.88195 | -33.48008 | 33090 ft | 516 kts | 64° |
| 2026-04-23 00:51 | 28.90774 | -33.40367 | 33086 ft | 516 kts | 65° |
| 2026-04-23 00:51 | 28.93350 | -33.32715 | 33086 ft | 516 kts | 65° |
| 2026-04-23 00:52 | 28.95923 | -33.25059 | 33087 ft | 516 kts | 65° |
| 2026-04-23 00:52 | 28.98471 | -33.17460 | 33085 ft | 516 kts | 65° |
| 2026-04-23 00:53 | 29.01034 | -33.09801 | 33080 ft | 516 kts | 65° |
| 2026-04-23 00:53 | 29.03589 | -33.02146 | 33082 ft | 516 kts | 65° |
| 2026-04-23 00:54 | 29.06143 | -32.94479 | 33079 ft | 516 kts | 65° |
| 2026-04-23 00:54 | 29.08692 | -32.86812 | 33078 ft | 516 kts | 65° |
| 2026-04-23 00:55 | 29.11236 | -32.79141 | 33077 ft | 516 kts | 65° |
| 2026-04-23 00:55 | 29.13776 | -32.71463 | 33078 ft | 516 kts | 65° |
| 2026-04-23 00:56 | 29.16311 | -32.63787 | 33079 ft | 516 kts | 65° |
| 2026-04-23 00:56 | 29.18843 | -32.56101 | 33075 ft | 516 kts | 65° |
| 2026-04-23 00:57 | 29.21371 | -32.48410 | 33072 ft | 516 kts | 65° |
| 2026-04-23 00:57 | 29.23896 | -32.40712 | 33076 ft | 516 kts | 65° |
| 2026-04-23 00:58 | 29.26416 | -32.33010 | 33072 ft | 517 kts | 65° |
| 2026-04-23 00:58 | 29.28934 | -32.25299 | 33072 ft | 517 kts | 65° |
| 2026-04-23 00:59 | 29.31445 | -32.17590 | 33071 ft | 517 kts | 65° |
| 2026-04-23 00:59 | 29.33954 | -32.09872 | 33074 ft | 517 kts | 65° |
| 2026-04-23 01:00 | 29.36459 | -32.02149 | 33069 ft | 517 kts | 65° |
| 2026-04-23 01:00 | 29.38962 | -31.94414 | 33067 ft | 517 kts | 65° |
| 2026-04-23 01:01 | 29.41455 | -31.86689 | 33070 ft | 517 kts | 65° |
| 2026-04-23 01:01 | 29.43931 | -31.79004 | 33065 ft | 517 kts | 65° |
| 2026-04-23 01:02 | 29.46419 | -31.71262 | 33063 ft | 517 kts | 65° |
| 2026-04-23 01:02 | 29.48919 | -31.63462 | 33065 ft | 517 kts | 65° |
| 2026-04-23 01:03 | 29.51382 | -31.55764 | 33064 ft | 517 kts | 65° |
| 2026-04-23 01:03 | 29.53857 | -31.48010 | 33062 ft | 517 kts | 65° |
| 2026-04-23 01:04 | 29.56328 | -31.40248 | 33063 ft | 517 kts | 65° |
| 2026-04-23 01:04 | 29.60025 | -31.28603 | 33063 ft | 517 kts | 65° |
| 2026-04-23 01:05 | 29.62483 | -31.20840 | 33066 ft | 517 kts | 65° |
| 2026-04-23 01:05 | 29.64940 | -31.13062 | 33062 ft | 518 kts | 65° |
| 2026-04-23 01:06 | 29.67377 | -31.05326 | 33061 ft | 518 kts | 65° |
| 2026-04-23 01:06 | 29.69824 | -30.97543 | 33054 ft | 518 kts | 65° |
| 2026-04-23 01:07 | 29.72270 | -30.89744 | 33056 ft | 518 kts | 65° |
| 2026-04-23 01:07 | 29.74710 | -30.81945 | 33049 ft | 518 kts | 65° |
| 2026-04-23 01:08 | 29.77146 | -30.74141 | 33051 ft | 518 kts | 65° |
| 2026-04-23 01:08 | 29.79579 | -30.66330 | 33049 ft | 518 kts | 65° |
| 2026-04-23 01:09 | 29.82004 | -30.58523 | 33050 ft | 518 kts | 65° |
| 2026-04-23 01:09 | 29.84430 | -30.50696 | 33049 ft | 519 kts | 65° |
| 2026-04-23 01:10 | 29.86851 | -30.42865 | 33044 ft | 519 kts | 65° |
| 2026-04-23 01:10 | 29.89269 | -30.35025 | 33044 ft | 519 kts | 65° |
| 2026-04-23 01:11 | 29.91681 | -30.27187 | 33045 ft | 519 kts | 65° |
| 2026-04-23 01:11 | 29.94076 | -30.19385 | 33046 ft | 520 kts | 65° |
| 2026-04-23 01:12 | 29.96479 | -30.11537 | 33043 ft | 520 kts | 65° |
| 2026-04-23 01:12 | 29.98883 | -30.03667 | 33045 ft | 520 kts | 65° |
| 2026-04-23 01:13 | 30.01417 | -29.95888 | 33045 ft | 517 kts | 62° |
| 2026-04-23 01:13 | 30.04202 | -29.88244 | 33043 ft | 516 kts | 61° |
| 2026-04-23 01:14 | 30.07016 | -29.80610 | 33035 ft | 517 kts | 61° |
| 2026-04-23 01:14 | 30.09802 | -29.72961 | 33040 ft | 517 kts | 61° |
| 2026-04-23 01:15 | 30.12565 | -29.65303 | 33038 ft | 517 kts | 62° |
| 2026-04-23 01:15 | 30.15323 | -29.57626 | 33026 ft | 517 kts | 61° |
| 2026-04-23 01:16 | 30.18072 | -29.49961 | 33027 ft | 517 kts | 62° |
| 2026-04-23 01:16 | 30.20822 | -29.42283 | 33033 ft | 517 kts | 62° |
| 2026-04-23 01:17 | 30.23550 | -29.34649 | 33029 ft | 517 kts | 62° |
| 2026-04-23 01:17 | 30.26294 | -29.26956 | 33030 ft | 517 kts | 62° |
| 2026-04-23 01:18 | 30.29033 | -29.19257 | 33026 ft | 517 kts | 62° |
| 2026-04-23 01:18 | 30.31326 | -29.12799 | 33023 ft | 518 kts | 62° |
| 2026-04-23 01:19 | 30.34056 | -29.05096 | 33022 ft | 518 kts | 62° |
| 2026-04-23 01:19 | 30.36767 | -28.97427 | 33021 ft | 518 kts | 62° |
| 2026-04-23 01:20 | 30.39491 | -28.89706 | 33020 ft | 518 kts | 62° |
| 2026-04-23 01:20 | 30.42211 | -28.81978 | 33022 ft | 518 kts | 62° |
| 2026-04-23 01:21 | 30.44931 | -28.74234 | 33021 ft | 518 kts | 62° |
| 2026-04-23 01:21 | 30.47644 | -28.66493 | 33017 ft | 518 kts | 62° |
| 2026-04-23 01:22 | 30.50351 | -28.58750 | 33014 ft | 518 kts | 62° |
| 2026-04-23 01:22 | 30.53055 | -28.51001 | 33016 ft | 518 kts | 62° |
| 2026-04-23 01:23 | 30.55753 | -28.43250 | 33013 ft | 518 kts | 62° |
| 2026-04-23 01:23 | 30.58448 | -28.35490 | 33013 ft | 518 kts | 62° |
| 2026-04-23 01:24 | 30.61120 | -28.27778 | 33012 ft | 518 kts | 62° |
| 2026-04-23 01:24 | 30.63807 | -28.20007 | 33013 ft | 519 kts | 62° |
| 2026-04-23 01:25 | 30.66489 | -28.12231 | 33006 ft | 519 kts | 62° |
| 2026-04-23 01:25 | 30.69167 | -28.04448 | 33009 ft | 519 kts | 62° |
| 2026-04-23 01:26 | 30.71844 | -27.96655 | 33009 ft | 519 kts | 62° |
| 2026-04-23 01:26 | 30.74515 | -27.88859 | 33005 ft | 519 kts | 62° |
| 2026-04-23 01:27 | 30.77183 | -27.81050 | 33008 ft | 520 kts | 62° |
| 2026-04-23 01:27 | 30.79850 | -27.73230 | 33005 ft | 520 kts | 62° |
| 2026-04-23 01:28 | 30.82513 | -27.65403 | 33002 ft | 520 kts | 62° |
| 2026-04-23 01:28 | 30.85173 | -27.57568 | 33002 ft | 521 kts | 62° |
| 2026-04-23 01:29 | 30.87824 | -27.49736 | 33003 ft | 521 kts | 62° |
| 2026-04-23 01:29 | 30.90474 | -27.41892 | 32989 ft | 521 kts | 62° |
| 2026-04-23 01:30 | 30.93103 | -27.34094 | 32998 ft | 521 kts | 62° |
| 2026-04-23 01:30 | 30.95745 | -27.26236 | 32999 ft | 521 kts | 62° |
| 2026-04-23 01:31 | 30.98384 | -27.18370 | 32994 ft | 521 kts | 62° |
| 2026-04-23 01:31 | 31.01018 | -27.10501 | 32992 ft | 521 kts | 62° |
| 2026-04-23 01:32 | 31.03645 | -27.02632 | 32986 ft | 521 kts | 62° |
| 2026-04-23 01:32 | 31.06270 | -26.94752 | 32989 ft | 521 kts | 62° |
| 2026-04-23 01:33 | 31.08891 | -26.86866 | 32985 ft | 521 kts | 62° |
| 2026-04-23 01:33 | 31.11506 | -26.78978 | 32991 ft | 521 kts | 62° |
| 2026-04-23 01:34 | 31.14098 | -26.71138 | 32988 ft | 521 kts | 62° |
| 2026-04-23 01:34 | 31.16720 | -26.63193 | 32985 ft | 521 kts | 62° |
| 2026-04-23 01:35 | 31.19321 | -26.55291 | 32989 ft | 521 kts | 62° |
| 2026-04-23 01:35 | 31.21900 | -26.47437 | 32990 ft | 521 kts | 62° |
| 2026-04-23 01:36 | 31.24493 | -26.39521 | 32984 ft | 521 kts | 62° |
| 2026-04-23 01:36 | 31.27077 | -26.31613 | 32981 ft | 521 kts | 62° |
| 2026-04-23 01:37 | 31.29661 | -26.23687 | 32971 ft | 521 kts | 62° |
| 2026-04-23 01:37 | 31.32239 | -26.15759 | 32978 ft | 522 kts | 62° |
| 2026-04-23 01:38 | 31.34813 | -26.07826 | 32981 ft | 522 kts | 63° |
| 2026-04-23 01:38 | 31.37380 | -25.99891 | 32978 ft | 522 kts | 63° |
| 2026-04-23 01:39 | 31.39947 | -25.91940 | 32979 ft | 522 kts | 63° |
| 2026-04-23 01:39 | 31.42510 | -25.83982 | 32984 ft | 522 kts | 63° |
| 2026-04-23 01:40 | 31.45069 | -25.76016 | 32979 ft | 523 kts | 63° |
| 2026-04-23 01:40 | 31.47624 | -25.68042 | 32979 ft | 523 kts | 63° |
| 2026-04-23 01:41 | 31.50159 | -25.60111 | 32977 ft | 523 kts | 63° |
| 2026-04-23 01:41 | 31.52703 | -25.52133 | 32967 ft | 523 kts | 63° |
| 2026-04-23 01:42 | 31.55245 | -25.44140 | 32971 ft | 523 kts | 63° |
| 2026-04-23 01:42 | 31.57782 | -25.36144 | 32974 ft | 523 kts | 63° |
| 2026-04-23 01:43 | 31.60315 | -25.28142 | 32973 ft | 523 kts | 63° |
| 2026-04-23 01:43 | 31.62844 | -25.20130 | 32972 ft | 523 kts | 63° |
| 2026-04-23 01:44 | 31.65367 | -25.12116 | 32968 ft | 523 kts | 63° |
| 2026-04-23 01:44 | 31.67884 | -25.04103 | 32965 ft | 524 kts | 64° |
| 2026-04-23 01:45 | 31.70402 | -24.96066 | 32967 ft | 524 kts | 64° |
| 2026-04-23 01:45 | 31.72909 | -24.88044 | 32966 ft | 524 kts | 64° |
| 2026-04-23 01:46 | 31.75414 | -24.80006 | 32970 ft | 524 kts | 64° |
| 2026-04-23 01:46 | 31.77909 | -24.71981 | 32961 ft | 524 kts | 64° |
| 2026-04-23 01:47 | 31.80405 | -24.63931 | 32964 ft | 524 kts | 64° |
| 2026-04-23 01:47 | 31.82905 | -24.55847 | 32961 ft | 524 kts | 65° |
| 2026-04-23 01:48 | 31.85379 | -24.47830 | 32959 ft | 524 kts | 65° |
| 2026-04-23 01:48 | 31.87870 | -24.39734 | 32960 ft | 525 kts | 65° |
| 2026-04-23 01:49 | 31.90335 | -24.31701 | 32961 ft | 525 kts | 65° |
| 2026-04-23 01:49 | 31.92808 | -24.23623 | 32957 ft | 525 kts | 65° |
| 2026-04-23 01:50 | 31.95280 | -24.15525 | 32958 ft | 525 kts | 65° |
| 2026-04-23 01:50 | 31.97756 | -24.07391 | 32958 ft | 525 kts | 66° |
| 2026-04-23 01:51 | 32.00215 | -23.99351 | 32953 ft | 524 kts | 64° |
| 2026-04-23 01:51 | 32.02960 | -23.91416 | 32963 ft | 523 kts | 63° |
| 2026-04-23 01:52 | 32.05809 | -23.83515 | 32949 ft | 523 kts | 63° |
| 2026-04-23 01:52 | 32.08651 | -23.75582 | 32948 ft | 524 kts | 63° |
| 2026-04-23 01:53 | 32.11443 | -23.67688 | 32953 ft | 524 kts | 64° |
| 2026-04-23 01:53 | 32.14232 | -23.59750 | 32959 ft | 524 kts | 64° |
| 2026-04-23 01:54 | 32.17020 | -23.51795 | 32955 ft | 525 kts | 64° |
| 2026-04-23 01:54 | 32.19797 | -23.43856 | 32955 ft | 525 kts | 64° |
| 2026-04-23 01:55 | 32.22593 | -23.35850 | 32950 ft | 525 kts | 64° |
| 2026-04-23 01:55 | 32.25365 | -23.27891 | 32950 ft | 525 kts | 64° |
| 2026-04-23 01:56 | 32.28130 | -23.19935 | 32952 ft | 525 kts | 64° |
| 2026-04-23 01:56 | 32.30910 | -23.11916 | 32943 ft | 525 kts | 65° |
| 2026-04-23 01:57 | 32.33673 | -23.03925 | 32948 ft | 525 kts | 65° |
| 2026-04-23 01:57 | 32.36440 | -22.95903 | 32948 ft | 526 kts | 65° |
| 2026-04-23 01:58 | 32.39200 | -22.87883 | 32941 ft | 526 kts | 65° |
| 2026-04-23 01:58 | 32.41943 | -22.79892 | 32941 ft | 526 kts | 65° |
| 2026-04-23 01:59 | 32.44687 | -22.71877 | 32941 ft | 526 kts | 65° |
| 2026-04-23 01:59 | 32.47431 | -22.63846 | 32940 ft | 526 kts | 65° |
| 2026-04-23 02:00 | 32.50159 | -22.55839 | 32940 ft | 526 kts | 65° |
| 2026-04-23 02:00 | 32.52902 | -22.47770 | 32941 ft | 526 kts | 65° |
| 2026-04-23 02:01 | 32.55633 | -22.39715 | 32939 ft | 526 kts | 66° |
| 2026-04-23 02:01 | 32.58348 | -22.31689 | 32935 ft | 526 kts | 66° |
| 2026-04-23 02:02 | 32.61068 | -22.23624 | 32936 ft | 526 kts | 66° |
| 2026-04-23 02:02 | 32.63784 | -22.15554 | 32936 ft | 526 kts | 66° |
| 2026-04-23 02:03 | 32.66485 | -22.07508 | 32938 ft | 526 kts | 66° |
| 2026-04-23 02:03 | 32.69177 | -21.99468 | 32926 ft | 526 kts | 66° |
| 2026-04-23 02:04 | 32.71880 | -21.91377 | 32937 ft | 526 kts | 66° |
| 2026-04-23 02:04 | 32.74132 | -21.84619 | 32933 ft | 526 kts | 66° |
| 2026-04-23 02:05 | 32.77260 | -21.75209 | 32928 ft | 527 kts | 66° |
| 2026-04-23 02:05 | 32.79498 | -21.68457 | 32930 ft | 527 kts | 67° |
| 2026-04-23 02:06 | 32.82174 | -21.60368 | 32931 ft | 527 kts | 67° |
| 2026-04-23 02:06 | 32.84864 | -21.52215 | 32935 ft | 527 kts | 67° |
| 2026-04-23 02:07 | 32.87527 | -21.44122 | 32933 ft | 528 kts | 67° |
| 2026-04-23 02:07 | 32.90202 | -21.35973 | 32932 ft | 528 kts | 68° |
| 2026-04-23 02:08 | 32.92870 | -21.27825 | 32931 ft | 528 kts | 68° |
| 2026-04-23 02:08 | 32.95521 | -21.19706 | 32933 ft | 529 kts | 68° |
| 2026-04-23 02:09 | 32.98168 | -21.11580 | 32936 ft | 529 kts | 68° |
| 2026-04-23 02:09 | 33.00839 | -21.03359 | 32937 ft | 529 kts | 68° |
| 2026-04-23 02:10 | 33.03489 | -20.95180 | 32931 ft | 529 kts | 68° |
| 2026-04-23 02:10 | 33.06129 | -20.87011 | 32933 ft | 530 kts | 68° |
| 2026-04-23 02:11 | 33.08765 | -20.78830 | 32931 ft | 530 kts | 68° |
| 2026-04-23 02:11 | 33.11396 | -20.70648 | 32933 ft | 530 kts | 69° |
| 2026-04-23 02:12 | 33.13590 | -20.63807 | 32932 ft | 530 kts | 69° |
| 2026-04-23 02:12 | 33.15547 | -20.57690 | 32933 ft | 530 kts | 69° |
| 2026-04-23 02:13 | 33.18183 | -20.49435 | 32935 ft | 530 kts | 69° |
| 2026-04-23 02:13 | 33.20794 | -20.41236 | 32931 ft | 530 kts | 69° |
| 2026-04-23 02:14 | 33.23408 | -20.33004 | 32935 ft | 531 kts | 69° |
| 2026-04-23 02:14 | 33.26018 | -20.24764 | 32933 ft | 531 kts | 69° |
| 2026-04-23 02:15 | 33.29924 | -20.12390 | 32932 ft | 531 kts | 70° |
| 2026-04-23 02:16 | 33.32521 | -20.04137 | 32931 ft | 532 kts | 70° |
| 2026-04-23 02:16 | 33.35118 | -19.95859 | 32939 ft | 532 kts | 70° |
| 2026-04-23 02:17 | 33.37711 | -19.87573 | 32937 ft | 533 kts | 70° |
| 2026-04-23 02:17 | 33.40315 | -19.79229 | 32934 ft | 533 kts | 70° |
| 2026-04-23 02:18 | 33.42895 | -19.70938 | 32934 ft | 533 kts | 70° |
| 2026-04-23 02:18 | 33.45479 | -19.62611 | 32938 ft | 534 kts | 70° |
| 2026-04-23 02:19 | 33.48057 | -19.54282 | 32938 ft | 534 kts | 71° |
| 2026-04-23 02:19 | 33.50644 | -19.45901 | 32936 ft | 534 kts | 71° |
| 2026-04-23 02:20 | 33.53199 | -19.37601 | 32938 ft | 534 kts | 71° |
| 2026-04-23 02:20 | 33.55764 | -19.29243 | 32936 ft | 534 kts | 71° |
| 2026-04-23 02:21 | 33.58326 | -19.20872 | 32938 ft | 534 kts | 71° |
| 2026-04-23 02:21 | 33.60878 | -19.12514 | 32940 ft | 534 kts | 71° |
| 2026-04-23 02:22 | 33.63420 | -19.04160 | 32937 ft | 534 kts | 71° |
| 2026-04-23 02:22 | 33.65963 | -18.95782 | 32941 ft | 534 kts | 72° |
| 2026-04-23 02:23 | 33.68512 | -18.87360 | 32943 ft | 534 kts | 72° |
| 2026-04-23 02:23 | 33.71040 | -18.78984 | 32934 ft | 535 kts | 72° |
| 2026-04-23 02:24 | 33.73422 | -18.71071 | 32950 ft | 535 kts | 72° |
| 2026-04-23 02:24 | 33.75951 | -18.62647 | 32956 ft | 535 kts | 72° |
| 2026-04-23 02:25 | 33.78476 | -18.54210 | 32940 ft | 535 kts | 72° |
| 2026-04-23 02:25 | 33.80984 | -18.45804 | 32947 ft | 535 kts | 72° |
| 2026-04-23 02:26 | 33.83489 | -18.37389 | 32952 ft | 535 kts | 73° |
| 2026-04-23 02:26 | 33.85986 | -18.28974 | 32943 ft | 535 kts | 73° |
| 2026-04-23 02:27 | 33.88484 | -18.20529 | 32948 ft | 535 kts | 73° |
| 2026-04-23 02:27 | 33.90975 | -18.12085 | 32948 ft | 535 kts | 73° |
| 2026-04-23 02:28 | 33.93402 | -18.03636 | 32948 ft | 534 kts | 76° |
| 2026-04-23 02:28 | 33.95444 | -17.95012 | 32955 ft | 532 kts | 78° |
| 2026-04-23 02:29 | 33.97390 | -17.86424 | 32951 ft | 532 kts | 78° |
| 2026-04-23 02:29 | 33.99242 | -17.78299 | 32952 ft | 532 kts | 78° |
| 2026-04-23 02:30 | 34.01222 | -17.69699 | 32958 ft | 532 kts | 78° |
| 2026-04-23 02:30 | 34.03202 | -17.61107 | 32957 ft | 532 kts | 78° |
| 2026-04-23 02:31 | 34.05166 | -17.52552 | 32958 ft | 532 kts | 78° |
| 2026-04-23 02:31 | 34.07129 | -17.43960 | 32956 ft | 531 kts | 78° |
| 2026-04-23 02:32 | 34.09089 | -17.35352 | 32959 ft | 530 kts | 78° |
| 2026-04-23 02:32 | 34.11035 | -17.26769 | 32960 ft | 530 kts | 78° |
| 2026-04-23 02:33 | 34.12965 | -17.18233 | 32958 ft | 529 kts | 78° |
| 2026-04-23 02:33 | 34.14894 | -17.09667 | 32958 ft | 528 kts | 79° |
| 2026-04-23 02:34 | 34.16821 | -17.01079 | 32960 ft | 528 kts | 79° |
| 2026-04-23 02:34 | 34.18719 | -16.92596 | 32965 ft | 527 kts | 79° |
| 2026-04-23 02:35 | 34.20520 | -16.84511 | 32968 ft | 527 kts | 79° |
| 2026-04-23 02:35 | 34.22425 | -16.75937 | 32975 ft | 526 kts | 79° |
| 2026-04-23 02:36 | 34.24318 | -16.67383 | 32980 ft | 526 kts | 79° |
| 2026-04-23 02:36 | 34.26196 | -16.58867 | 32981 ft | 526 kts | 79° |
| 2026-04-23 02:37 | 34.28065 | -16.50360 | 32956 ft | 526 kts | 79° |
| 2026-04-23 02:37 | 34.29935 | -16.41817 | 32978 ft | 525 kts | 79° |
| 2026-04-23 02:38 | 34.31798 | -16.33277 | 32980 ft | 525 kts | 79° |
| 2026-04-23 02:38 | 34.33653 | -16.24744 | 32978 ft | 524 kts | 79° |
| 2026-04-23 02:39 | 34.35501 | -16.16211 | 32983 ft | 524 kts | 79° |
| 2026-04-23 02:39 | 34.36423 | -16.11937 | 33110 ft | 527 kts | 79° |
| 2026-04-23 02:39 | 34.37352 | -16.07622 | 33463 ft | 525 kts | 79° |
| 2026-04-23 02:39 | 34.38258 | -16.03417 | 33857 ft | 523 kts | 79° |
| 2026-04-23 02:40 | 34.39183 | -15.99113 | 34189 ft | 522 kts | 79° |
| 2026-04-23 02:40 | 34.40085 | -15.94909 | 34423 ft | 522 kts | 79° |
| 2026-04-23 02:40 | 34.41004 | -15.90612 | 34638 ft | 523 kts | 79° |
| 2026-04-23 02:40 | 34.41908 | -15.86378 | 34856 ft | 523 kts | 79° |
| 2026-04-23 02:41 | 34.42816 | -15.82116 | 34923 ft | 525 kts | 79° |
| 2026-04-23 02:41 | 34.44640 | -15.73541 | 34984 ft | 523 kts | 79° |
| 2026-04-23 02:42 | 34.46346 | -15.65491 | 34981 ft | 521 kts | 79° |
| 2026-04-23 02:42 | 34.48128 | -15.57052 | 34981 ft | 518 kts | 79° |
| 2026-04-23 02:43 | 34.49914 | -15.48558 | 34985 ft | 517 kts | 79° |
| 2026-04-23 02:43 | 34.51679 | -15.40131 | 34991 ft | 516 kts | 80° |
| 2026-04-23 02:44 | 34.53427 | -15.31723 | 34994 ft | 516 kts | 80° |
| 2026-04-23 02:44 | 34.55064 | -15.23216 | 34992 ft | 516 kts | 81° |
| 2026-04-23 02:45 | 34.56631 | -15.14781 | 34993 ft | 517 kts | 81° |
| 2026-04-23 02:45 | 34.58224 | -15.06243 | 34999 ft | 517 kts | 81° |
| 2026-04-23 02:46 | 34.59815 | -14.97759 | 34997 ft | 517 kts | 81° |
| 2026-04-23 02:46 | 34.61405 | -14.89272 | 34999 ft | 517 kts | 81° |
| 2026-04-23 02:47 | 34.62998 | -14.80735 | 35001 ft | 516 kts | 81° |
| 2026-04-23 02:47 | 34.64573 | -14.72251 | 34997 ft | 516 kts | 81° |
| 2026-04-23 02:48 | 34.66147 | -14.63734 | 34997 ft | 515 kts | 81° |
| 2026-04-23 02:48 | 34.67702 | -14.55288 | 34996 ft | 514 kts | 81° |
| 2026-04-23 02:49 | 34.69256 | -14.46811 | 34998 ft | 513 kts | 81° |
| 2026-04-23 02:49 | 34.70795 | -14.38380 | 34997 ft | 512 kts | 81° |
| 2026-04-23 02:50 | 34.72334 | -14.29911 | 34996 ft | 511 kts | 81° |
| 2026-04-23 02:50 | 34.73867 | -14.21444 | 34999 ft | 511 kts | 81° |
| 2026-04-23 02:51 | 34.75381 | -14.13049 | 35006 ft | 510 kts | 81° |
| 2026-04-23 02:51 | 34.76898 | -14.04598 | 35006 ft | 510 kts | 81° |
| 2026-04-23 02:52 | 34.78402 | -13.96182 | 35006 ft | 509 kts | 82° |
| 2026-04-23 02:52 | 34.79895 | -13.87797 | 35008 ft | 509 kts | 82° |
| 2026-04-23 02:53 | 34.81385 | -13.79390 | 35007 ft | 509 kts | 82° |
| 2026-04-23 02:53 | 34.82866 | -13.70999 | 35009 ft | 509 kts | 82° |
| 2026-04-23 02:54 | 34.84104 | -13.63960 | 35011 ft | 508 kts | 82° |
| 2026-04-23 02:54 | 34.85583 | -13.55513 | 35008 ft | 508 kts | 82° |
| 2026-04-23 02:55 | 34.87043 | -13.47142 | 35011 ft | 508 kts | 82° |
| 2026-04-23 02:55 | 34.88508 | -13.38702 | 35013 ft | 508 kts | 82° |
| 2026-04-23 02:56 | 34.89963 | -13.30287 | 35012 ft | 508 kts | 82° |
| 2026-04-23 02:56 | 34.91416 | -13.21845 | 35012 ft | 508 kts | 82° |
| 2026-04-23 02:57 | 34.92854 | -13.13458 | 35015 ft | 508 kts | 82° |
| 2026-04-23 02:57 | 34.94209 | -13.05515 | 35014 ft | 508 kts | 82° |
| 2026-04-23 02:58 | 34.95636 | -12.97117 | 35013 ft | 507 kts | 82° |
| 2026-04-23 02:58 | 34.97071 | -12.88636 | 35018 ft | 507 kts | 82° |
| 2026-04-23 02:59 | 34.98483 | -12.80254 | 35015 ft | 507 kts | 82° |
| 2026-04-23 02:59 | 35.00040 | -12.71845 | 35019 ft | 510 kts | 77° |
| 2026-04-23 03:00 | 35.02658 | -12.63735 | 35025 ft | 514 kts | 68° |
| 2026-04-23 03:00 | 35.05684 | -12.55829 | 35021 ft | 515 kts | 68° |
| 2026-04-23 03:01 | 35.08694 | -12.47917 | 35018 ft | 515 kts | 68° |
| 2026-04-23 03:01 | 35.11673 | -12.39952 | 35018 ft | 516 kts | 69° |
| 2026-04-23 03:02 | 35.14629 | -12.31978 | 35019 ft | 516 kts | 69° |
| 2026-04-23 03:02 | 35.17583 | -12.23984 | 35016 ft | 516 kts | 69° |
| 2026-04-23 03:03 | 35.20359 | -12.16463 | 35019 ft | 516 kts | 69° |
| 2026-04-23 03:03 | 35.23316 | -12.08433 | 35017 ft | 516 kts | 69° |
| 2026-04-23 03:04 | 35.26258 | -12.00427 | 35018 ft | 516 kts | 69° |
| 2026-04-23 03:04 | 35.29190 | -11.92425 | 35013 ft | 516 kts | 69° |
| 2026-04-23 03:05 | 35.32115 | -11.84423 | 35027 ft | 516 kts | 69° |
| 2026-04-23 03:05 | 35.35041 | -11.76397 | 35016 ft | 517 kts | 69° |
| 2026-04-23 03:06 | 35.37962 | -11.68367 | 35014 ft | 517 kts | 69° |
| 2026-04-23 03:06 | 35.40889 | -11.60299 | 35016 ft | 517 kts | 69° |
| 2026-04-23 03:07 | 35.43800 | -11.52254 | 35019 ft | 517 kts | 69° |
| 2026-04-23 03:07 | 35.46713 | -11.44180 | 35018 ft | 517 kts | 69° |
| 2026-04-23 03:08 | 35.49626 | -11.36090 | 35015 ft | 518 kts | 69° |
| 2026-04-23 03:08 | 35.52514 | -11.28046 | 35018 ft | 518 kts | 69° |
| 2026-04-23 03:09 | 35.55251 | -11.20404 | 35019 ft | 518 kts | 69° |
| 2026-04-23 03:09 | 35.58161 | -11.12258 | 35018 ft | 518 kts | 70° |
| 2026-04-23 03:10 | 35.61035 | -11.04192 | 35017 ft | 518 kts | 70° |
| 2026-04-23 03:10 | 35.63924 | -10.96062 | 35019 ft | 518 kts | 70° |
| 2026-04-23 03:11 | 35.66806 | -10.87932 | 35017 ft | 518 kts | 70° |
| 2026-04-23 03:11 | 35.69665 | -10.79845 | 35019 ft | 518 kts | 70° |
| 2026-04-23 03:12 | 35.72534 | -10.71709 | 35014 ft | 518 kts | 70° |
| 2026-04-23 03:12 | 35.75390 | -10.63588 | 35016 ft | 518 kts | 70° |
| 2026-04-23 03:13 | 35.78261 | -10.55403 | 35011 ft | 518 kts | 70° |
| 2026-04-23 03:13 | 35.81095 | -10.47301 | 35021 ft | 518 kts | 70° |
| 2026-04-23 03:14 | 35.83957 | -10.39100 | 35015 ft | 518 kts | 70° |
| 2026-04-23 03:14 | 35.86624 | -10.31434 | 35011 ft | 518 kts | 70° |
| 2026-04-23 03:15 | 35.89467 | -10.23243 | 35006 ft | 518 kts | 70° |
| 2026-04-23 03:15 | 35.92285 | -10.15103 | 35006 ft | 518 kts | 70° |
| 2026-04-23 03:16 | 35.95047 | -10.06867 | 35002 ft | 516 kts | 75° |
| 2026-04-23 03:16 | 35.97075 | -9.94063 | 35006 ft | 504 kts | 92° |
| 2026-04-23 03:17 | 35.97326 | -9.85442 | 35007 ft | 503 kts | 93° |
| 2026-04-23 03:17 | 35.97543 | -9.76788 | 35006 ft | 504 kts | 93° |
| 2026-04-23 03:18 | 35.97790 | -9.68111 | 35001 ft | 505 kts | 93° |
| 2026-04-23 03:18 | 35.98053 | -9.59456 | 35003 ft | 505 kts | 92° |
| 2026-04-23 03:19 | 35.98314 | -9.50830 | 35002 ft | 506 kts | 93° |
| 2026-04-23 03:19 | 35.98568 | -9.42177 | 35000 ft | 506 kts | 93° |
| 2026-04-23 03:20 | 35.98801 | -9.33985 | 35001 ft | 506 kts | 93° |
| 2026-04-23 03:20 | 35.99042 | -9.25274 | 34998 ft | 506 kts | 93° |
| 2026-04-23 03:21 | 35.99276 | -9.16604 | 34992 ft | 505 kts | 93° |
| 2026-04-23 03:21 | 35.99504 | -9.07909 | 34999 ft | 505 kts | 93° |
| 2026-04-23 03:22 | 35.99724 | -8.99300 | 34992 ft | 505 kts | 93° |
| 2026-04-23 03:22 | 35.99939 | -8.90642 | 34987 ft | 504 kts | 93° |
| 2026-04-23 03:23 | 36.00147 | -8.82005 | 34997 ft | 504 kts | 93° |
| 2026-04-23 03:23 | 36.00349 | -8.73341 | 34996 ft | 504 kts | 93° |
| 2026-04-23 03:24 | 36.00544 | -8.64720 | 34998 ft | 504 kts | 93° |
| 2026-04-23 03:24 | 36.00735 | -8.56053 | 34992 ft | 503 kts | 93° |
| 2026-04-23 03:25 | 36.00918 | -8.47416 | 34992 ft | 503 kts | 93° |
| 2026-04-23 03:25 | 36.01085 | -8.39251 | 34994 ft | 503 kts | 93° |
| 2026-04-23 03:26 | 36.01256 | -8.30618 | 34991 ft | 503 kts | 93° |
| 2026-04-23 03:26 | 36.01421 | -8.21978 | 34990 ft | 503 kts | 93° |
| 2026-04-23 03:27 | 36.01581 | -8.13325 | 34986 ft | 503 kts | 93° |
| 2026-04-23 03:27 | 36.01733 | -8.04724 | 34988 ft | 503 kts | 93° |
| 2026-04-23 03:28 | 36.01879 | -7.96072 | 34986 ft | 503 kts | 93° |
| 2026-04-23 03:28 | 36.02019 | -7.87442 | 34982 ft | 504 kts | 93° |
| 2026-04-23 03:29 | 36.02154 | -7.78780 | 34980 ft | 504 kts | 93° |
| 2026-04-23 03:29 | 36.02282 | -7.70156 | 34981 ft | 504 kts | 93° |
| 2026-04-23 03:30 | 36.02404 | -7.61474 | 34980 ft | 504 kts | 93° |
| 2026-04-23 03:30 | 36.02519 | -7.52838 | 34980 ft | 504 kts | 93° |
| 2026-04-23 03:31 | 36.02624 | -7.44666 | 34978 ft | 504 kts | 93° |
| 2026-04-23 03:31 | 36.02409 | -7.36034 | 34976 ft | 499 kts | 102° |
| 2026-04-23 03:32 | 36.01163 | -7.27617 | 34982 ft | 496 kts | 105° |
| 2026-04-23 03:32 | 35.99824 | -7.19251 | 34981 ft | 497 kts | 105° |
| 2026-04-23 03:33 | 35.98520 | -7.10858 | 34979 ft | 497 kts | 105° |
| 2026-04-23 03:33 | 35.97237 | -7.02479 | 34975 ft | 497 kts | 105° |
| 2026-04-23 03:34 | 35.95947 | -6.94086 | 34973 ft | 497 kts | 105° |
| 2026-04-23 03:34 | 35.94652 | -6.85722 | 34973 ft | 498 kts | 105° |
| 2026-04-23 03:35 | 35.93351 | -6.77360 | 34971 ft | 498 kts | 105° |
| 2026-04-23 03:35 | 35.92287 | -6.68887 | 34974 ft | 502 kts | 97° |
| 2026-04-23 03:36 | 35.92348 | -6.60242 | 34979 ft | 505 kts | 90° |
| 2026-04-23 03:36 | 35.92620 | -6.52055 | 34969 ft | 506 kts | 91° |
| 2026-04-23 03:37 | 35.92813 | -6.43408 | 34964 ft | 506 kts | 91° |
| 2026-04-23 03:37 | 35.93011 | -6.34729 | 34967 ft | 506 kts | 91° |
| 2026-04-23 03:38 | 35.93210 | -6.26058 | 34963 ft | 506 kts | 91° |
| 2026-04-23 03:38 | 35.93401 | -6.17380 | 34963 ft | 506 kts | 91° |
| 2026-04-23 03:39 | 35.93568 | -6.08674 | 34963 ft | 506 kts | 91° |
| 2026-04-23 03:39 | 35.93722 | -6.00004 | 34964 ft | 506 kts | 91° |
| 2026-04-23 03:40 | 35.94223 | -5.91376 | 34966 ft | 508 kts | 83° |
| 2026-04-23 03:40 | 35.95373 | -5.82761 | 34967 ft | 508 kts | 83° |
| 2026-04-23 03:41 | 35.96454 | -5.74107 | 34967 ft | 508 kts | 83° |
| 2026-04-23 03:41 | 35.97516 | -5.65539 | 34966 ft | 508 kts | 83° |
| 2026-04-23 03:42 | 35.98582 | -5.56947 | 34965 ft | 508 kts | 83° |
| 2026-04-23 03:42 | 35.99649 | -5.48300 | 34964 ft | 507 kts | 83° |
| 2026-04-23 03:43 | 36.00697 | -5.39752 | 34967 ft | 507 kts | 83° |
| 2026-04-23 03:43 | 36.01744 | -5.31146 | 34967 ft | 507 kts | 83° |
| 2026-04-23 03:44 | 36.02783 | -5.22560 | 34965 ft | 506 kts | 83° |
| 2026-04-23 03:44 | 36.03822 | -5.13919 | 34966 ft | 506 kts | 83° |
| 2026-04-23 03:45 | 36.04843 | -5.05370 | 34966 ft | 505 kts | 83° |
| 2026-04-23 03:45 | 36.05865 | -4.96769 | 34962 ft | 505 kts | 83° |
| 2026-04-23 03:46 | 36.06710 | -4.89612 | 34960 ft | 505 kts | 83° |
| 2026-04-23 03:46 | 36.07717 | -4.81031 | 34959 ft | 504 kts | 83° |
| 2026-04-23 03:47 | 36.08707 | -4.72490 | 34963 ft | 504 kts | 84° |
| 2026-04-23 03:47 | 36.09354 | -4.64432 | 34963 ft | 503 kts | 86° |
| 2026-04-23 03:48 | 36.09925 | -4.55786 | 34964 ft | 503 kts | 87° |
| 2026-04-23 03:48 | 36.10494 | -4.47206 | 34961 ft | 503 kts | 86° |
| 2026-04-23 03:49 | 36.11081 | -4.38609 | 34960 ft | 503 kts | 86° |
| 2026-04-23 03:49 | 36.11672 | -4.29977 | 34960 ft | 503 kts | 86° |
| 2026-04-23 03:50 | 36.12257 | -4.21370 | 34958 ft | 503 kts | 86° |
| 2026-04-23 03:50 | 36.12835 | -4.12748 | 34960 ft | 503 kts | 86° |
| 2026-04-23 03:51 | 36.13407 | -4.04105 | 34957 ft | 504 kts | 86° |
| 2026-04-23 03:51 | 36.13970 | -3.95495 | 34952 ft | 504 kts | 86° |
| 2026-04-23 03:52 | 36.14530 | -3.86848 | 34951 ft | 504 kts | 86° |
| 2026-04-23 03:52 | 36.15081 | -3.78235 | 34949 ft | 504 kts | 86° |
| 2026-04-23 03:53 | 36.15600 | -3.70043 | 34957 ft | 504 kts | 86° |
| 2026-04-23 03:53 | 36.16139 | -3.61440 | 34953 ft | 503 kts | 86° |
| 2026-04-23 03:54 | 36.16675 | -3.52774 | 34953 ft | 503 kts | 86° |
| 2026-04-23 03:54 | 36.17200 | -3.44180 | 34964 ft | 503 kts | 86° |
| 2026-04-23 03:55 | 36.17722 | -3.35545 | 34952 ft | 503 kts | 86° |
| 2026-04-23 03:55 | 36.18240 | -3.26876 | 34970 ft | 503 kts | 86° |
| 2026-04-23 03:56 | 36.18747 | -3.18271 | 34958 ft | 502 kts | 86° |
| 2026-04-23 03:56 | 36.19247 | -3.09684 | 34971 ft | 502 kts | 86° |
| 2026-04-23 03:57 | 36.19744 | -3.01059 | 34956 ft | 501 kts | 86° |
| 2026-04-23 03:57 | 36.20233 | -2.92468 | 34961 ft | 501 kts | 86° |
| 2026-04-23 03:58 | 36.21149 | -2.83935 | 34959 ft | 501 kts | 76° |
| 2026-04-23 03:58 | 36.22754 | -2.76114 | 34966 ft | 500 kts | 75° |
| 2026-04-23 03:59 | 36.24499 | -2.67750 | 34967 ft | 500 kts | 75° |
| 2026-04-23 03:59 | 36.26183 | -2.59431 | 34962 ft | 500 kts | 75° |
| 2026-04-23 04:00 | 36.27850 | -2.51048 | 34966 ft | 500 kts | 76° |
| 2026-04-23 04:00 | 36.29515 | -2.42632 | 34973 ft | 500 kts | 76° |
| 2026-04-23 04:01 | 36.31158 | -2.34311 | 34970 ft | 500 kts | 76° |
| 2026-04-23 04:01 | 36.32811 | -2.25913 | 34976 ft | 500 kts | 76° |
| 2026-04-23 04:02 | 36.34455 | -2.17532 | 34977 ft | 500 kts | 76° |
| 2026-04-23 04:02 | 36.35927 | -2.09075 | 34961 ft | 500 kts | 84° |
| 2026-04-23 04:03 | 36.35793 | -2.00525 | 34972 ft | 500 kts | 99° |
| 2026-04-23 04:03 | 36.34180 | -1.92166 | 34974 ft | 499 kts | 106° |
| 2026-04-23 04:04 | 36.32367 | -1.83852 | 34971 ft | 500 kts | 105° |
| 2026-04-23 04:04 | 36.30602 | -1.75474 | 34979 ft | 500 kts | 105° |
| 2026-04-23 04:05 | 36.28873 | -1.67123 | 34989 ft | 501 kts | 105° |
| 2026-04-23 04:05 | 36.27142 | -1.58791 | 34970 ft | 501 kts | 105° |
| 2026-04-23 04:06 | 36.25391 | -1.50411 | 34973 ft | 501 kts | 105° |
| 2026-04-23 04:06 | 36.23649 | -1.42102 | 34981 ft | 501 kts | 105° |
| 2026-04-23 04:07 | 36.21892 | -1.33730 | 34980 ft | 501 kts | 105° |
| 2026-04-23 04:07 | 36.20125 | -1.25336 | 34978 ft | 501 kts | 105° |
| 2026-04-23 04:08 | 36.18371 | -1.17037 | 34980 ft | 501 kts | 105° |
| 2026-04-23 04:08 | 36.16588 | -1.08633 | 34973 ft | 501 kts | 105° |
| 2026-04-23 04:09 | 36.14816 | -1.00313 | 34980 ft | 501 kts | 105° |
| 2026-04-23 04:09 | 36.13137 | -0.92456 | 34974 ft | 501 kts | 105° |
| 2026-04-23 04:10 | 36.11347 | -0.84109 | 34978 ft | 501 kts | 105° |
| 2026-04-23 04:10 | 36.09554 | -0.75783 | 34974 ft | 501 kts | 105° |
| 2026-04-23 04:11 | 36.07753 | -0.67445 | 34977 ft | 501 kts | 105° |
| 2026-04-23 04:11 | 36.05959 | -0.59173 | 34973 ft | 501 kts | 105° |
| 2026-04-23 04:12 | 36.04143 | -0.50828 | 34974 ft | 501 kts | 105° |
| 2026-04-23 04:12 | 36.02335 | -0.42553 | 34970 ft | 501 kts | 105° |
| 2026-04-23 04:13 | 36.00515 | -0.34249 | 34978 ft | 501 kts | 105° |
| 2026-04-23 04:13 | 35.98677 | -0.25895 | 34974 ft | 501 kts | 105° |
| 2026-04-23 04:14 | 35.96857 | -0.17653 | 34974 ft | 501 kts | 105° |
| 2026-04-23 04:14 | 35.95013 | -0.09330 | 34969 ft | 501 kts | 105° |
| 2026-04-23 04:15 | 35.93175 | -0.01058 | 34975 ft | 501 kts | 105° |
| 2026-04-23 04:16 | 35.90868 | 0.10968 | 34964 ft | 499 kts | 91° |
| 2026-04-23 04:16 | 35.91019 | 0.15218 | 34984 ft | 497 kts | 80° |
| 2026-04-23 04:16 | 35.91766 | 0.19357 | 34973 ft | 495 kts | 69° |
| 2026-04-23 04:17 | 35.94447 | 0.27086 | 34978 ft | 493 kts | 64° |
| 2026-04-23 04:17 | 35.97262 | 0.34869 | 34976 ft | 495 kts | 64° |
| 2026-04-23 04:18 | 36.00005 | 0.42656 | 34976 ft | 497 kts | 64° |
| 2026-04-23 04:18 | 36.02717 | 0.50493 | 34979 ft | 498 kts | 65° |
| 2026-04-23 04:19 | 36.05424 | 0.58361 | 34967 ft | 498 kts | 65° |
| 2026-04-23 04:19 | 36.08130 | 0.66239 | 34978 ft | 497 kts | 65° |
| 2026-04-23 04:20 | 36.10817 | 0.74075 | 34975 ft | 496 kts | 65° |
| 2026-04-23 04:20 | 36.13522 | 0.81980 | 34978 ft | 495 kts | 65° |
| 2026-04-23 04:21 | 36.16185 | 0.89785 | 34982 ft | 495 kts | 65° |
| 2026-04-23 04:21 | 36.18707 | 0.97193 | 34989 ft | 495 kts | 65° |
| 2026-04-23 04:22 | 36.21368 | 1.05030 | 35008 ft | 494 kts | 65° |
| 2026-04-23 04:22 | 36.24031 | 1.12894 | 35014 ft | 495 kts | 65° |
| 2026-04-23 04:23 | 36.26689 | 1.20766 | 35011 ft | 495 kts | 65° |
| 2026-04-23 04:23 | 36.29342 | 1.28642 | 35026 ft | 495 kts | 65° |
| 2026-04-23 04:24 | 36.31984 | 1.36507 | 35026 ft | 495 kts | 65° |
| 2026-04-23 04:24 | 36.34628 | 1.44393 | 35017 ft | 495 kts | 65° |
| 2026-04-23 04:25 | 36.36901 | 1.52413 | 35009 ft | 497 kts | 75° |
| 2026-04-23 04:25 | 36.38160 | 1.60826 | 35005 ft | 498 kts | 79° |
| 2026-04-23 04:26 | 36.39319 | 1.69335 | 34998 ft | 497 kts | 79° |
| 2026-04-23 04:26 | 36.40506 | 1.77759 | 35000 ft | 497 kts | 78° |
| 2026-04-23 04:27 | 36.41719 | 1.86222 | 35005 ft | 497 kts | 78° |
| 2026-04-23 04:27 | 36.42857 | 1.94195 | 34998 ft | 498 kts | 78° |
| 2026-04-23 04:28 | 36.44649 | 2.06863 | 35003 ft | 497 kts | 79° |
| 2026-04-23 04:28 | 36.45845 | 2.15370 | 34995 ft | 498 kts | 79° |
| 2026-04-23 04:29 | 36.47026 | 2.23789 | 35000 ft | 497 kts | 79° |
| 2026-04-23 04:29 | 36.48206 | 2.32253 | 35001 ft | 497 kts | 79° |
| 2026-04-23 04:30 | 36.49379 | 2.40701 | 35006 ft | 496 kts | 79° |
| 2026-04-23 04:30 | 36.50546 | 2.49156 | 34985 ft | 496 kts | 79° |
| 2026-04-23 04:31 | 36.51706 | 2.57604 | 35002 ft | 496 kts | 79° |
| 2026-04-23 04:31 | 36.52858 | 2.66051 | 35004 ft | 495 kts | 79° |
| 2026-04-23 04:32 | 36.54004 | 2.74486 | 34994 ft | 495 kts | 79° |
| 2026-04-23 04:32 | 36.55083 | 2.82479 | 34999 ft | 495 kts | 79° |
| 2026-04-23 04:33 | 36.56210 | 2.90868 | 35000 ft | 495 kts | 79° |
| 2026-04-23 04:33 | 36.57342 | 2.99340 | 34995 ft | 495 kts | 79° |
| 2026-04-23 04:34 | 36.58467 | 3.07796 | 34996 ft | 496 kts | 79° |
| 2026-04-23 04:34 | 36.59604 | 3.16282 | 34991 ft | 496 kts | 79° |
| 2026-04-23 04:35 | 36.60729 | 3.24698 | 34997 ft | 497 kts | 79° |
| 2026-04-23 04:35 | 36.61840 | 3.33214 | 34998 ft | 497 kts | 80° |
| 2026-04-23 04:36 | 36.62902 | 3.41673 | 35000 ft | 497 kts | 80° |
| 2026-04-23 04:36 | 36.63973 | 3.50198 | 35006 ft | 498 kts | 80° |
| 2026-04-23 04:37 | 36.64698 | 3.57361 | 35002 ft | 499 kts | 86° |
| 2026-04-23 04:37 | 36.64288 | 3.67351 | 35015 ft | 499 kts | 98° |
| 2026-04-23 04:38 | 36.63437 | 3.74465 | 35023 ft | 499 kts | 98° |
| 2026-04-23 04:38 | 36.62397 | 3.83052 | 34952 ft | 499 kts | 96° |
| 2026-04-23 04:39 | 36.61399 | 3.91597 | 35009 ft | 496 kts | 95° |
| 2026-04-23 04:39 | 36.60424 | 4.00036 | 35028 ft | 495 kts | 95° |
| 2026-04-23 04:40 | 36.59440 | 4.08511 | 35038 ft | 495 kts | 95° |
| 2026-04-23 04:40 | 36.58444 | 4.17018 | 35042 ft | 495 kts | 95° |
| 2026-04-23 04:41 | 36.57450 | 4.25464 | 35042 ft | 495 kts | 95° |
| 2026-04-23 04:41 | 36.56440 | 4.33978 | 35039 ft | 496 kts | 95° |
| 2026-04-23 04:42 | 36.55430 | 4.42444 | 35042 ft | 495 kts | 95° |
| 2026-04-23 04:42 | 36.54411 | 4.50934 | 35048 ft | 496 kts | 95° |
| 2026-04-23 04:43 | 36.53391 | 4.59390 | 35051 ft | 496 kts | 95° |
| 2026-04-23 04:43 | 36.52361 | 4.67857 | 35056 ft | 496 kts | 95° |
| 2026-04-23 04:44 | 36.51331 | 4.76279 | 35065 ft | 496 kts | 95° |
| 2026-04-23 04:44 | 36.50283 | 4.84810 | 35065 ft | 497 kts | 95° |
| 2026-04-23 04:45 | 36.49238 | 4.93262 | 35065 ft | 497 kts | 95° |
| 2026-04-23 04:45 | 36.48325 | 5.01768 | 35057 ft | 494 kts | 89° |
| 2026-04-23 04:46 | 36.48218 | 5.10272 | 35055 ft | 492 kts | 86° |
| 2026-04-23 04:46 | 36.48188 | 5.18762 | 35064 ft | 492 kts | 86° |
| 2026-04-23 04:47 | 36.48117 | 5.27263 | 35063 ft | 492 kts | 87° |
| 2026-04-23 04:47 | 36.48018 | 5.35690 | 35089 ft | 492 kts | 87° |
| 2026-04-23 04:48 | 36.47909 | 5.44204 | 35083 ft | 492 kts | 87° |
| 2026-04-23 04:48 | 36.47794 | 5.52711 | 35079 ft | 492 kts | 87° |
| 2026-04-23 04:49 | 36.47675 | 5.61186 | 35073 ft | 492 kts | 87° |
| 2026-04-23 04:49 | 36.47551 | 5.69651 | 35073 ft | 491 kts | 87° |
| 2026-04-23 04:50 | 36.47421 | 5.78135 | 35081 ft | 491 kts | 87° |
| 2026-04-23 04:50 | 36.47285 | 5.86665 | 35085 ft | 491 kts | 87° |
| 2026-04-23 04:51 | 36.47139 | 5.95120 | 35081 ft | 491 kts | 87° |
| 2026-04-23 04:51 | 36.46988 | 6.03606 | 35079 ft | 492 kts | 87° |
| 2026-04-23 04:52 | 36.46831 | 6.12126 | 35079 ft | 492 kts | 87° |
| 2026-04-23 04:52 | 36.46668 | 6.20593 | 35082 ft | 492 kts | 87° |
| 2026-04-23 04:53 | 36.46500 | 6.29063 | 35091 ft | 492 kts | 87° |
| 2026-04-23 04:53 | 36.46326 | 6.37530 | 35095 ft | 492 kts | 88° |
| 2026-04-23 04:54 | 36.46144 | 6.46070 | 35101 ft | 492 kts | 88° |
| 2026-04-23 04:54 | 36.45957 | 6.54552 | 35096 ft | 492 kts | 88° |
| 2026-04-23 04:55 | 36.45765 | 6.63008 | 35105 ft | 492 kts | 88° |
| 2026-04-23 04:55 | 36.45566 | 6.71537 | 35104 ft | 492 kts | 88° |
| 2026-04-23 04:56 | 36.45361 | 6.80020 | 35100 ft | 492 kts | 88° |
| 2026-04-23 04:56 | 36.45151 | 6.88498 | 35088 ft | 493 kts | 88° |
| 2026-04-23 04:57 | 36.44933 | 6.97029 | 35091 ft | 493 kts | 88° |
| 2026-04-23 04:57 | 36.44710 | 7.05491 | 35089 ft | 493 kts | 88° |
| 2026-04-23 04:58 | 36.44481 | 7.13987 | 35096 ft | 493 kts | 88° |
| 2026-04-23 04:58 | 36.44245 | 7.22528 | 35090 ft | 494 kts | 88° |
| 2026-04-23 04:59 | 36.44003 | 7.31035 | 35074 ft | 494 kts | 89° |
| 2026-04-23 04:59 | 36.43755 | 7.39565 | 35075 ft | 494 kts | 89° |
| 2026-04-23 05:00 | 36.43501 | 7.48096 | 35081 ft | 494 kts | 89° |
| 2026-04-23 05:00 | 36.43240 | 7.56631 | 35081 ft | 495 kts | 89° |
| 2026-04-23 05:01 | 36.42974 | 7.65160 | 35076 ft | 495 kts | 89° |
| 2026-04-23 05:01 | 36.42701 | 7.73668 | 35084 ft | 495 kts | 89° |
| 2026-04-23 05:02 | 36.42423 | 7.82228 | 35081 ft | 496 kts | 89° |
| 2026-04-23 05:02 | 36.42137 | 7.90772 | 35085 ft | 496 kts | 89° |
| 2026-04-23 05:03 | 36.41844 | 7.99376 | 35080 ft | 496 kts | 89° |
| 2026-04-23 05:03 | 36.41547 | 8.07886 | 35083 ft | 497 kts | 89° |
| 2026-04-23 05:04 | 36.41242 | 8.16477 | 35077 ft | 497 kts | 89° |
| 2026-04-23 05:04 | 36.40934 | 8.25063 | 35075 ft | 497 kts | 90° |
| 2026-04-23 05:05 | 36.40616 | 8.33611 | 35083 ft | 497 kts | 90° |
| 2026-04-23 05:05 | 36.39758 | 8.42115 | 35085 ft | 501 kts | 98° |
| 2026-04-23 05:06 | 36.38357 | 8.50643 | 35078 ft | 501 kts | 99° |
| 2026-04-23 05:06 | 36.36958 | 8.59114 | 35077 ft | 501 kts | 99° |
| 2026-04-23 05:07 | 36.35591 | 8.67603 | 35074 ft | 501 kts | 99° |
| 2026-04-23 05:07 | 36.34237 | 8.76068 | 35083 ft | 501 kts | 99° |
| 2026-04-23 05:08 | 36.32879 | 8.84519 | 35083 ft | 501 kts | 99° |
| 2026-04-23 05:08 | 36.31510 | 8.92990 | 35086 ft | 501 kts | 99° |
| 2026-04-23 05:09 | 36.30139 | 9.01425 | 35085 ft | 501 kts | 99° |
| 2026-04-23 05:09 | 36.28749 | 9.09935 | 35088 ft | 502 kts | 99° |
| 2026-04-23 05:10 | 36.27359 | 9.18404 | 35087 ft | 502 kts | 99° |
| 2026-04-23 05:10 | 36.25968 | 9.26852 | 35083 ft | 502 kts | 99° |
| 2026-04-23 05:11 | 36.24663 | 9.35374 | 35087 ft | 501 kts | 96° |
| 2026-04-23 05:11 | 36.23723 | 9.43417 | 35080 ft | 501 kts | 95° |
| 2026-04-23 05:12 | 36.22761 | 9.51965 | 35091 ft | 502 kts | 95° |
| 2026-04-23 05:12 | 36.21764 | 9.60539 | 35078 ft | 502 kts | 95° |
| 2026-04-23 05:13 | 36.20749 | 9.69076 | 35076 ft | 503 kts | 96° |
| 2026-04-23 05:14 | 36.19207 | 9.81911 | 35074 ft | 503 kts | 96° |
| 2026-04-23 05:14 | 36.18168 | 9.90514 | 35075 ft | 503 kts | 96° |
| 2026-04-23 05:15 | 36.17127 | 9.99084 | 35069 ft | 504 kts | 96° |
| 2026-04-23 05:15 | 36.16081 | 10.07646 | 35063 ft | 503 kts | 96° |
| 2026-04-23 05:16 | 36.14799 | 10.16152 | 35055 ft | 506 kts | 103° |
| 2026-04-23 05:16 | 36.12581 | 10.24407 | 35065 ft | 507 kts | 107° |
| 2026-04-23 05:17 | 36.10424 | 10.32213 | 35048 ft | 507 kts | 106° |
| 2026-04-23 05:17 | 36.08296 | 10.40490 | 35048 ft | 506 kts | 101° |
| 2026-04-23 05:18 | 36.07156 | 10.49008 | 35050 ft | 501 kts | 90° |
| 2026-04-23 05:18 | 36.06923 | 10.57645 | 35060 ft | 501 kts | 88° |
| 2026-04-23 05:19 | 36.06737 | 10.66215 | 35049 ft | 501 kts | 88° |
| 2026-04-23 05:19 | 36.06503 | 10.74881 | 35054 ft | 502 kts | 89° |
| 2026-04-23 05:20 | 36.06244 | 10.83458 | 35054 ft | 502 kts | 89° |
| 2026-04-23 05:20 | 36.05973 | 10.92123 | 35053 ft | 502 kts | 89° |
| 2026-04-23 05:21 | 36.05701 | 11.00701 | 35051 ft | 502 kts | 89° |
| 2026-04-23 05:21 | 36.05422 | 11.09357 | 35053 ft | 502 kts | 89° |
| 2026-04-23 05:22 | 36.05138 | 11.17981 | 35046 ft | 502 kts | 89° |
| 2026-04-23 05:22 | 36.04867 | 11.26023 | 35048 ft | 502 kts | 89° |
| 2026-04-23 05:23 | 36.04572 | 11.34653 | 35052 ft | 502 kts | 89° |
| 2026-04-23 05:23 | 36.04306 | 11.43281 | 35053 ft | 502 kts | 89° |
| 2026-04-23 05:24 | 36.04052 | 11.51854 | 35046 ft | 501 kts | 88° |
| 2026-04-23 05:24 | 36.04072 | 11.60505 | 35052 ft | 500 kts | 85° |
| 2026-04-23 05:25 | 36.04221 | 11.69042 | 35043 ft | 500 kts | 85° |
| 2026-04-23 05:25 | 36.04335 | 11.77656 | 35044 ft | 501 kts | 85° |
| 2026-04-23 05:26 | 36.04406 | 11.86300 | 35042 ft | 501 kts | 86° |
| 2026-04-23 05:26 | 36.04457 | 11.94883 | 35044 ft | 502 kts | 86° |
| 2026-04-23 05:27 | 36.04495 | 12.02076 | 35047 ft | 502 kts | 86° |
| 2026-04-23 05:27 | 36.04544 | 12.12114 | 35045 ft | 502 kts | 86° |
| 2026-04-23 05:28 | 36.04573 | 12.18886 | 35048 ft | 502 kts | 86° |
| 2026-04-23 05:28 | 36.04605 | 12.27510 | 35039 ft | 503 kts | 86° |
| 2026-04-23 05:29 | 36.04631 | 12.36112 | 35042 ft | 503 kts | 86° |
| 2026-04-23 05:29 | 36.04650 | 12.44748 | 35040 ft | 503 kts | 86° |
| 2026-04-23 05:30 | 36.04663 | 12.53386 | 35035 ft | 503 kts | 86° |
| 2026-04-23 05:30 | 36.04670 | 12.62076 | 35037 ft | 503 kts | 86° |
| 2026-04-23 05:31 | 36.04671 | 12.70708 | 35036 ft | 503 kts | 86° |
| 2026-04-23 05:31 | 36.04666 | 12.79360 | 35035 ft | 503 kts | 86° |
| 2026-04-23 05:32 | 36.04654 | 12.87993 | 35034 ft | 504 kts | 86° |
| 2026-04-23 05:32 | 36.04636 | 12.96609 | 35034 ft | 504 kts | 86° |
| 2026-04-23 05:33 | 36.04612 | 13.05255 | 35034 ft | 504 kts | 87° |
| 2026-04-23 05:33 | 36.04584 | 13.13471 | 35031 ft | 504 kts | 87° |
| 2026-04-23 05:34 | 36.04548 | 13.22119 | 35036 ft | 504 kts | 87° |
| 2026-04-23 05:34 | 36.04505 | 13.30802 | 35037 ft | 504 kts | 87° |
| 2026-04-23 05:35 | 36.04457 | 13.39429 | 35025 ft | 504 kts | 87° |
| 2026-04-23 05:35 | 36.04402 | 13.48119 | 35028 ft | 505 kts | 87° |
| 2026-04-23 05:36 | 36.04341 | 13.56772 | 35038 ft | 505 kts | 87° |
| 2026-04-23 05:36 | 36.04273 | 13.65449 | 35037 ft | 506 kts | 87° |
| 2026-04-23 05:37 | 36.04199 | 13.74146 | 35038 ft | 506 kts | 87° |
| 2026-04-23 05:37 | 36.04119 | 13.82824 | 35040 ft | 507 kts | 88° |
| 2026-04-23 05:38 | 36.04032 | 13.91539 | 35029 ft | 507 kts | 88° |
| 2026-04-23 05:38 | 36.03939 | 14.00288 | 35031 ft | 507 kts | 88° |
| 2026-04-23 05:39 | 36.03840 | 14.08990 | 35031 ft | 507 kts | 88° |
| 2026-04-23 05:39 | 36.03736 | 14.17646 | 35029 ft | 507 kts | 88° |
| 2026-04-23 05:40 | 36.03532 | 14.26358 | 35029 ft | 508 kts | 90° |
| 2026-04-23 05:40 | 36.03130 | 14.34462 | 35026 ft | 508 kts | 91° |
| 2026-04-23 05:41 | 36.02666 | 14.43123 | 35027 ft | 508 kts | 91° |
| 2026-04-23 05:41 | 36.02226 | 14.51829 | 35030 ft | 508 kts | 90° |
| 2026-04-23 05:42 | 36.01804 | 14.60513 | 35027 ft | 508 kts | 90° |
| 2026-04-23 05:42 | 36.01377 | 14.69260 | 35025 ft | 508 kts | 91° |
| 2026-04-23 05:43 | 36.00943 | 14.77978 | 35032 ft | 509 kts | 91° |
| 2026-04-23 05:43 | 36.00500 | 14.86710 | 35032 ft | 509 kts | 91° |
| 2026-04-23 05:44 | 36.00051 | 14.95438 | 35030 ft | 510 kts | 91° |
| 2026-04-23 05:44 | 35.99595 | 15.04171 | 35031 ft | 511 kts | 91° |
| 2026-04-23 05:45 | 35.99132 | 15.12937 | 35031 ft | 511 kts | 91° |
| 2026-04-23 05:45 | 35.98665 | 15.21640 | 35030 ft | 512 kts | 91° |
| 2026-04-23 05:46 | 35.98189 | 15.30399 | 35032 ft | 512 kts | 91° |
| 2026-04-23 05:46 | 35.97705 | 15.39175 | 35033 ft | 513 kts | 91° |
| 2026-04-23 05:47 | 35.97216 | 15.47940 | 35031 ft | 513 kts | 91° |
| 2026-04-23 05:47 | 35.96717 | 15.56761 | 35034 ft | 513 kts | 91° |
| 2026-04-23 05:48 | 35.96212 | 15.65565 | 35030 ft | 514 kts | 91° |
| 2026-04-23 05:48 | 35.95701 | 15.74366 | 35028 ft | 514 kts | 92° |
| 2026-04-23 05:49 | 35.95187 | 15.83114 | 35033 ft | 514 kts | 92° |
| 2026-04-23 05:49 | 35.94661 | 15.91955 | 35030 ft | 515 kts | 92° |
| 2026-04-23 05:50 | 35.94131 | 16.00752 | 35030 ft | 515 kts | 92° |
| 2026-04-23 05:50 | 35.93593 | 16.09557 | 35029 ft | 515 kts | 92° |
| 2026-04-23 05:51 | 35.93048 | 16.18387 | 35027 ft | 515 kts | 92° |
| 2026-04-23 05:51 | 35.92497 | 16.27219 | 35033 ft | 516 kts | 92° |
| 2026-04-23 05:52 | 35.91942 | 16.35989 | 35028 ft | 516 kts | 92° |
| 2026-04-23 05:52 | 35.91377 | 16.44823 | 35028 ft | 517 kts | 92° |
| 2026-04-23 05:53 | 35.90802 | 16.53714 | 35030 ft | 517 kts | 92° |
| 2026-04-23 05:53 | 35.90225 | 16.62538 | 35030 ft | 518 kts | 93° |
| 2026-04-23 05:54 | 35.89641 | 16.71367 | 35030 ft | 519 kts | 93° |
| 2026-04-23 05:54 | 35.89046 | 16.80251 | 35035 ft | 520 kts | 93° |
| 2026-04-23 05:55 | 35.88446 | 16.89140 | 35033 ft | 521 kts | 93° |
| 2026-04-23 05:55 | 35.88025 | 16.98062 | 35037 ft | 521 kts | 88° |
| 2026-04-23 05:56 | 35.88036 | 17.06992 | 35032 ft | 522 kts | 88° |
| 2026-04-23 05:56 | 35.88076 | 17.15943 | 35030 ft | 523 kts | 88° |
| 2026-04-23 05:57 | 35.88082 | 17.24935 | 35030 ft | 524 kts | 88° |
| 2026-04-23 05:57 | 35.88061 | 17.33891 | 35030 ft | 525 kts | 88° |
| 2026-04-23 05:58 | 35.88029 | 17.42915 | 35033 ft | 526 kts | 89° |
| 2026-04-23 05:58 | 35.87993 | 17.51959 | 35033 ft | 526 kts | 89° |
| 2026-04-23 05:59 | 35.87951 | 17.60975 | 35033 ft | 527 kts | 89° |
| 2026-04-23 05:59 | 35.87903 | 17.69961 | 35027 ft | 527 kts | 89° |
| 2026-04-23 06:00 | 35.87848 | 17.79026 | 35032 ft | 527 kts | 89° |
| 2026-04-23 06:00 | 35.87790 | 17.87536 | 35029 ft | 528 kts | 89° |
| 2026-04-23 06:01 | 35.87722 | 17.96597 | 35029 ft | 528 kts | 89° |
| 2026-04-23 06:01 | 35.87647 | 18.05676 | 35029 ft | 528 kts | 89° |
| 2026-04-23 06:02 | 35.87565 | 18.14726 | 35026 ft | 529 kts | 89° |
| 2026-04-23 06:02 | 35.87476 | 18.23811 | 35029 ft | 530 kts | 89° |
| 2026-04-23 06:03 | 35.87380 | 18.32903 | 35024 ft | 530 kts | 89° |
| 2026-04-23 06:03 | 35.87277 | 18.42010 | 35026 ft | 531 kts | 89° |
| 2026-04-23 06:04 | 35.87167 | 18.51100 | 35026 ft | 531 kts | 90° |
| 2026-04-23 06:04 | 35.87055 | 18.60177 | 35022 ft | 532 kts | 89° |
| 2026-04-23 06:05 | 35.86931 | 18.69350 | 35027 ft | 533 kts | 90° |
| 2026-04-23 06:05 | 35.86796 | 18.78487 | 35027 ft | 533 kts | 90° |
| 2026-04-23 06:06 | 35.86657 | 18.87642 | 35023 ft | 533 kts | 90° |
| 2026-04-23 06:06 | 35.86514 | 18.96734 | 35021 ft | 533 kts | 90° |
| 2026-04-23 06:07 | 35.86361 | 19.05902 | 35024 ft | 533 kts | 91° |
| 2026-04-23 06:07 | 35.85566 | 19.14939 | 35019 ft | 532 kts | 101° |
| 2026-04-23 06:08 | 35.84093 | 19.23838 | 35019 ft | 532 kts | 102° |
| 2026-04-23 06:08 | 35.82592 | 19.32796 | 35019 ft | 531 kts | 102° |
| 2026-04-23 06:09 | 35.81144 | 19.41664 | 35020 ft | 531 kts | 102° |
| 2026-04-23 06:09 | 35.79703 | 19.50590 | 35016 ft | 531 kts | 102° |
| 2026-04-23 06:10 | 35.78257 | 19.59526 | 35015 ft | 531 kts | 102° |
| 2026-04-23 06:10 | 35.76799 | 19.68465 | 35012 ft | 531 kts | 102° |
| 2026-04-23 06:11 | 35.75332 | 19.77408 | 35015 ft | 532 kts | 102° |
| 2026-04-23 06:11 | 35.73864 | 19.86308 | 35017 ft | 532 kts | 102° |
| 2026-04-23 06:12 | 35.72383 | 19.95246 | 35014 ft | 532 kts | 102° |
| 2026-04-23 06:12 | 35.70155 | 20.08609 | 35009 ft | 532 kts | 102° |
| 2026-04-23 06:13 | 35.68663 | 20.17513 | 35002 ft | 532 kts | 102° |
| 2026-04-23 06:13 | 35.67159 | 20.26435 | 35003 ft | 532 kts | 103° |
| 2026-04-23 06:14 | 35.65658 | 20.35303 | 35005 ft | 532 kts | 103° |
| 2026-04-23 06:14 | 35.64394 | 20.42742 | 34997 ft | 532 kts | 103° |
| 2026-04-23 06:15 | 35.62624 | 20.53106 | 34998 ft | 533 kts | 103° |
| 2026-04-23 06:15 | 35.61352 | 20.60515 | 34996 ft | 533 kts | 103° |
| 2026-04-23 06:16 | 35.59904 | 20.68920 | 34998 ft | 533 kts | 103° |
| 2026-04-23 06:16 | 35.58604 | 20.76436 | 35002 ft | 533 kts | 103° |
| 2026-04-23 06:17 | 35.57063 | 20.85303 | 35002 ft | 533 kts | 103° |
| 2026-04-23 06:17 | 35.55509 | 20.94205 | 35000 ft | 533 kts | 103° |
| 2026-04-23 06:18 | 35.53949 | 21.03105 | 34995 ft | 533 kts | 103° |
| 2026-04-23 06:18 | 35.52383 | 21.12000 | 34991 ft | 533 kts | 103° |
| 2026-04-23 06:19 | 35.51121 | 21.20971 | 34991 ft | 533 kts | 98° |
| 2026-04-23 06:19 | 35.50212 | 21.30004 | 34989 ft | 533 kts | 97° |
| 2026-04-23 06:20 | 35.49305 | 21.39047 | 34987 ft | 534 kts | 97° |
| 2026-04-23 06:20 | 35.48359 | 21.48085 | 34985 ft | 534 kts | 98° |
| 2026-04-23 06:21 | 35.47460 | 21.56468 | 34983 ft | 534 kts | 98° |
| 2026-04-23 06:21 | 35.46483 | 21.65521 | 34985 ft | 534 kts | 98° |
| 2026-04-23 06:22 | 35.45504 | 21.74548 | 34985 ft | 534 kts | 98° |
| 2026-04-23 06:22 | 35.44518 | 21.83590 | 34984 ft | 534 kts | 98° |
| 2026-04-23 06:23 | 35.43525 | 21.92623 | 34980 ft | 534 kts | 98° |
| 2026-04-23 06:23 | 35.42527 | 22.01646 | 34980 ft | 534 kts | 98° |
| 2026-04-23 06:24 | 35.41521 | 22.10671 | 34980 ft | 534 kts | 98° |
| 2026-04-23 06:24 | 35.40511 | 22.19679 | 34977 ft | 534 kts | 98° |
| 2026-04-23 06:25 | 35.39493 | 22.28698 | 34982 ft | 534 kts | 98° |
| 2026-04-23 06:25 | 35.38468 | 22.37713 | 34977 ft | 534 kts | 98° |
| 2026-04-23 06:26 | 35.37432 | 22.46711 | 34972 ft | 534 kts | 98° |
| 2026-04-23 06:26 | 35.36451 | 22.55176 | 34972 ft | 534 kts | 98° |
| 2026-04-23 06:27 | 35.35402 | 22.64176 | 34975 ft | 534 kts | 98° |
| 2026-04-23 06:27 | 35.34349 | 22.73165 | 34975 ft | 533 kts | 98° |
| 2026-04-23 06:28 | 35.33288 | 22.82160 | 34975 ft | 533 kts | 99° |
| 2026-04-23 06:28 | 35.32220 | 22.91151 | 34972 ft | 533 kts | 99° |
| 2026-04-23 06:29 | 35.31145 | 23.00140 | 34976 ft | 534 kts | 99° |
| 2026-04-23 06:29 | 35.30603 | 23.04655 | 35114 ft | 537 kts | 99° |
| 2026-04-23 06:29 | 35.30059 | 23.09171 | 35477 ft | 535 kts | 99° |
| 2026-04-23 06:30 | 35.29515 | 23.13670 | 35858 ft | 533 kts | 99° |
| 2026-04-23 06:30 | 35.28972 | 23.18150 | 36209 ft | 531 kts | 99° |
| 2026-04-23 06:30 | 35.28430 | 23.22613 | 36510 ft | 531 kts | 99° |
| 2026-04-23 06:30 | 35.27884 | 23.27080 | 36776 ft | 531 kts | 99° |
| 2026-04-23 06:31 | 35.27337 | 23.31552 | 36918 ft | 532 kts | 99° |
| 2026-04-23 06:31 | 35.26785 | 23.36040 | 36962 ft | 534 kts | 99° |
| 2026-04-23 06:31 | 35.25739 | 23.44522 | 36961 ft | 532 kts | 99° |
| 2026-04-23 06:32 | 35.24639 | 23.53390 | 36960 ft | 529 kts | 99° |
| 2026-04-23 06:32 | 35.23530 | 23.62279 | 36962 ft | 528 kts | 99° |
| 2026-04-23 06:33 | 35.22563 | 23.71176 | 36958 ft | 528 kts | 94° |
| 2026-04-23 06:33 | 35.22091 | 23.80138 | 36966 ft | 528 kts | 93° |
| 2026-04-23 06:34 | 35.21660 | 23.89120 | 36961 ft | 530 kts | 94° |
| 2026-04-23 06:34 | 35.21188 | 23.98117 | 36964 ft | 531 kts | 94° |
| 2026-04-23 06:35 | 35.20686 | 24.07131 | 36958 ft | 532 kts | 94° |
| 2026-04-23 06:35 | 35.20176 | 24.16153 | 36963 ft | 532 kts | 94° |
| 2026-04-23 06:36 | 35.19661 | 24.25190 | 36965 ft | 533 kts | 94° |
| 2026-04-23 06:36 | 35.19139 | 24.34237 | 36963 ft | 533 kts | 94° |
| 2026-04-23 06:37 | 35.18641 | 24.42760 | 36960 ft | 533 kts | 94° |
| 2026-04-23 06:37 | 35.18111 | 24.51730 | 36965 ft | 532 kts | 94° |
| 2026-04-23 06:38 | 35.17573 | 24.60742 | 36973 ft | 532 kts | 94° |
| 2026-04-23 06:38 | 35.17009 | 24.69768 | 36954 ft | 532 kts | 95° |
| 2026-04-23 06:39 | 35.16411 | 24.78775 | 36951 ft | 531 kts | 95° |
| 2026-04-23 06:39 | 35.15810 | 24.87764 | 36964 ft | 530 kts | 95° |
| 2026-04-23 06:40 | 35.15212 | 24.96741 | 36953 ft | 530 kts | 95° |
| 2026-04-23 06:40 | 35.14641 | 25.05701 | 36970 ft | 529 kts | 95° |
| 2026-04-23 06:41 | 35.14072 | 25.14666 | 36968 ft | 529 kts | 95° |
| 2026-04-23 06:41 | 35.13497 | 25.23585 | 36970 ft | 530 kts | 95° |
| 2026-04-23 06:42 | 35.12941 | 25.32053 | 36959 ft | 531 kts | 95° |
| 2026-04-23 06:42 | 35.12347 | 25.40989 | 36964 ft | 532 kts | 95° |
| 2026-04-23 06:43 | 35.11743 | 25.49991 | 36966 ft | 532 kts | 95° |
| 2026-04-23 06:43 | 35.11130 | 25.59016 | 36957 ft | 533 kts | 95° |
| 2026-04-23 06:44 | 35.10513 | 25.68020 | 36953 ft | 532 kts | 95° |
| 2026-04-23 06:44 | 35.09890 | 25.77019 | 36964 ft | 531 kts | 95° |
| 2026-04-23 06:45 | 35.09248 | 25.85980 | 36980 ft | 530 kts | 95° |
| 2026-04-23 06:45 | 35.08586 | 25.94958 | 36945 ft | 530 kts | 95° |
| 2026-04-23 06:46 | 35.07926 | 26.03855 | 36956 ft | 529 kts | 95° |
| 2026-04-23 06:46 | 35.07256 | 26.12796 | 36956 ft | 530 kts | 96° |
| 2026-04-23 06:47 | 35.05826 | 26.21596 | 36964 ft | 528 kts | 108° |
| 2026-04-23 06:47 | 35.03422 | 26.29497 | 36970 ft | 525 kts | 115° |
| 2026-04-23 06:48 | 35.00624 | 26.37730 | 36960 ft | 525 kts | 115° |
| 2026-04-23 06:48 | 34.97843 | 26.45980 | 36963 ft | 526 kts | 114° |
| 2026-04-23 06:49 | 34.95094 | 26.54238 | 36960 ft | 526 kts | 114° |
| 2026-04-23 06:49 | 34.92346 | 26.62506 | 36956 ft | 526 kts | 114° |
| 2026-04-23 06:50 | 34.89589 | 26.70774 | 36951 ft | 527 kts | 114° |
| 2026-04-23 06:50 | 34.86843 | 26.78979 | 36972 ft | 527 kts | 114° |
| 2026-04-23 06:51 | 34.84072 | 26.87233 | 36965 ft | 527 kts | 114° |
| 2026-04-23 06:51 | 34.81295 | 26.95482 | 36960 ft | 526 kts | 114° |
| 2026-04-23 06:52 | 34.78517 | 27.03713 | 36963 ft | 526 kts | 115° |
| 2026-04-23 06:52 | 34.75733 | 27.11940 | 36960 ft | 526 kts | 115° |
| 2026-04-23 06:53 | 34.73103 | 27.19694 | 36960 ft | 525 kts | 115° |
| 2026-04-23 06:53 | 34.70312 | 27.27901 | 36961 ft | 525 kts | 115° |
| 2026-04-23 06:54 | 34.67518 | 27.36094 | 36966 ft | 524 kts | 115° |
| 2026-04-23 06:54 | 34.64722 | 27.44272 | 36961 ft | 524 kts | 115° |
| 2026-04-23 06:55 | 34.61925 | 27.52431 | 36970 ft | 524 kts | 115° |
| 2026-04-23 06:55 | 34.59122 | 27.60588 | 36963 ft | 523 kts | 115° |
| 2026-04-23 06:56 | 34.56333 | 27.68683 | 36974 ft | 523 kts | 115° |
| 2026-04-23 06:56 | 34.53525 | 27.76815 | 36973 ft | 523 kts | 115° |
| 2026-04-23 06:57 | 34.50700 | 27.84947 | 36977 ft | 523 kts | 115° |
| 2026-04-23 06:57 | 34.47864 | 27.93074 | 36973 ft | 523 kts | 115° |
| 2026-04-23 06:58 | 34.45028 | 28.01188 | 36978 ft | 523 kts | 115° |
| 2026-04-23 06:58 | 34.42186 | 28.09302 | 36978 ft | 523 kts | 115° |
| 2026-04-23 06:59 | 34.39525 | 28.16883 | 36978 ft | 523 kts | 115° |
| 2026-04-23 06:59 | 34.36677 | 28.24976 | 36980 ft | 523 kts | 115° |
| 2026-04-23 07:00 | 34.33842 | 28.33012 | 36977 ft | 523 kts | 115° |
| 2026-04-23 07:00 | 34.30982 | 28.41099 | 36980 ft | 522 kts | 115° |
| 2026-04-23 07:01 | 34.28118 | 28.49174 | 36983 ft | 522 kts | 116° |
| 2026-04-23 07:01 | 34.25249 | 28.57244 | 36987 ft | 522 kts | 116° |
| 2026-04-23 07:02 | 34.22376 | 28.65306 | 36985 ft | 522 kts | 116° |
| 2026-04-23 07:02 | 34.19500 | 28.73356 | 36984 ft | 522 kts | 116° |
| 2026-04-23 07:03 | 34.16616 | 28.81405 | 36985 ft | 522 kts | 116° |
| 2026-04-23 07:03 | 34.13725 | 28.89457 | 36985 ft | 522 kts | 116° |
| 2026-04-23 07:04 | 34.10850 | 28.97443 | 36984 ft | 522 kts | 116° |
| 2026-04-23 07:04 | 34.07955 | 29.05466 | 36995 ft | 522 kts | 116° |
| 2026-04-23 07:05 | 34.05049 | 29.13497 | 36995 ft | 522 kts | 116° |
| 2026-04-23 07:05 | 34.02138 | 29.21523 | 36992 ft | 522 kts | 116° |
| 2026-04-23 07:06 | 33.99222 | 29.29545 | 36994 ft | 522 kts | 116° |
| 2026-04-23 07:06 | 33.96299 | 29.37565 | 36998 ft | 523 kts | 116° |
| 2026-04-23 07:07 | 33.93865 | 29.44228 | 36992 ft | 523 kts | 116° |
| 2026-04-23 07:07 | 33.90935 | 29.52229 | 36993 ft | 523 kts | 116° |
| 2026-04-23 07:08 | 33.87518 | 29.61540 | 36991 ft | 523 kts | 116° |
| 2026-04-23 07:08 | 33.85073 | 29.68185 | 36991 ft | 523 kts | 116° |
| 2026-04-23 07:09 | 33.82122 | 29.76185 | 36993 ft | 523 kts | 117° |
| 2026-04-23 07:09 | 33.79168 | 29.84177 | 36995 ft | 523 kts | 117° |
| 2026-04-23 07:10 | 33.76209 | 29.92168 | 37000 ft | 523 kts | 117° |
| 2026-04-23 07:10 | 33.73479 | 29.99759 | 37000 ft | 525 kts | 112° |
| 2026-04-23 07:11 | 33.71458 | 30.08197 | 37004 ft | 526 kts | 105° |
| 2026-04-23 07:12 | 33.68866 | 30.21016 | 37002 ft | 527 kts | 105° |
| 2026-04-23 07:12 | 33.67094 | 30.29553 | 36999 ft | 527 kts | 106° |
| 2026-04-23 07:13 | 33.65300 | 30.38027 | 36995 ft | 527 kts | 106° |
| 2026-04-23 07:13 | 33.63483 | 30.46550 | 37000 ft | 527 kts | 106° |
| 2026-04-23 07:14 | 33.61663 | 30.55072 | 37003 ft | 527 kts | 106° |
| 2026-04-23 07:14 | 33.59827 | 30.63648 | 37003 ft | 527 kts | 106° |
| 2026-04-23 07:15 | 33.58011 | 30.72100 | 37002 ft | 527 kts | 106° |
| 2026-04-23 07:15 | 33.56176 | 30.80613 | 37002 ft | 527 kts | 106° |
| 2026-04-23 07:16 | 33.54336 | 30.89115 | 36998 ft | 527 kts | 107° |
| 2026-04-23 07:16 | 33.52490 | 30.97618 | 37011 ft | 527 kts | 107° |
| 2026-04-23 07:17 | 33.50637 | 31.06119 | 36997 ft | 527 kts | 107° |
| 2026-04-23 07:17 | 33.48781 | 31.14604 | 36998 ft | 527 kts | 107° |
| 2026-04-23 07:18 | 33.46917 | 31.23093 | 37009 ft | 527 kts | 107° |
| 2026-04-23 07:18 | 33.45047 | 31.31584 | 37006 ft | 527 kts | 107° |
| 2026-04-23 07:19 | 33.43184 | 31.40013 | 37005 ft | 527 kts | 107° |
| 2026-04-23 07:19 | 33.41303 | 31.48491 | 37008 ft | 527 kts | 107° |
| 2026-04-23 07:20 | 33.39418 | 31.56959 | 37006 ft | 527 kts | 107° |
| 2026-04-23 07:20 | 33.37528 | 31.65422 | 37010 ft | 527 kts | 107° |
| 2026-04-23 07:21 | 33.35630 | 31.73888 | 37008 ft | 527 kts | 107° |
| 2026-04-23 07:21 | 33.33726 | 31.82355 | 37008 ft | 527 kts | 107° |
| 2026-04-23 07:22 | 33.31932 | 31.90302 | 37006 ft | 527 kts | 107° |
| 2026-04-23 07:22 | 33.30018 | 31.98757 | 37007 ft | 527 kts | 108° |
| 2026-04-23 07:23 | 33.28095 | 32.07217 | 37006 ft | 527 kts | 108° |
| 2026-04-23 07:23 | 33.26182 | 32.15610 | 37008 ft | 527 kts | 108° |
| 2026-04-23 07:24 | 33.24252 | 32.24047 | 37007 ft | 527 kts | 108° |
| 2026-04-23 07:24 | 33.22315 | 32.32487 | 37008 ft | 527 kts | 108° |
| 2026-04-23 07:25 | 33.20373 | 32.40917 | 37007 ft | 527 kts | 108° |
| 2026-04-23 07:25 | 33.18422 | 32.49360 | 37006 ft | 527 kts | 108° |
| 2026-04-23 07:26 | 33.16470 | 32.57783 | 37005 ft | 527 kts | 108° |
| 2026-04-23 07:26 | 33.14510 | 32.66207 | 37011 ft | 527 kts | 108° |
| 2026-04-23 07:27 | 33.12547 | 32.74626 | 37011 ft | 527 kts | 108° |
| 2026-04-23 07:27 | 33.10615 | 32.82550 | 37010 ft | 524 kts | 113° |
| 2026-04-23 07:28 | 33.07604 | 32.90400 | 37021 ft | 518 kts | 124° |
| 2026-04-23 07:28 | 33.03662 | 32.97501 | 37014 ft | 513 kts | 130° |
| 2026-04-23 07:29 | 32.99508 | 33.04412 | 37004 ft | 513 kts | 130° |
| 2026-04-23 07:29 | 32.95397 | 33.11292 | 37006 ft | 513 kts | 130° |
| 2026-04-23 07:30 | 32.91282 | 33.18238 | 37002 ft | 513 kts | 130° |
| 2026-04-23 07:30 | 32.87174 | 33.25182 | 37006 ft | 513 kts | 130° |
| 2026-04-23 07:31 | 32.83066 | 33.32112 | 37004 ft | 513 kts | 130° |
| 2026-04-23 07:31 | 32.78949 | 33.39038 | 37004 ft | 513 kts | 130° |
| 2026-04-23 07:32 | 32.74824 | 33.45963 | 36995 ft | 513 kts | 130° |
| 2026-04-23 07:32 | 32.70726 | 33.52830 | 37015 ft | 513 kts | 130° |
| 2026-04-23 07:33 | 32.66604 | 33.59726 | 37010 ft | 512 kts | 130° |
| 2026-04-23 07:33 | 32.62472 | 33.66625 | 37005 ft | 512 kts | 130° |
| 2026-04-23 07:34 | 32.58342 | 33.73510 | 37004 ft | 512 kts | 130° |
| 2026-04-23 07:34 | 32.54209 | 33.80387 | 37013 ft | 512 kts | 130° |
| 2026-04-23 07:35 | 32.50073 | 33.87254 | 37010 ft | 512 kts | 130° |
| 2026-04-23 07:35 | 32.45936 | 33.94114 | 37005 ft | 511 kts | 130° |
| 2026-04-23 07:36 | 32.41797 | 34.00966 | 37004 ft | 511 kts | 130° |
| 2026-04-23 07:36 | 32.37706 | 34.07841 | 37002 ft | 513 kts | 127° |
| 2026-04-23 07:37 | 32.34344 | 34.15280 | 37006 ft | 517 kts | 120° |
| 2026-04-23 07:37 | 32.31473 | 34.22178 | 37000 ft | 517 kts | 120° |
| 2026-04-23 07:38 | 32.28253 | 34.29778 | 37002 ft | 517 kts | 121° |
| 2026-04-23 07:38 | 32.25014 | 34.37371 | 36992 ft | 517 kts | 121° |
| 2026-04-23 07:39 | 32.21782 | 34.44946 | 36997 ft | 517 kts | 121° |
| 2026-04-23 07:39 | 32.18587 | 34.52433 | 36995 ft | 517 kts | 120° |
| 2026-04-23 07:40 | 32.16001 | 34.60406 | 36993 ft | 522 kts | 109° |
| 2026-04-23 07:40 | 32.14514 | 34.68819 | 36998 ft | 525 kts | 102° |
| 2026-04-23 07:41 | 32.13212 | 34.77298 | 36988 ft | 525 kts | 103° |
| 2026-04-23 07:41 | 32.11824 | 34.85765 | 36996 ft | 526 kts | 103° |
| 2026-04-23 07:42 | 32.10063 | 34.94108 | 36993 ft | 522 kts | 111° |
| 2026-04-23 07:42 | 32.07682 | 35.02186 | 36995 ft | 522 kts | 112° |
| 2026-04-23 07:43 | 32.05304 | 35.10276 | 36983 ft | 522 kts | 112° |
| 2026-04-23 07:43 | 32.02975 | 35.18379 | 37002 ft | 522 kts | 112° |
| 2026-04-23 07:44 | 32.00584 | 35.26397 | 36991 ft | 522 kts | 113° |
| 2026-04-23 07:44 | 31.98236 | 35.34501 | 36986 ft | 522 kts | 112° |
| 2026-04-23 07:45 | 31.95930 | 35.42599 | 36991 ft | 522 kts | 112° |
| 2026-04-23 07:45 | 31.93944 | 35.50832 | 37003 ft | 525 kts | 103° |
| 2026-04-23 07:46 | 31.92818 | 35.59331 | 37018 ft | 524 kts | 104° |
| 2026-04-23 07:46 | 31.90943 | 35.67596 | 37014 ft | 522 kts | 113° |
| 2026-04-23 07:47 | 31.88023 | 35.75370 | 37035 ft | 519 kts | 120° |
| 2026-04-23 07:47 | 31.84810 | 35.82975 | 37027 ft | 520 kts | 121° |
| 2026-04-23 07:48 | 31.81613 | 35.90599 | 37048 ft | 520 kts | 120° |
| 2026-04-23 07:48 | 31.78457 | 35.98269 | 37047 ft | 521 kts | 120° |
| 2026-04-23 07:49 | 31.75322 | 36.05934 | 37048 ft | 521 kts | 120° |
| 2026-04-23 07:49 | 31.72177 | 36.13604 | 37041 ft | 521 kts | 120° |
| 2026-04-23 07:50 | 31.69028 | 36.21258 | 37031 ft | 520 kts | 120° |
| 2026-04-23 07:50 | 31.65872 | 36.28905 | 37025 ft | 520 kts | 120° |
| 2026-04-23 07:51 | 31.62736 | 36.36490 | 37013 ft | 520 kts | 120° |
| 2026-04-23 07:51 | 31.59578 | 36.44112 | 37003 ft | 520 kts | 120° |
| 2026-04-23 07:52 | 31.56412 | 36.51738 | 36993 ft | 519 kts | 121° |
| 2026-04-23 07:52 | 31.53247 | 36.59344 | 36993 ft | 519 kts | 121° |
| 2026-04-23 07:53 | 31.50074 | 36.66955 | 36988 ft | 520 kts | 121° |
| 2026-04-23 07:53 | 31.46894 | 36.74564 | 36987 ft | 520 kts | 121° |
| 2026-04-23 07:54 | 31.43709 | 36.82171 | 36979 ft | 521 kts | 121° |
| 2026-04-23 07:54 | 31.40512 | 36.89791 | 36996 ft | 522 kts | 121° |
| 2026-04-23 07:55 | 31.37305 | 36.97419 | 36976 ft | 522 kts | 121° |
| 2026-04-23 07:55 | 31.34087 | 37.05059 | 36976 ft | 523 kts | 121° |
| 2026-04-23 07:56 | 31.30868 | 37.12685 | 36990 ft | 523 kts | 121° |
| 2026-04-23 07:56 | 31.27662 | 37.20267 | 36985 ft | 524 kts | 121° |
| 2026-04-23 07:57 | 31.24725 | 37.28084 | 36981 ft | 528 kts | 114° |
| 2026-04-23 07:57 | 31.22345 | 37.36215 | 36984 ft | 529 kts | 112° |
| 2026-04-23 07:58 | 31.19963 | 37.44352 | 36981 ft | 529 kts | 113° |
| 2026-04-23 07:58 | 31.17527 | 37.52456 | 36973 ft | 529 kts | 114° |
| 2026-04-23 07:59 | 31.15077 | 37.60564 | 36974 ft | 529 kts | 114° |
| 2026-04-23 07:59 | 31.12613 | 37.68664 | 36976 ft | 530 kts | 114° |
| 2026-04-23 08:00 | 31.10138 | 37.76762 | 36982 ft | 530 kts | 114° |
| 2026-04-23 08:00 | 31.08075 | 37.83499 | 36972 ft | 530 kts | 114° |
| 2026-04-23 08:01 | 31.05190 | 37.92911 | 36980 ft | 530 kts | 114° |
| 2026-04-23 08:01 | 31.02701 | 38.01009 | 36981 ft | 530 kts | 114° |
| 2026-04-23 08:02 | 31.00206 | 38.09102 | 36981 ft | 530 kts | 114° |
| 2026-04-23 08:02 | 30.98129 | 38.15827 | 36985 ft | 530 kts | 114° |
| 2026-04-23 08:03 | 30.95625 | 38.23913 | 36982 ft | 531 kts | 114° |
| 2026-04-23 08:03 | 30.93114 | 38.32000 | 36987 ft | 531 kts | 114° |
| 2026-04-23 08:04 | 30.90601 | 38.40074 | 36982 ft | 531 kts | 115° |
| 2026-04-23 08:04 | 30.88079 | 38.48160 | 36985 ft | 531 kts | 115° |
| 2026-04-23 08:05 | 30.85552 | 38.56238 | 36992 ft | 531 kts | 115° |
| 2026-04-23 08:05 | 30.83019 | 38.64318 | 37002 ft | 532 kts | 115° |
| 2026-04-23 08:06 | 30.80479 | 38.72402 | 36994 ft | 532 kts | 115° |
| 2026-04-23 08:06 | 30.77737 | 38.80306 | 36992 ft | 527 kts | 121° |
| 2026-04-23 08:07 | 30.74460 | 38.87920 | 36985 ft | 527 kts | 122° |
| 2026-04-23 08:07 | 30.71134 | 38.95524 | 36984 ft | 528 kts | 122° |
| 2026-04-23 08:08 | 30.67839 | 39.03151 | 37001 ft | 528 kts | 122° |
| 2026-04-23 08:08 | 30.64557 | 39.10795 | 37003 ft | 529 kts | 122° |
| 2026-04-23 08:09 | 30.61276 | 39.18428 | 37005 ft | 529 kts | 122° |
| 2026-04-23 08:09 | 30.58000 | 39.26023 | 37011 ft | 529 kts | 122° |
| 2026-04-23 08:10 | 30.54699 | 39.33658 | 37015 ft | 529 kts | 122° |
| 2026-04-23 08:10 | 30.49737 | 39.45104 | 37024 ft | 530 kts | 122° |
| 2026-04-23 08:11 | 30.46425 | 39.52729 | 37027 ft | 530 kts | 122° |
| 2026-04-23 08:11 | 30.43103 | 39.60362 | 37034 ft | 531 kts | 122° |
| 2026-04-23 08:12 | 30.39810 | 39.68022 | 37031 ft | 532 kts | 121° |
| 2026-04-23 08:12 | 30.36725 | 39.75823 | 37049 ft | 534 kts | 120° |
| 2026-04-23 08:13 | 30.33676 | 39.83664 | 37044 ft | 534 kts | 120° |
| 2026-04-23 08:13 | 30.30586 | 39.91480 | 37042 ft | 534 kts | 120° |
| 2026-04-23 08:14 | 30.27468 | 39.99287 | 37034 ft | 535 kts | 120° |
| 2026-04-23 08:14 | 30.24344 | 40.07087 | 37043 ft | 535 kts | 120° |
| 2026-04-23 08:15 | 30.21227 | 40.14864 | 37040 ft | 536 kts | 120° |
| 2026-04-23 08:15 | 30.18087 | 40.22683 | 37033 ft | 536 kts | 120° |
| 2026-04-23 08:16 | 30.14942 | 40.30504 | 37037 ft | 537 kts | 121° |
| 2026-04-23 08:16 | 30.11790 | 40.38323 | 37039 ft | 537 kts | 121° |
| 2026-04-23 08:17 | 30.08620 | 40.46139 | 37038 ft | 537 kts | 121° |
| 2026-04-23 08:17 | 30.05441 | 40.53947 | 37043 ft | 538 kts | 121° |
| 2026-04-23 08:18 | 30.02272 | 40.61720 | 37042 ft | 538 kts | 121° |
| 2026-04-23 08:18 | 29.99082 | 40.69531 | 37045 ft | 539 kts | 121° |
| 2026-04-23 08:19 | 29.95882 | 40.77355 | 37045 ft | 539 kts | 121° |
| 2026-04-23 08:19 | 29.92674 | 40.85178 | 37048 ft | 540 kts | 121° |
| 2026-04-23 08:20 | 29.89459 | 40.93005 | 37041 ft | 540 kts | 121° |
| 2026-04-23 08:20 | 29.86236 | 41.00835 | 37042 ft | 541 kts | 121° |
| 2026-04-23 08:21 | 29.83004 | 41.08669 | 37043 ft | 542 kts | 121° |
| 2026-04-23 08:21 | 29.79764 | 41.16508 | 37042 ft | 542 kts | 121° |
| 2026-04-23 08:22 | 29.76519 | 41.24347 | 37036 ft | 543 kts | 121° |
| 2026-04-23 08:22 | 29.73328 | 41.32239 | 37039 ft | 546 kts | 117° |
| 2026-04-23 08:23 | 29.70714 | 41.40478 | 37038 ft | 549 kts | 114° |
| 2026-04-23 08:23 | 29.68197 | 41.48781 | 37031 ft | 550 kts | 114° |
| 2026-04-23 08:24 | 29.65648 | 41.57072 | 37039 ft | 550 kts | 115° |
| 2026-04-23 08:24 | 29.63078 | 41.65296 | 37020 ft | 550 kts | 115° |
| 2026-04-23 08:25 | 29.60475 | 41.73570 | 37033 ft | 551 kts | 115° |
| 2026-04-23 08:25 | 29.57865 | 41.81854 | 37022 ft | 551 kts | 115° |
| 2026-04-23 08:26 | 29.55256 | 41.90126 | 37017 ft | 552 kts | 115° |
| 2026-04-23 08:26 | 29.52634 | 41.98421 | 37013 ft | 552 kts | 115° |
| 2026-04-23 08:27 | 29.50007 | 42.06710 | 37013 ft | 553 kts | 115° |
| 2026-04-23 08:27 | 29.47371 | 42.15005 | 37009 ft | 553 kts | 115° |
| 2026-04-23 08:28 | 29.44727 | 42.23305 | 37008 ft | 554 kts | 115° |
| 2026-04-23 08:28 | 29.42076 | 42.31608 | 37001 ft | 555 kts | 115° |
| 2026-04-23 08:29 | 29.39431 | 42.39869 | 37002 ft | 555 kts | 115° |
| 2026-04-23 08:29 | 29.36766 | 42.48178 | 37005 ft | 556 kts | 115° |
| 2026-04-23 08:30 | 29.34090 | 42.56495 | 36998 ft | 556 kts | 116° |
| 2026-04-23 08:30 | 29.31407 | 42.64817 | 36995 ft | 557 kts | 116° |
| 2026-04-23 08:31 | 29.28717 | 42.73139 | 36991 ft | 557 kts | 116° |
| 2026-04-23 08:31 | 29.26021 | 42.81460 | 36993 ft | 557 kts | 116° |
| 2026-04-23 08:32 | 29.23321 | 42.89770 | 36985 ft | 557 kts | 116° |
| 2026-04-23 08:32 | 29.20614 | 42.98086 | 36987 ft | 558 kts | 116° |
| 2026-04-23 08:33 | 29.17900 | 43.06405 | 36987 ft | 558 kts | 116° |
| 2026-04-23 08:33 | 29.14818 | 43.14481 | 36986 ft | 549 kts | 126° |
| 2026-04-23 08:34 | 29.10950 | 43.21980 | 36983 ft | 547 kts | 128° |
| 2026-04-23 08:34 | 29.07068 | 43.29409 | 36992 ft | 548 kts | 128° |
| 2026-04-23 08:35 | 29.03183 | 43.36982 | 36985 ft | 549 kts | 127° |
| 2026-04-23 08:35 | 28.99351 | 43.44490 | 36981 ft | 550 kts | 127° |
| 2026-04-23 08:36 | 28.95482 | 43.52040 | 36980 ft | 551 kts | 128° |
| 2026-04-23 08:36 | 28.91595 | 43.59580 | 36980 ft | 551 kts | 128° |
| 2026-04-23 08:37 | 28.87695 | 43.67119 | 36979 ft | 552 kts | 128° |
| 2026-04-23 08:37 | 28.83791 | 43.74657 | 36986 ft | 552 kts | 128° |
| 2026-04-23 08:38 | 28.79884 | 43.82193 | 36982 ft | 552 kts | 128° |
| 2026-04-23 08:38 | 28.75976 | 43.89717 | 36987 ft | 552 kts | 128° |
| 2026-04-23 08:39 | 28.72061 | 43.97241 | 36991 ft | 552 kts | 128° |
| 2026-04-23 08:39 | 28.68171 | 44.04703 | 36989 ft | 551 kts | 128° |
| 2026-04-23 08:40 | 28.64252 | 44.12206 | 36992 ft | 551 kts | 128° |
| 2026-04-23 08:40 | 28.60334 | 44.19696 | 36993 ft | 550 kts | 128° |
| 2026-04-23 08:41 | 28.56416 | 44.27170 | 36989 ft | 550 kts | 128° |
| 2026-04-23 08:41 | 28.52504 | 44.34621 | 36992 ft | 549 kts | 128° |
| 2026-04-23 08:42 | 28.48586 | 44.42068 | 36994 ft | 548 kts | 128° |
| 2026-04-23 08:42 | 28.44669 | 44.49501 | 36995 ft | 548 kts | 128° |
| 2026-04-23 08:43 | 28.40781 | 44.56867 | 36997 ft | 547 kts | 128° |
| 2026-04-23 08:43 | 28.36865 | 44.64272 | 36994 ft | 547 kts | 128° |
| 2026-04-23 08:44 | 28.32947 | 44.71668 | 36996 ft | 546 kts | 128° |
| 2026-04-23 08:44 | 28.29028 | 44.79053 | 37011 ft | 546 kts | 128° |
| 2026-04-23 08:45 | 28.25108 | 44.86427 | 37004 ft | 545 kts | 128° |
| 2026-04-23 08:45 | 28.21187 | 44.93791 | 37003 ft | 545 kts | 128° |
| 2026-04-23 08:46 | 28.17266 | 45.01145 | 37005 ft | 544 kts | 128° |
| 2026-04-23 08:46 | 28.13348 | 45.08481 | 37006 ft | 544 kts | 128° |
| 2026-04-23 08:47 | 28.09461 | 45.15761 | 37003 ft | 543 kts | 128° |
| 2026-04-23 08:47 | 28.05546 | 45.23090 | 37008 ft | 543 kts | 128° |
| 2026-04-23 08:48 | 28.01636 | 45.30398 | 37010 ft | 543 kts | 128° |
| 2026-04-23 08:48 | 27.97715 | 45.37714 | 37013 ft | 543 kts | 128° |
| 2026-04-23 08:49 | 27.93796 | 45.45012 | 37015 ft | 543 kts | 128° |
| 2026-04-23 08:49 | 27.89964 | 45.52389 | 37017 ft | 548 kts | 122° |
| 2026-04-23 08:50 | 27.87082 | 45.60380 | 37023 ft | 556 kts | 111° |
| 2026-04-23 08:50 | 27.85227 | 45.68911 | 37020 ft | 560 kts | 106° |
| 2026-04-23 08:51 | 27.83554 | 45.77505 | 37015 ft | 560 kts | 106° |
| 2026-04-23 08:51 | 27.81824 | 45.86079 | 37020 ft | 560 kts | 107° |
| 2026-04-23 08:52 | 27.80043 | 45.94641 | 37017 ft | 560 kts | 107° |
| 2026-04-23 08:52 | 27.78253 | 46.03199 | 37019 ft | 560 kts | 107° |
| 2026-04-23 08:53 | 27.76468 | 46.11743 | 37018 ft | 559 kts | 107° |
| 2026-04-23 08:53 | 27.74680 | 46.20288 | 37019 ft | 559 kts | 107° |
| 2026-04-23 08:54 | 27.72901 | 46.28763 | 37011 ft | 558 kts | 107° |
| 2026-04-23 08:54 | 27.71104 | 46.37351 | 37031 ft | 558 kts | 107° |
| 2026-04-23 08:55 | 27.69333 | 46.45802 | 37023 ft | 558 kts | 107° |
| 2026-04-23 08:55 | 27.67543 | 46.54313 | 37021 ft | 557 kts | 107° |
| 2026-04-23 08:56 | 27.65747 | 46.62819 | 37037 ft | 557 kts | 107° |
| 2026-04-23 08:56 | 27.63945 | 46.71325 | 37033 ft | 557 kts | 107° |
| 2026-04-23 08:57 | 27.62141 | 46.79809 | 37033 ft | 557 kts | 107° |
| 2026-04-23 08:57 | 27.60638 | 46.86864 | 37038 ft | 556 kts | 107° |
| 2026-04-23 08:58 | 27.59170 | 46.93731 | 37035 ft | 556 kts | 107° |
| 2026-04-23 08:58 | 27.57354 | 47.02205 | 37052 ft | 556 kts | 107° |
| 2026-04-23 08:59 | 27.55534 | 47.10669 | 37052 ft | 555 kts | 107° |
| 2026-04-23 08:59 | 27.53713 | 47.19112 | 37052 ft | 555 kts | 107° |
| 2026-04-23 09:00 | 27.51887 | 47.27554 | 37053 ft | 554 kts | 107° |
| 2026-04-23 09:00 | 27.50058 | 47.35986 | 37052 ft | 553 kts | 107° |
| 2026-04-23 09:01 | 27.48239 | 47.44339 | 37065 ft | 553 kts | 107° |
| 2026-04-23 09:01 | 27.46392 | 47.52801 | 37042 ft | 552 kts | 107° |
| 2026-04-23 09:02 | 27.44551 | 47.61196 | 37055 ft | 551 kts | 108° |
| 2026-04-23 09:02 | 27.42370 | 47.69359 | 37049 ft | 548 kts | 112° |
| 2026-04-23 09:03 | 27.40000 | 47.77506 | 37064 ft | 548 kts | 112° |
| 2026-04-23 09:03 | 27.38507 | 47.82662 | 37042 ft | 550 kts | 112° |
| 2026-04-23 09:04 | 27.36165 | 47.90859 | 37027 ft | 551 kts | 112° |
| 2026-04-23 09:04 | 27.33829 | 47.99064 | 37022 ft | 550 kts | 112° |
| 2026-04-23 09:05 | 27.31489 | 48.07243 | 37032 ft | 548 kts | 112° |
| 2026-04-23 09:05 | 27.29230 | 48.15433 | 37027 ft | 548 kts | 110° |
| 2026-04-23 09:06 | 27.27088 | 48.23659 | 37029 ft | 548 kts | 110° |
| 2026-04-23 09:06 | 27.24943 | 48.31862 | 37026 ft | 547 kts | 110° |
| 2026-04-23 09:07 | 27.22770 | 48.40055 | 37027 ft | 546 kts | 110° |
| 2026-04-23 09:07 | 27.20588 | 48.48228 | 37024 ft | 545 kts | 110° |
| 2026-04-23 09:08 | 27.18424 | 48.56319 | 37024 ft | 545 kts | 110° |
| 2026-04-23 09:08 | 27.16243 | 48.64460 | 37025 ft | 544 kts | 110° |
| 2026-04-23 09:09 | 27.14061 | 48.72591 | 37020 ft | 543 kts | 110° |
| 2026-04-23 09:09 | 27.11997 | 48.80258 | 37017 ft | 543 kts | 110° |
| 2026-04-23 09:10 | 27.07460 | 48.91733 | 37010 ft | 532 kts | 126° |
| 2026-04-23 09:11 | 27.03226 | 48.98467 | 37012 ft | 526 kts | 133° |
| 2026-04-23 09:11 | 26.98778 | 49.04995 | 36999 ft | 527 kts | 133° |
| 2026-04-23 09:12 | 26.94350 | 49.11567 | 36994 ft | 528 kts | 133° |
| 2026-04-23 09:12 | 26.89975 | 49.18122 | 36986 ft | 529 kts | 133° |
| 2026-04-23 09:13 | 26.85567 | 49.24723 | 36988 ft | 530 kts | 133° |
| 2026-04-23 09:13 | 26.81145 | 49.31328 | 36972 ft | 530 kts | 133° |
| 2026-04-23 09:14 | 26.77051 | 49.38224 | 36988 ft | 536 kts | 123° |
| 2026-04-23 09:14 | 26.74019 | 49.45894 | 36959 ft | 542 kts | 111° |
| 2026-04-23 09:15 | 26.71717 | 49.53925 | 36958 ft | 542 kts | 110° |
| 2026-04-23 09:15 | 26.69385 | 49.61922 | 36966 ft | 540 kts | 111° |
| 2026-04-23 09:16 | 26.67124 | 49.69408 | 36945 ft | 538 kts | 112° |
| 2026-04-23 09:16 | 26.64724 | 49.77329 | 36953 ft | 537 kts | 112° |
| 2026-04-23 09:17 | 26.62349 | 49.85176 | 36933 ft | 536 kts | 111° |
| 2026-04-23 09:17 | 26.59996 | 49.93081 | 36949 ft | 535 kts | 111° |
| 2026-04-23 09:18 | 26.57632 | 50.00948 | 36950 ft | 533 kts | 112° |
| 2026-04-23 09:18 | 26.55214 | 50.08785 | 36962 ft | 533 kts | 111° |
| 2026-04-23 09:19 | 26.52848 | 50.16627 | 36905 ft | 533 kts | 111° |
| 2026-04-23 09:19 | 26.50479 | 50.24478 | 36895 ft | 534 kts | 111° |
| 2026-04-23 09:20 | 26.48098 | 50.32319 | 36891 ft | 533 kts | 111° |
| 2026-04-23 09:20 | 26.45748 | 50.40092 | 36914 ft | 532 kts | 110° |
| 2026-04-23 09:21 | 26.43552 | 50.47976 | 36910 ft | 532 kts | 109° |
| 2026-04-23 09:21 | 26.41380 | 50.55863 | 36914 ft | 533 kts | 109° |
| 2026-04-23 09:22 | 26.39334 | 50.63135 | 36911 ft | 534 kts | 110° |
| 2026-04-23 09:22 | 26.37094 | 50.71044 | 36910 ft | 536 kts | 110° |
| 2026-04-23 09:23 | 26.34831 | 50.78967 | 36910 ft | 537 kts | 110° |
| 2026-04-23 09:23 | 26.32527 | 50.86907 | 36904 ft | 539 kts | 110° |
| 2026-04-23 09:24 | 26.30084 | 50.94800 | 36896 ft | 538 kts | 115° |
| 2026-04-23 09:24 | 26.26667 | 51.02161 | 36893 ft | 534 kts | 124° |
| 2026-04-23 09:25 | 26.22976 | 51.09296 | 36892 ft | 536 kts | 123° |
| 2026-04-23 09:25 | 26.19326 | 51.16538 | 36889 ft | 537 kts | 123° |
| 2026-04-23 09:26 | 26.15678 | 51.23808 | 36891 ft | 538 kts | 123° |
| 2026-04-23 09:26 | 26.12012 | 51.31079 | 36889 ft | 539 kts | 123° |
| 2026-04-23 09:27 | 26.08329 | 51.38361 | 36888 ft | 540 kts | 123° |
| 2026-04-23 09:27 | 26.04634 | 51.45647 | 36890 ft | 541 kts | 123° |
| 2026-04-23 09:28 | 26.01134 | 51.52528 | 36888 ft | 542 kts | 123° |
| 2026-04-23 09:28 | 25.97418 | 51.59826 | 36884 ft | 543 kts | 123° |
| 2026-04-23 09:29 | 25.93698 | 51.67124 | 36884 ft | 543 kts | 123° |
| 2026-04-23 09:29 | 25.90000 | 51.74384 | 36881 ft | 544 kts | 122° |
| 2026-04-23 09:30 | 25.86407 | 51.81804 | 36884 ft | 545 kts | 121° |
| 2026-04-23 09:30 | 25.82878 | 51.89270 | 36879 ft | 547 kts | 119° |
| 2026-04-23 09:31 | 25.79642 | 51.96921 | 36882 ft | 548 kts | 117° |
| 2026-04-23 09:31 | 25.76462 | 52.04614 | 36879 ft | 549 kts | 117° |
| 2026-04-23 09:32 | 25.73247 | 52.12293 | 36878 ft | 549 kts | 118° |
| 2026-04-23 09:32 | 25.70006 | 52.19963 | 36877 ft | 549 kts | 118° |
| 2026-04-23 09:33 | 25.66760 | 52.27629 | 36876 ft | 549 kts | 118° |
| 2026-04-23 09:33 | 25.63517 | 52.35287 | 36873 ft | 549 kts | 118° |
| 2026-04-23 09:34 | 25.60122 | 52.42793 | 36873 ft | 547 kts | 122° |
| 2026-04-23 09:34 | 25.57012 | 52.48900 | 36867 ft | 547 kts | 123° |
| 2026-04-23 09:35 | 25.52824 | 52.57055 | 36875 ft | 547 kts | 123° |
| 2026-04-23 09:35 | 25.49098 | 52.64405 | 36867 ft | 548 kts | 122° |
| 2026-04-23 09:36 | 25.45370 | 52.71767 | 36867 ft | 548 kts | 122° |
| 2026-04-23 09:36 | 25.41471 | 52.78996 | 36879 ft | 547 kts | 126° |
| 2026-04-23 09:37 | 25.37453 | 52.86145 | 36865 ft | 547 kts | 125° |
| 2026-04-23 09:37 | 25.33464 | 52.93321 | 36860 ft | 548 kts | 125° |
| 2026-04-23 09:38 | 25.29843 | 53.00740 | 36875 ft | 551 kts | 117° |
| 2026-04-23 09:38 | 25.26771 | 53.08450 | 36854 ft | 552 kts | 116° |
| 2026-04-23 09:39 | 25.23666 | 53.16196 | 36869 ft | 552 kts | 116° |
| 2026-04-23 09:39 | 25.20494 | 53.23932 | 36864 ft | 552 kts | 117° |
| 2026-04-23 09:40 | 25.16899 | 53.31377 | 36871 ft | 548 kts | 126° |
| 2026-04-23 09:40 | 25.12312 | 53.38023 | 36863 ft | 542 kts | 135° |
| 2026-04-23 09:41 | 25.07432 | 53.44363 | 36856 ft | 543 kts | 135° |
| 2026-04-23 09:41 | 25.02599 | 53.50765 | 36853 ft | 543 kts | 134° |
| 2026-04-23 09:42 | 24.97810 | 53.57214 | 36852 ft | 544 kts | 131° |
| 2026-04-23 09:42 | 24.93654 | 53.64230 | 36858 ft | 548 kts | 123° |
| 2026-04-23 09:43 | 24.89833 | 53.71511 | 36847 ft | 549 kts | 123° |
| 2026-04-23 09:43 | 24.86003 | 53.78720 | 36850 ft | 549 kts | 123° |
| 2026-04-23 09:44 | 24.82101 | 53.85944 | 36845 ft | 549 kts | 124° |
| 2026-04-23 09:44 | 24.78191 | 53.93165 | 36841 ft | 549 kts | 123° |
| 2026-04-23 09:45 | 24.74339 | 54.00433 | 36847 ft | 551 kts | 120° |
| 2026-04-23 09:45 | 24.71170 | 54.08121 | 36851 ft | 552 kts | 115° |
| 2026-04-23 09:46 | 24.68157 | 54.15895 | 36836 ft | 552 kts | 115° |
| 2026-04-23 09:46 | 24.65092 | 54.23632 | 36843 ft | 552 kts | 115° |
| 2026-04-23 09:47 | 24.61988 | 54.31360 | 36838 ft | 552 kts | 115° |
| 2026-04-23 09:47 | 24.58881 | 54.39065 | 36833 ft | 551 kts | 117° |
| 2026-04-23 09:48 | 24.55147 | 54.46377 | 36829 ft | 548 kts | 125° |
| 2026-04-23 09:48 | 24.51280 | 54.53591 | 36832 ft | 549 kts | 118° |
| 2026-04-23 09:49 | 24.48524 | 54.61366 | 36837 ft | 551 kts | 109° |
| 2026-04-23 09:49 | 24.46065 | 54.69317 | 36824 ft | 551 kts | 110° |
| 2026-04-23 09:50 | 24.43541 | 54.77251 | 36824 ft | 550 kts | 110° |
| 2026-04-23 09:50 | 24.40972 | 54.85160 | 36818 ft | 550 kts | 110° |
| 2026-04-23 09:51 | 24.38396 | 54.93069 | 36819 ft | 550 kts | 110° |
| 2026-04-23 09:51 | 24.35826 | 55.00970 | 36812 ft | 550 kts | 110° |
| 2026-04-23 09:52 | 24.32928 | 55.08720 | 36806 ft | 548 kts | 118° |
| 2026-04-23 09:52 | 24.28982 | 55.15829 | 36812 ft | 545 kts | 126° |
| 2026-04-23 09:53 | 24.24771 | 55.22740 | 36803 ft | 545 kts | 126° |
| 2026-04-23 09:53 | 24.20636 | 55.29701 | 36805 ft | 545 kts | 125° |
| 2026-04-23 09:54 | 24.17655 | 55.35040 | 36803 ft | 547 kts | 120° |
| 2026-04-23 09:54 | 24.14533 | 55.42653 | 36814 ft | 549 kts | 113° |
| 2026-04-23 09:55 | 24.11648 | 55.50394 | 36809 ft | 549 kts | 113° |
| 2026-04-23 09:55 | 24.08692 | 55.58089 | 36813 ft | 549 kts | 114° |
| 2026-04-23 09:56 | 24.05650 | 55.65756 | 36812 ft | 549 kts | 117° |
| 2026-04-23 09:56 | 24.02150 | 55.73165 | 36829 ft | 548 kts | 120° |
| 2026-04-23 09:57 | 23.98573 | 55.80523 | 36836 ft | 548 kts | 120° |
| 2026-04-23 09:57 | 23.95048 | 55.87863 | 36810 ft | 537 kts | 119° |
| 2026-04-23 09:58 | 23.91647 | 55.94990 | 36835 ft | 529 kts | 119° |
| 2026-04-23 09:58 | 23.88243 | 56.02100 | 36848 ft | 528 kts | 119° |
| 2026-04-23 09:59 | 23.84835 | 56.09203 | 36854 ft | 527 kts | 119° |
| 2026-04-23 09:59 | 23.81431 | 56.16291 | 36861 ft | 527 kts | 119° |
| 2026-04-23 10:00 | 23.78020 | 56.23386 | 36876 ft | 527 kts | 119° |
| 2026-04-23 10:00 | 23.74601 | 56.30488 | 36878 ft | 529 kts | 119° |
| 2026-04-23 10:01 | 23.71168 | 56.37610 | 36868 ft | 531 kts | 119° |
| 2026-04-23 10:01 | 23.67729 | 56.44732 | 36880 ft | 531 kts | 119° |
| 2026-04-23 10:02 | 23.64282 | 56.51860 | 36882 ft | 531 kts | 119° |
| 2026-04-23 10:02 | 23.60830 | 56.58988 | 36892 ft | 531 kts | 119° |
| 2026-04-23 10:03 | 23.57398 | 56.66067 | 36888 ft | 532 kts | 119° |
| 2026-04-23 10:03 | 23.53943 | 56.73180 | 36884 ft | 531 kts | 118° |
| 2026-04-23 10:04 | 23.50488 | 56.80284 | 36903 ft | 530 kts | 119° |
| 2026-04-23 10:04 | 23.47043 | 56.87370 | 36902 ft | 529 kts | 118° |
| 2026-04-23 10:05 | 23.43595 | 56.94436 | 36911 ft | 529 kts | 119° |
| 2026-04-23 10:05 | 23.40137 | 57.01512 | 36923 ft | 527 kts | 118° |
| 2026-04-23 10:05 | 23.38800 | 57.05212 | 36911 ft | 525 kts | 101° |
| 2026-04-23 10:06 | 23.38330 | 57.09129 | 36924 ft | 520 kts | 86° |
| 2026-04-23 10:06 | 23.38761 | 57.12985 | 36916 ft | 508 kts | 70° |
| 2026-04-23 10:06 | 23.39683 | 57.16693 | 36936 ft | 509 kts | 70° |
| 2026-04-23 10:07 | 23.41397 | 57.23715 | 36936 ft | 516 kts | 71° |
| 2026-04-23 10:07 | 23.43129 | 57.31316 | 36928 ft | 518 kts | 72° |
| 2026-04-23 10:08 | 23.44813 | 57.38936 | 36906 ft | 517 kts | 72° |
| 2026-04-23 10:08 | 23.46496 | 57.46538 | 36905 ft | 516 kts | 72° |
| 2026-04-23 10:09 | 23.48664 | 57.57948 | 36873 ft | 511 kts | 85° |
| 2026-04-23 10:09 | 23.48533 | 57.65680 | 36884 ft | 510 kts | 89° |
| 2026-04-23 10:10 | 23.48421 | 57.73374 | 36872 ft | 503 kts | 87° |
| 2026-04-23 10:10 | 23.48463 | 57.77149 | 36845 ft | 492 kts | 82° |
| 2026-04-23 10:10 | 23.49145 | 57.80731 | 36876 ft | 477 kts | 63° |
| 2026-04-23 10:11 | 23.50633 | 57.83826 | 36867 ft | 458 kts | 46° |
| 2026-04-23 10:11 | 23.52699 | 57.86327 | 36850 ft | 435 kts | 32° |
| 2026-04-23 10:11 | 23.55124 | 57.88178 | 36863 ft | 419 kts | 20° |
| 2026-04-23 10:11 | 23.57718 | 57.89539 | 36856 ft | 409 kts | 12° |
| 2026-04-23 10:12 | 23.60357 | 57.90649 | 36822 ft | 413 kts | 23° |
| 2026-04-23 10:12 | 23.62602 | 57.92717 | 36855 ft | 438 kts | 46° |
| 2026-04-23 10:12 | 23.64050 | 57.95721 | 36839 ft | 461 kts | 70° |
| 2026-04-23 10:12 | 23.64425 | 57.99237 | 36833 ft | 476 kts | 93° |
| 2026-04-23 10:13 | 23.63641 | 58.02748 | 36822 ft | 480 kts | 115° |
| 2026-04-23 10:13 | 23.62152 | 58.06007 | 36838 ft | 482 kts | 116° |
| 2026-04-23 10:13 | 23.59948 | 58.12558 | 36800 ft | 479 kts | 108° |
| 2026-04-23 10:14 | 23.58579 | 58.19266 | 36794 ft | 469 kts | 88° |
| 2026-04-23 10:14 | 23.59023 | 58.26314 | 36817 ft | 467 kts | 79° |
| 2026-04-23 10:15 | 23.59716 | 58.33452 | 36826 ft | 481 kts | 81° |
| 2026-04-23 10:15 | 23.60304 | 58.40855 | 36825 ft | 499 kts | 82° |
| 2026-04-23 10:16 | 23.60885 | 58.48526 | 36812 ft | 512 kts | 85° |
| 2026-04-23 10:16 | 23.60511 | 58.52354 | 36810 ft | 520 kts | 106° |
| 2026-04-23 10:16 | 23.59181 | 58.56030 | 36826 ft | 524 kts | 115° |
| 2026-04-23 10:17 | 23.56006 | 58.63222 | 36811 ft | 526 kts | 114° |
| 2026-04-23 10:17 | 23.53236 | 58.70532 | 36801 ft | 518 kts | 110° |
| 2026-04-23 10:18 | 23.50706 | 58.77862 | 36818 ft | 517 kts | 110° |
| 2026-04-23 10:18 | 23.48126 | 58.85169 | 36814 ft | 517 kts | 110° |
| 2026-04-23 10:19 | 23.45335 | 58.92362 | 36788 ft | 514 kts | 125° |
| 2026-04-23 10:19 | 23.42993 | 58.95247 | 36821 ft | 507 kts | 144° |
| 2026-04-23 10:19 | 23.40132 | 58.97464 | 36829 ft | 505 kts | 151° |
| 2026-04-23 10:20 | 23.34229 | 59.01676 | 36820 ft | 511 kts | 147° |
| 2026-04-23 10:20 | 23.28652 | 59.06538 | 36821 ft | 517 kts | 142° |
| 2026-04-23 10:21 | 23.23236 | 59.11748 | 36822 ft | 521 kts | 141° |
| 2026-04-23 10:21 | 23.17823 | 59.16907 | 36810 ft | 521 kts | 141° |
| 2026-04-23 10:22 | 23.12688 | 59.22462 | 36810 ft | 520 kts | 122° |
| 2026-04-23 10:22 | 23.11184 | 59.25954 | 36818 ft | 517 kts | 104° |
| 2026-04-23 10:22 | 23.10563 | 59.29768 | 36814 ft | 511 kts | 88° |
| 2026-04-23 10:23 | 23.10827 | 59.33566 | 36816 ft | 501 kts | 72° |
| 2026-04-23 10:23 | 23.11911 | 59.37108 | 36815 ft | 489 kts | 57° |
| 2026-04-23 10:23 | 23.13708 | 59.40184 | 36819 ft | 476 kts | 43° |
| 2026-04-23 10:23 | 23.16061 | 59.42634 | 36814 ft | 463 kts | 29° |
| 2026-04-23 10:24 | 23.18797 | 59.44374 | 36814 ft | 450 kts | 15° |
| 2026-04-23 10:24 | 23.21747 | 59.45374 | 36813 ft | 439 kts | 3° |
| 2026-04-23 10:24 | 23.24747 | 59.45640 | 36811 ft | 430 kts | 352° |
| 2026-04-23 10:24 | 23.27676 | 59.45210 | 36808 ft | 422 kts | 340° |
| 2026-04-23 10:25 | 23.30410 | 59.44135 | 36812 ft | 416 kts | 329° |
| 2026-04-23 10:25 | 23.32848 | 59.42483 | 36814 ft | 411 kts | 319° |
| 2026-04-23 10:25 | 23.36611 | 59.37861 | 36815 ft | 409 kts | 302° |
| 2026-04-23 10:26 | 23.37946 | 59.35128 | 36797 ft | 410 kts | 291° |
| 2026-04-23 10:26 | 23.38610 | 59.32118 | 36825 ft | 409 kts | 282° |
| 2026-04-23 10:26 | 23.39676 | 59.26023 | 36817 ft | 411 kts | 283° |
| 2026-04-23 10:27 | 23.40801 | 59.19953 | 36802 ft | 412 kts | 283° |
| 2026-04-23 10:27 | 23.41961 | 59.13802 | 36809 ft | 412 kts | 283° |
| 2026-04-23 10:28 | 23.43107 | 59.07732 | 36807 ft | 411 kts | 283° |
| 2026-04-23 10:28 | 23.44254 | 59.01636 | 36811 ft | 410 kts | 283° |
| 2026-04-23 10:29 | 23.45390 | 58.95566 | 36816 ft | 409 kts | 283° |
| 2026-04-23 10:29 | 23.46523 | 58.89515 | 36812 ft | 406 kts | 282° |
| 2026-04-23 10:30 | 23.46653 | 58.86446 | 36824 ft | 409 kts | 267° |
| 2026-04-23 10:30 | 23.46104 | 58.83389 | 36812 ft | 415 kts | 257° |
| 2026-04-23 10:30 | 23.43544 | 58.77681 | 36814 ft | 430 kts | 239° |
| 2026-04-23 10:31 | 23.41502 | 58.75255 | 36820 ft | 441 kts | 227° |
| 2026-04-23 10:31 | 23.38946 | 58.73349 | 36829 ft | 454 kts | 213° |
| 2026-04-23 10:31 | 23.35947 | 58.72108 | 36795 ft | 469 kts | 199° |
| 2026-04-23 10:31 | 23.32672 | 58.71681 | 36835 ft | 482 kts | 185° |
| 2026-04-23 10:32 | 23.29308 | 58.72125 | 36817 ft | 495 kts | 170° |
| 2026-04-23 10:32 | 23.26066 | 58.73478 | 36836 ft | 505 kts | 154° |
| 2026-04-23 10:32 | 23.23186 | 58.75695 | 36721 ft | 510 kts | 139° |
| 2026-04-23 10:32 | 23.20888 | 58.78618 | 36313 ft | 509 kts | 123° |
| 2026-04-23 10:33 | 23.19275 | 58.82025 | 35861 ft | 505 kts | 108° |
| 2026-04-23 10:33 | 23.18493 | 58.85692 | 35419 ft | 496 kts | 97° |
| 2026-04-23 10:33 | 23.17940 | 58.89322 | 35027 ft | 491 kts | 98° |
| 2026-04-23 10:33 | 23.17326 | 58.92959 | 34639 ft | 487 kts | 99° |
| 2026-04-23 10:34 | 23.16667 | 58.96548 | 34282 ft | 480 kts | 98° |
| 2026-04-23 10:34 | 23.16507 | 59.00117 | 33813 ft | 471 kts | 79° |
| 2026-04-23 10:34 | 23.17257 | 59.03527 | 33323 ft | 460 kts | 64° |
| 2026-04-23 10:34 | 23.18751 | 59.06525 | 32878 ft | 445 kts | 47° |
| 2026-04-23 10:35 | 23.20912 | 59.08844 | 32427 ft | 431 kts | 30° |
| 2026-04-23 10:35 | 23.23499 | 59.10378 | 31957 ft | 419 kts | 15° |
| 2026-04-23 10:35 | 23.26294 | 59.11109 | 31466 ft | 409 kts | 1° |
| 2026-04-23 10:35 | 23.29104 | 59.11052 | 30962 ft | 402 kts | 347° |
| 2026-04-23 10:36 | 23.31777 | 59.10248 | 30433 ft | 396 kts | 334° |
| 2026-04-23 10:36 | 23.34149 | 59.08767 | 29940 ft | 392 kts | 320° |
| 2026-04-23 10:36 | 23.36092 | 59.06711 | 29381 ft | 389 kts | 306° |
| 2026-04-23 10:36 | 23.37518 | 59.04232 | 28926 ft | 385 kts | 295° |
| 2026-04-23 10:37 | 23.38507 | 59.01547 | 28509 ft | 381 kts | 285° |
| 2026-04-23 10:37 | 23.38854 | 58.98716 | 28002 ft | 376 kts | 270° |
| 2026-04-23 10:37 | 23.38836 | 58.95866 | 27458 ft | 377 kts | 270° |
| 2026-04-23 10:37 | 23.38805 | 58.93019 | 26996 ft | 376 kts | 270° |
| 2026-04-23 10:38 | 23.38776 | 58.90187 | 26613 ft | 373 kts | 270° |
| 2026-04-23 10:38 | 23.38754 | 58.87376 | 26245 ft | 369 kts | 270° |
| 2026-04-23 10:38 | 23.38738 | 58.84591 | 25859 ft | 367 kts | 270° |
| 2026-04-23 10:38 | 23.38728 | 58.81820 | 25461 ft | 365 kts | 270° |
| 2026-04-23 10:39 | 23.38721 | 58.79057 | 25071 ft | 364 kts | 270° |
| 2026-04-23 10:39 | 23.38716 | 58.76314 | 24705 ft | 362 kts | 270° |
| 2026-04-23 10:39 | 23.38714 | 58.73580 | 24369 ft | 360 kts | 270° |
| 2026-04-23 10:39 | 23.38709 | 58.70862 | 24023 ft | 358 kts | 270° |
| 2026-04-23 10:40 | 23.38704 | 58.68157 | 23660 ft | 357 kts | 270° |
| 2026-04-23 10:40 | 23.38699 | 58.65466 | 23276 ft | 355 kts | 270° |
| 2026-04-23 10:40 | 23.38693 | 58.62782 | 22864 ft | 353 kts | 269° |
| 2026-04-23 10:40 | 23.38689 | 58.60115 | 22475 ft | 351 kts | 270° |
| 2026-04-23 10:41 | 23.38684 | 58.57464 | 22092 ft | 349 kts | 269° |
| 2026-04-23 10:41 | 23.38678 | 58.54832 | 21734 ft | 347 kts | 269° |
| 2026-04-23 10:41 | 23.38672 | 58.52208 | 21350 ft | 346 kts | 269° |
| 2026-04-23 10:41 | 23.38666 | 58.49594 | 20974 ft | 344 kts | 269° |
| 2026-04-23 10:42 | 23.38659 | 58.46994 | 20604 ft | 343 kts | 269° |
| 2026-04-23 10:42 | 23.38651 | 58.44408 | 20240 ft | 341 kts | 269° |
| 2026-04-23 10:42 | 23.38644 | 58.41830 | 19887 ft | 340 kts | 269° |
| 2026-04-23 10:42 | 23.38636 | 58.39267 | 19532 ft | 338 kts | 269° |
| 2026-04-23 10:43 | 23.38627 | 58.36715 | 19187 ft | 337 kts | 269° |
| 2026-04-23 10:43 | 23.38618 | 58.34176 | 18874 ft | 335 kts | 269° |
| 2026-04-23 10:43 | 23.38608 | 58.31658 | 18681 ft | 329 kts | 270° |
| 2026-04-23 10:43 | 23.38598 | 58.29186 | 18448 ft | 325 kts | 269° |
| 2026-04-23 10:44 | 23.38588 | 58.26739 | 18233 ft | 322 kts | 269° |
| 2026-04-23 10:44 | 23.38579 | 58.24304 | 17948 ft | 321 kts | 269° |
| 2026-04-23 10:44 | 23.38568 | 58.21874 | 17628 ft | 320 kts | 269° |
| 2026-04-23 10:44 | 23.38560 | 58.20274 | 17440 ft | 320 kts | 269° |
| 2026-04-23 10:45 | 23.38546 | 58.17862 | 17147 ft | 318 kts | 269° |
| 2026-04-23 10:45 | 23.38533 | 58.15451 | 16859 ft | 318 kts | 269° |
| 2026-04-23 10:45 | 23.38522 | 58.13049 | 16597 ft | 316 kts | 269° |
| 2026-04-23 10:45 | 23.38512 | 58.10665 | 16340 ft | 315 kts | 269° |
| 2026-04-23 10:46 | 23.38499 | 58.08285 | 16049 ft | 314 kts | 269° |
| 2026-04-23 10:46 | 23.38485 | 58.05911 | 15718 ft | 314 kts | 269° |
| 2026-04-23 10:46 | 23.38473 | 58.03541 | 15458 ft | 313 kts | 269° |
| 2026-04-23 10:46 | 23.38460 | 58.01172 | 15111 ft | 314 kts | 270° |
| 2026-04-23 10:47 | 23.38446 | 57.98797 | 14857 ft | 312 kts | 270° |
| 2026-04-23 10:47 | 23.38431 | 57.96441 | 14584 ft | 312 kts | 270° |
| 2026-04-23 10:47 | 23.38417 | 57.94078 | 14284 ft | 312 kts | 270° |
| 2026-04-23 10:47 | 23.38401 | 57.91721 | 14046 ft | 311 kts | 270° |
| 2026-04-23 10:48 | 23.38386 | 57.89373 | 13778 ft | 310 kts | 270° |
| 2026-04-23 10:48 | 23.38372 | 57.87027 | 13498 ft | 310 kts | 270° |
| 2026-04-23 10:48 | 23.38358 | 57.84685 | 13227 ft | 309 kts | 270° |
| 2026-04-23 10:48 | 23.38345 | 57.82354 | 12987 ft | 307 kts | 270° |
| 2026-04-23 10:49 | 23.38329 | 57.80032 | 12715 ft | 306 kts | 270° |
| 2026-04-23 10:49 | 23.38312 | 57.77721 | 12458 ft | 304 kts | 270° |
| 2026-04-23 10:49 | 23.38295 | 57.75423 | 12190 ft | 303 kts | 269° |
| 2026-04-23 10:49 | 23.38278 | 57.73134 | 11928 ft | 302 kts | 269° |
| 2026-04-23 10:50 | 23.38261 | 57.70885 | 11691 ft | 300 kts | 269° |
| 2026-04-23 10:50 | 23.38243 | 57.68588 | 11441 ft | 299 kts | 269° |
| 2026-04-23 10:50 | 23.38226 | 57.66328 | 11202 ft | 298 kts | 269° |
| 2026-04-23 10:50 | 23.38208 | 57.64111 | 10959 ft | 296 kts | 269° |
| 2026-04-23 10:51 | 23.38190 | 57.61846 | 10713 ft | 295 kts | 269° |
| 2026-04-23 10:51 | 23.38171 | 57.59640 | 10479 ft | 294 kts | 268° |
| 2026-04-23 10:51 | 23.38149 | 57.57420 | 10245 ft | 293 kts | 268° |
| 2026-04-23 10:51 | 23.38133 | 57.55203 | 10040 ft | 292 kts | 268° |
| 2026-04-23 10:52 | 23.38115 | 57.53000 | 9824 ft | 291 kts | 268° |
| 2026-04-23 10:52 | 23.38094 | 57.50803 | 9613 ft | 290 kts | 268° |
| 2026-04-23 10:52 | 23.38074 | 57.48615 | 9392 ft | 288 kts | 268° |
| 2026-04-23 10:52 | 23.38056 | 57.46442 | 9136 ft | 286 kts | 270° |
| 2026-04-23 10:53 | 23.38459 | 57.44327 | 8698 ft | 292 kts | 295° |
| 2026-04-23 10:53 | 23.39726 | 57.42609 | 8446 ft | 294 kts | 321° |
| 2026-04-23 10:53 | 23.41550 | 57.41643 | 8255 ft | 294 kts | 346° |
| 2026-04-23 10:53 | 23.43581 | 57.41619 | 8004 ft | 295 kts | 12° |
| 2026-04-23 10:54 | 23.45423 | 57.42571 | 7721 ft | 296 kts | 39° |
| 2026-04-23 10:54 | 23.46691 | 57.44317 | 7460 ft | 295 kts | 65° |
| 2026-04-23 10:54 | 23.47130 | 57.46475 | 7182 ft | 291 kts | 89° |
| 2026-04-23 10:54 | 23.47218 | 57.48673 | 6909 ft | 290 kts | 84° |
| 2026-04-23 10:55 | 23.47523 | 57.50816 | 6901 ft | 284 kts | 79° |
| 2026-04-23 10:55 | 23.47935 | 57.52919 | 6900 ft | 287 kts | 77° |
| 2026-04-23 10:55 | 23.48381 | 57.55072 | 6890 ft | 293 kts | 81° |
| 2026-04-23 10:55 | 23.48550 | 57.57286 | 6893 ft | 295 kts | 90° |
| 2026-04-23 10:56 | 23.48543 | 57.59537 | 6883 ft | 298 kts | 92° |
| 2026-04-23 10:56 | 23.48507 | 57.61774 | 6862 ft | 294 kts | 91° |
| 2026-04-23 10:56 | 23.48480 | 57.63997 | 6856 ft | 291 kts | 91° |
| 2026-04-23 10:56 | 23.48463 | 57.66186 | 6863 ft | 287 kts | 91° |
| 2026-04-23 10:57 | 23.48456 | 57.68355 | 6849 ft | 286 kts | 91° |
| 2026-04-23 10:57 | 23.48453 | 57.70506 | 6872 ft | 284 kts | 91° |
| 2026-04-23 10:57 | 23.48454 | 57.72670 | 6873 ft | 286 kts | 91° |
| 2026-04-23 10:57 | 23.48457 | 57.74840 | 6859 ft | 288 kts | 91° |
| 2026-04-23 10:58 | 23.48461 | 57.77034 | 6861 ft | 290 kts | 91° |
| 2026-04-23 10:58 | 23.48465 | 57.79226 | 6846 ft | 289 kts | 91° |
| 2026-04-23 10:58 | 23.48472 | 57.81411 | 6852 ft | 288 kts | 91° |
| 2026-04-23 10:58 | 23.48476 | 57.83587 | 6865 ft | 287 kts | 91° |
| 2026-04-23 10:59 | 23.48536 | 57.85714 | 6823 ft | 281 kts | 81° |
| 2026-04-23 10:59 | 23.49258 | 57.87656 | 6720 ft | 279 kts | 53° |
| 2026-04-23 10:59 | 23.50703 | 57.89012 | 6595 ft | 276 kts | 28° |
| 2026-04-23 10:59 | 23.52533 | 57.89658 | 6388 ft | 275 kts | 6° |
| 2026-04-23 11:00 | 23.54406 | 57.90000 | 6183 ft | 265 kts | 23° |
| 2026-04-23 11:00 | 23.55857 | 57.91153 | 6127 ft | 259 kts | 54° |
| 2026-04-23 11:00 | 23.56603 | 57.92947 | 5813 ft | 264 kts | 82° |
| 2026-04-23 11:00 | 23.56711 | 57.94923 | 5528 ft | 261 kts | 90° |
| 2026-04-23 11:01 | 23.56797 | 57.96900 | 5188 ft | 261 kts | 87° |
| 2026-04-23 11:01 | 23.56939 | 57.98881 | 4846 ft | 262 kts | 85° |
| 2026-04-23 11:01 | 23.57097 | 58.00864 | 4557 ft | 263 kts | 85° |
| 2026-04-23 11:01 | 23.57258 | 58.02858 | 4205 ft | 265 kts | 85° |
| 2026-04-23 11:02 | 23.57415 | 58.04837 | 3864 ft | 265 kts | 85° |
| 2026-04-23 11:02 | 23.57571 | 58.06792 | 3519 ft | 250 kts | 85° |
| 2026-04-23 11:02 | 23.57718 | 58.08614 | 3261 ft | 232 kts | 84° |
| 2026-04-23 11:02 | 23.57851 | 58.10292 | 2947 ft | 211 kts | 84° |
| 2026-04-23 11:03 | 23.57972 | 58.11804 | 2679 ft | 188 kts | 83° |
| 2026-04-23 11:03 | 23.58083 | 58.13168 | 2463 ft | 170 kts | 84° |
| 2026-04-23 11:03 | 23.58180 | 58.14384 | 2271 ft | 156 kts | 84° |
| 2026-04-23 11:03 | 23.58273 | 58.15536 | 2067 ft | 148 kts | 85° |
| 2026-04-23 11:04 | 23.58356 | 58.16660 | 1900 ft | 149 kts | 83° |
| 2026-04-23 11:04 | 23.58454 | 58.17798 | 1699 ft | 151 kts | 82° |
| 2026-04-23 11:04 | 23.58544 | 58.18922 | 1518 ft | 148 kts | 81° |
| 2026-04-23 11:04 | 23.58638 | 58.20041 | 1303 ft | 145 kts | 82° |
| 2026-04-23 11:05 | 23.58713 | 58.21129 | 1120 ft | 147 kts | 82° |
| 2026-04-23 11:05 | 23.58814 | 58.22260 | 941 ft | 152 kts | 82° |
| 2026-04-23 11:05 | 23.58909 | 58.23430 | 735 ft | 155 kts | 82° |
| 2026-04-23 11:05 | 23.58985 | 58.24590 | 553 ft | 152 kts | 81° |
| 2026-04-23 11:06 | 23.59176 | 58.26862 | 105 ft | 150 kts | 81° |
| 2026-04-23 11:06 | 23.59269 | 58.27946 | 49 ft | 127 kts | 85° |
| 2026-04-23 11:06 | 23.59332 | 58.28706 | 49 ft | 74 kts | 85° |
| 2026-04-23 11:07 | 23.59372 | 58.29183 | 49 ft | 62 kts | 85° |
| 2026-04-23 11:07 | 23.59402 | 58.29617 | 49 ft | 50 kts | 84° |
| 2026-04-23 11:07 | 23.59435 | 58.29964 | 49 ft | 38 kts | 85° |
| 2026-04-23 11:07 | 23.59442 | 58.30138 | 48 ft | 15 kts | 107° |
| 2026-04-23 11:08 | 23.59386 | 58.30179 | 49 ft | 10 kts | 168° |
| 2026-04-23 11:08 | 23.59319 | 58.30186 | 49 ft | 10 kts | 179° |
| 2026-04-23 11:08 | 23.59256 | 58.30168 | 49 ft | 10 kts | 223° |
| 2026-04-23 11:08 | 23.59238 | 58.30096 | 49 ft | 11 kts | 265° |
| 2026-04-23 11:09 | 23.59228 | 58.29966 | 49 ft | 24 kts | 265° |
| 2026-04-23 11:09 | 23.59211 | 58.29754 | 49 ft | 29 kts | 265° |
| 2026-04-23 11:09 | 23.59195 | 58.29537 | 49 ft | 29 kts | 265° |
| 2026-04-23 11:09 | 23.59177 | 58.29322 | 49 ft | 29 kts | 264° |
| 2026-04-23 11:10 | 23.59159 | 58.29105 | 49 ft | 29 kts | 265° |
| 2026-04-23 11:10 | 23.59143 | 58.28890 | 49 ft | 29 kts | 265° |
| 2026-04-23 11:10 | 23.59125 | 58.28674 | 50 ft | 29 kts | 265° |
| 2026-04-23 11:10 | 23.59108 | 58.28458 | 49 ft | 29 kts | 265° |
| 2026-04-23 11:11 | 23.59090 | 58.28242 | 49 ft | 29 kts | 265° |
| 2026-04-23 11:11 | 23.59073 | 58.28027 | 49 ft | 28 kts | 265° |
| 2026-04-23 11:11 | 23.59057 | 58.27817 | 49 ft | 27 kts | 265° |
| 2026-04-23 11:11 | 23.59041 | 58.27624 | 49 ft | 24 kts | 264° |
| 2026-04-23 11:12 | 23.59026 | 58.27444 | 49 ft | 24 kts | 264° |
| 2026-04-23 11:12 | 23.59004 | 58.27335 | 49 ft | 10 kts | 225° |
| 2026-04-23 11:12 | 23.58932 | 58.27327 | 49 ft | 11 kts | 176° |
| 2026-04-23 11:12 | 23.58873 | 58.27296 | 49 ft | 10 kts | 235° |
| 2026-04-23 11:13 | 23.58858 | 58.27224 | 49 ft | 9 kts | 263° |
| 2026-04-23 11:13 | 23.58833 | 58.27184 | 49 ft | 6 kts | 213° |
| 2026-04-23 11:13 | 23.58799 | 58.27155 | 49 ft | 6 kts | 231° |
| 2026-04-23 11:13 | 23.58785 | 58.27113 | 49 ft | 4 kts | 261° |
| 2026-04-23 11:14 | 23.58784 | 58.27105 | 49 ft | 0 kts | 263° |